Provisional Data: Baldwin Run near Wellsboro Junction, PA


Please select a monitoring station.
Please select start date.
Please select start date.

Toggle Unit: C/F Toggle Unit: C/F
Sample Time Temperature (C) Temperature (F) Specific Conductivity (mS/cm) pH   Turbidity (NTU+) DO (mg/L)
5/4/2021 12:00:00 AM 10.14 50.252 0.051 8.88 60.26 10.69
5/4/2021 12:15:00 AM 10.14 50.252 0.051 8.9 62.27 10.7
5/4/2021 12:30:00 AM 10.13 50.234 0.052 8.9 40.38 10.69
5/4/2021 12:45:00 AM 10.11 50.198 0.052 8.91 71.61 10.7
5/4/2021 1:00:00 AM 10.1 50.18 0.052 8.9 36.1 10.7
5/4/2021 1:15:00 AM 10.09 50.162 0.05 8.87 52.03 10.7
5/4/2021 1:30:00 AM 10.08 50.144 0.052 8.91 52.07 10.7
5/4/2021 1:45:00 AM 10.07 50.126 0.052 8.91 64.79 10.71
5/4/2021 2:00:00 AM 10.06 50.108 0.052 8.91 46.14 10.7
5/4/2021 2:15:00 AM 10.05 50.09 0.052 8.91 43.7 10.71
5/4/2021 2:30:00 AM 10.05 50.09 0.052 8.88 51.91 10.71
5/4/2021 2:45:00 AM 10.05 50.09 0.051 8.93 72.17 10.71
5/4/2021 3:00:00 AM 10.04 50.072 0.051 8.81 54.93 10.72
5/4/2021 3:15:00 AM 10.03 50.054 0.051 8.84 52.51 10.71
5/4/2021 3:30:00 AM 10.01 50.018 0.051 8.94 45.64 10.72
5/4/2021 3:45:00 AM 10.01 50.018 0.051 8.91 57.46 10.72
5/4/2021 4:00:00 AM 10.01 50.018 0.051 8.92 43.57 10.72
5/4/2021 4:15:00 AM 10.01 50.018 0.051 8.93 30.49 10.72
5/4/2021 4:30:00 AM 10.01 50.018 0.051 8.92 42.98 10.72
5/4/2021 4:45:00 AM 10 50 0.051 8.91 44.71 10.72
5/4/2021 5:00:00 AM 10 50 0.051 8.9 33.13 10.72
5/4/2021 5:15:00 AM 10 50 0.051 8.9 53.98 10.72
5/4/2021 5:30:00 AM 9.99 49.982 0.051 8.91 40.41 10.72
5/4/2021 5:45:00 AM 9.99 49.982 0.051 8.9 35.21 10.72
5/4/2021 6:00:00 AM 9.99 49.982 0.051 8.91 35 10.72
5/4/2021 6:15:00 AM 9.99 49.982 0.051 8.82 45.37 10.73
5/4/2021 6:30:00 AM 9.99 49.982 0.051 8.91 63.4 10.73
5/4/2021 6:45:00 AM 9.99 49.982 0.051 8.91 42.8 10.75
5/4/2021 7:00:00 AM 9.99 49.982 0.051 8.91 41.97 10.75
5/4/2021 7:15:00 AM 9.99 49.982 0.051 8.92 38.32 10.76
5/4/2021 7:30:00 AM 9.99 49.982 0.051 8.82 40.75 10.77
5/4/2021 7:45:00 AM 9.99 49.982 0.051 8.92 33.2 10.77
5/4/2021 8:00:00 AM 9.99 49.982 0.051 8.91 38.32 10.78
5/4/2021 8:15:00 AM 10.01 50.018 0.051 8.77 35.5 10.78
5/4/2021 8:30:00 AM 10.04 50.072 0.051 8.94 37.13 10.8
5/4/2021 8:45:00 AM 10.11 50.198 0.051 8.95 33.49 10.83
5/4/2021 9:00:00 AM 10.22 50.396 0.051 8.91 37.8 10.82
5/4/2021 9:15:00 AM 10.21 50.378 0.051 8.96 33.92 10.78
5/4/2021 9:30:00 AM 10.18 50.324 0.051 9 49.18 10.79
5/4/2021 9:45:00 AM 10.25 50.45 0.051 9.01 37.37 10.81
5/4/2021 10:00:00 AM 10.34 50.612 0.051 9.02 40.65 10.78
5/4/2021 10:15:00 AM 10.36 50.648 0.051 9.03 35.05 10.77
5/4/2021 10:30:00 AM 10.5 50.9 0.051 9.06 36.87 10.76
5/4/2021 10:45:00 AM 10.97 51.746 0.051 8.93 45.48 10.69
5/4/2021 11:00:00 AM 11.31 52.358 0.051 9.11 41.94 10.61
5/4/2021 11:15:00 AM 11.48 52.664 0.051 9.11 36.58 10.56
5/4/2021 11:30:00 AM 11.41 52.538 0.051 9.11 38.99 10.55
5/4/2021 11:45:00 AM 11.69 53.042 0.05 9.12 43.66 10.51
5/4/2021 12:00:00 PM 11.75 53.15 0.05 8.98 53.71 10.47
5/4/2021 12:15:00 PM 11.82 53.276 0.05 9.13 44.53 10.46
5/4/2021 12:30:00 PM 11.99 53.582 0.048 9.08 47.52 10.44
5/4/2021 12:45:00 PM 12.27 54.086 0.05 9.15 40.63 10.38
5/4/2021 1:00:00 PM 12.48 54.464 0.05 9.15 42.65 10.32
5/4/2021 1:15:00 PM 12.56 54.608 0.05 9.15 53.17 10.28
5/4/2021 1:30:00 PM 12.48 54.464 0.05 9.14 44.28 10.28
5/4/2021 1:45:00 PM 12.4 54.32 0.05 8.98 59.46 10.27
5/4/2021 2:00:00 PM 12.48 54.464 0.05 9.15 42.57 10.27
5/4/2021 2:15:00 PM 12.52 54.536 0.05 9.13 35.93 10.24
5/4/2021 2:30:00 PM 12.64 54.752 0.05 9.14 39.21 10.25
5/4/2021 2:45:00 PM 12.73 54.914 0.05 9.08 38.11 10.23
5/4/2021 3:00:00 PM 12.81 55.058 0.05 9.15 43.56 10.19
5/4/2021 3:15:00 PM 12.84 55.112 0.05 9.16 39 10.19
5/4/2021 3:30:00 PM 12.96 55.328 0.05 9.16 55.06 10.16
5/4/2021 3:45:00 PM 12.92 55.256 0.05 9.13 50.24 10.14
5/4/2021 4:00:00 PM 12.88 55.184 0.05 9.14 50.72 10.13
5/4/2021 4:15:00 PM 12.9 55.22 0.05 9.13 71.12 10.13
5/4/2021 4:30:00 PM 12.9 55.22 0.05 9.13 46.01 10.11
5/4/2021 4:45:00 PM 12.87 55.166 0.05 9.11 50.92 10.1
5/4/2021 5:00:00 PM 12.84 55.112 0.05 9.1 47.15 10.08
5/4/2021 5:15:00 PM 12.79 55.022 0.05 8.94 49.01 10.09
5/4/2021 5:30:00 PM 12.79 55.022 0.05 9.09 48.59 10.11
5/4/2021 5:45:00 PM 12.81 55.058 0.05 9.11 51.84 10.13
5/4/2021 6:00:00 PM 12.81 55.058 0.051 9.11 41.29 10.14
5/4/2021 6:15:00 PM 12.79 55.022 0.051 9.12 45.52 10.12
5/4/2021 6:30:00 PM 12.76 54.968 0.051 9.11 39.44 10.13
5/4/2021 6:45:00 PM 12.75 54.95 0.051 9.11 35.85 10.13
5/4/2021 7:00:00 PM 12.74 54.932 0.051 9.09 35.29 10.11
5/4/2021 7:15:00 PM 12.7 54.86 0.051 9.08 48.8 10.1
5/4/2021 7:30:00 PM 12.68 54.824 0.051 9.07 39.62 10.09
5/4/2021 7:45:00 PM 12.65 54.77 0.051 9.05 37.25 10.08
5/4/2021 8:00:00 PM 12.61 54.698 0.051 9.04 46.08 10.09
5/4/2021 8:15:00 PM 12.58 54.644 0.051 8.9 44.93 10.09
5/4/2021 8:30:00 PM 12.55 54.59 0.051 9.04 42.14 10.09
5/4/2021 8:45:00 PM 12.54 54.572 0.051 9.03 42.39 10.1
5/4/2021 9:00:00 PM 12.49 54.482 0.051 9.05 43.01 10.11
5/4/2021 9:15:00 PM 12.45 54.41 0.052 9.04 40.04 10.13
5/4/2021 9:30:00 PM 12.39 54.302 0.052 9.01 55.51 10.14
5/4/2021 9:45:00 PM 12.33 54.194 0.052 8.94 42.1 10.15
5/4/2021 10:00:00 PM 12.27 54.086 0.052 9.01 46.42 10.16
5/4/2021 10:15:00 PM 12.22 53.996 0.052 9.01 48.04 10.17
5/4/2021 10:30:00 PM 12.16 53.888 0.052 9 42.43 10.18
5/4/2021 10:45:00 PM 12.11 53.798 0.052 9.01 39.6 10.19
5/4/2021 11:00:00 PM 12.06 53.708 0.052 8.99 40.82 10.21
5/4/2021 11:15:00 PM 12.02 53.636 0.052 8.99 45.39 10.22
5/4/2021 11:30:00 PM 11.97 53.546 0.052 8.97 44.36 10.23
5/4/2021 11:45:00 PM 11.93 53.474 0.052 8.99 48.22 10.24
5/5/2021 12:00:00 AM 11.9 53.42 0.052 8.98 39.3 10.25
5/5/2021 12:15:00 AM 11.87 53.366 0.052 8.99 57.73 10.26
5/5/2021 12:30:00 AM 11.83 53.294 0.052 8.99 38.49 10.27
5/5/2021 12:45:00 AM 11.8 53.24 0.052 8.89 45.26 10.27
5/5/2021 1:00:00 AM 11.77 53.186 0.052 9.04 43.24 10.28
5/5/2021 1:15:00 AM 11.72 53.096 0.052 9.01 40.08 10.3
5/5/2021 1:30:00 AM 11.68 53.024 0.052 9 34.33 10.3
5/5/2021 1:45:00 AM 11.64 52.952 0.052 8.99 40.41 10.31
5/5/2021 2:00:00 AM 11.6 52.88 0.052 8.99 41.99 10.32
5/5/2021 2:15:00 AM 11.56 52.808 0.052 8.94 36.86 10.34
5/5/2021 2:30:00 AM 11.52 52.736 0.052 8.99 45.09 10.34
5/5/2021 2:45:00 AM 11.48 52.664 0.052 8.98 41.95 10.35
5/5/2021 3:00:00 AM 11.44 52.592 0.052 8.99 46.19 10.36
5/5/2021 3:15:00 AM 11.41 52.538 0.052 8.99 28.16 10.36
5/5/2021 3:30:00 AM 11.37 52.466 0.052 8.86 38.5 10.37
5/5/2021 3:45:00 AM 11.32 52.376 0.052 8.97 41.63 10.38
5/5/2021 4:00:00 AM 11.27 52.286 0.052 8.96 44.44 10.4
5/5/2021 4:15:00 AM 11.24 52.232 0.052 8.93 62.12 10.4
5/5/2021 4:30:00 AM 11.21 52.178 0.052 8.99 42.72 10.41
5/5/2021 4:45:00 AM 11.17 52.106 0.052 8.86 40.02 10.43
5/5/2021 5:00:00 AM 11.14 52.052 0.052 8.98 41.51 10.44
5/5/2021 5:15:00 AM 11.11 51.998 0.052 8.97 44.97 10.44
5/5/2021 5:30:00 AM 11.08 51.944 0.052 8.98 36.6 10.45
5/5/2021 5:45:00 AM 11.05 51.89 0.052 8.99 39.45 10.45
5/5/2021 6:00:00 AM 11.03 51.854 0.052 8.96 41.33 10.46
5/5/2021 6:15:00 AM 11 51.8 0.052 8.97 30.97 10.47
5/5/2021 6:30:00 AM 10.97 51.746 0.052 8.98 37.71 10.48
5/5/2021 6:45:00 AM 10.95 51.71 0.052 8.98 31.47 10.5
5/5/2021 7:00:00 AM 10.94 51.692 0.052 8.88 32.81 10.52
5/5/2021 7:15:00 AM 10.93 51.674 0.052 8.98 29.14 10.54
5/5/2021 7:30:00 AM 10.92 51.656 0.052 9 41.34 10.55
5/5/2021 7:45:00 AM 10.92 51.656 0.052 9.03 36.65 10.55
5/5/2021 8:00:00 AM 10.91 51.638 0.052 9.06 25.09 10.56
5/5/2021 8:15:00 AM 10.92 51.656 0.052 9.07 32.74 10.57
5/5/2021 8:30:00 AM 10.9 51.62 0.052 9.07 37.26 10.55
5/5/2021 8:45:00 AM 10.87 51.566 0.052 9.07 33.85 10.56
5/5/2021 9:00:00 AM 10.85 51.53 0.052 9.06 26.08 10.56
5/5/2021 9:15:00 AM 10.83 51.494 0.052 9.07 31.16 10.57
5/5/2021 9:30:00 AM 10.82 51.476 0.052 9.07 41.63 10.58
5/5/2021 9:45:00 AM 10.82 51.476 0.052 9.07 49.77 10.59
5/5/2021 10:00:00 AM 10.82 51.476 0.052 9.08 42.14 10.59
5/5/2021 10:15:00 AM 10.81 51.458 0.052 9.08 53.2 10.6
5/5/2021 10:30:00 AM 10.83 51.494 0.052 9.1 46.65 10.62
5/5/2021 10:45:00 AM 10.86 51.548 0.053 9.04 43.4 10.61
5/5/2021 11:00:00 AM 10.87 51.566 0.054 9.14 72.23 10.6
5/5/2021 11:15:00 AM 10.88 51.584 0.054 9.15 53.11 10.6
5/5/2021 11:30:00 AM 10.88 51.584 0.055 9.01 89.03 10.6
5/5/2021 11:45:00 AM 10.86 51.548 0.055 9.17 69.53 10.61
5/5/2021 12:00:00 PM 10.84 51.512 0.054 9.16 55.9 10.62
5/5/2021 12:15:00 PM 10.83 51.494 0.054 9.13 58.99 10.64
5/5/2021 12:30:00 PM 10.84 51.512 0.053 9.16 38.56 10.66
5/5/2021 12:45:00 PM 10.83 51.494 0.053 9.15 47.37 10.66
5/5/2021 1:00:00 PM 10.82 51.476 0.052 9.12 40.02 10.66
5/5/2021 1:15:00 PM 10.82 51.476 0.052 9.17 50.07 10.67
5/5/2021 1:30:00 PM 10.8 51.44 0.052 9.16 34.82 10.67
5/5/2021 1:45:00 PM 10.8 51.44 0.052 9.16 38.19 10.66
5/5/2021 2:00:00 PM 10.76 51.368 0.052 9.06 49.49 10.67
5/5/2021 2:15:00 PM 10.73 51.314 0.052 9.17 33.72 10.68
5/5/2021 2:30:00 PM 10.72 51.296 0.052 9.14 40.88 10.69
5/5/2021 2:45:00 PM 10.71 51.278 0.052 9.16 40.61 10.7
5/5/2021 3:00:00 PM 10.73 51.314 0.052 9.17 27.47 10.71
5/5/2021 3:15:00 PM 10.8 51.44 0.052 9.16 35.61 10.71
5/5/2021 3:30:00 PM 10.82 51.476 0.052 9.16 44.31 10.69
5/5/2021 3:45:00 PM 10.72 51.296 0.052 9.16 41.52 10.68
5/5/2021 4:00:00 PM 10.65 51.17 0.052 9.16 37.89 10.69
5/5/2021 4:15:00 PM 10.6 51.08 0.052 9.15 43.46 10.7
5/5/2021 4:30:00 PM 10.57 51.026 0.052 9 35.61 10.71
5/5/2021 4:45:00 PM 10.54 50.972 0.052 9.07 50.8 10.73
5/5/2021 5:00:00 PM 10.53 50.954 0.052 9.16 34.61 10.74
5/5/2021 5:15:00 PM 10.51 50.918 0.052 9.16 31.56 10.74
5/5/2021 5:30:00 PM 10.45 50.81 0.052 9.14 43.26 10.74
5/5/2021 5:45:00 PM 10.42 50.756 0.052 9.15 40.84 10.76
5/5/2021 6:00:00 PM 10.36 50.648 0.052 9.14 38.2 10.75
5/5/2021 6:15:00 PM 10.31 50.558 0.052 9.14 31.17 10.77
5/5/2021 6:30:00 PM 10.26 50.468 0.052 8.98 40.07 10.78
5/5/2021 6:45:00 PM 10.22 50.396 0.052 9.12 53.77 10.79
5/5/2021 7:00:00 PM 10.18 50.324 0.107 9.11 40.75 10.79
5/5/2021 7:15:00 PM 10.13 50.234 0.053 9.11 34.11 10.77
5/5/2021 7:30:00 PM 10.07 50.126 0.052 9.1 31.06 10.8
5/5/2021 7:45:00 PM 10.01 50.018 0.061 9.09 37.86 10.81
5/5/2021 8:00:00 PM 9.97 49.946 0.057 9.1 37.99 10.82
5/5/2021 8:15:00 PM 9.91 49.838 0.053 9 40.55 10.82
5/5/2021 8:30:00 PM 9.86 49.748 0.053 9.08 44.23 10.84
5/5/2021 8:45:00 PM 9.81 49.658 0.059 9.1 39.19 10.85
5/5/2021 9:00:00 PM 9.77 49.586 0.053 9.03 29.79 10.86
5/5/2021 9:15:00 PM 9.72 49.496 0.053 8.98 38.41 10.88
5/5/2021 9:30:00 PM 9.67 49.406 0.053 9.09 32.39 10.89
5/5/2021 9:45:00 PM 9.62 49.316 0.053 9.08 34.03 10.91
5/5/2021 10:00:00 PM 9.58 49.244 0.052 9.08 42.41 10.93
5/5/2021 10:15:00 PM 9.53 49.154 0.052 8.95 39.56 10.93
5/5/2021 10:30:00 PM 9.48 49.064 0.052 9.03 41.55 10.95
5/5/2021 10:45:00 PM 9.43 48.974 0.052 9.08 31.08 10.96
5/5/2021 11:00:00 PM 9.39 48.902 0.052 9.07 46.16 10.98
5/5/2021 11:15:00 PM 9.34 48.812 0.052 8.97 37.39 10.99
5/5/2021 11:30:00 PM 9.29 48.722 0.052 9.04 35.01 11
5/5/2021 11:45:00 PM 9.23 48.614 0.052 9.06 32.47 11.02
5/6/2021 12:00:00 AM 9.18 48.524 0.052 9.07 36.74 11.03
5/6/2021 12:15:00 AM 9.14 48.452 0.052 9.07 34.57 11.04
5/6/2021 12:30:00 AM 9.1 48.38 0.052 9.01 23.33 11.06
5/6/2021 12:45:00 AM 9.04 48.272 0.052 9.07 37.14 11.08
5/6/2021 1:00:00 AM 8.98 48.164 0.052 9.07 34.11 11.09
5/6/2021 1:15:00 AM 8.94 48.092 0.052 8.94 34.12 11.1
5/6/2021 1:30:00 AM 8.89 48.002 0.052 8.97 44.65 11.11
5/6/2021 1:45:00 AM 8.84 47.912 0.052 9.07 30.7 11.12
5/6/2021 2:00:00 AM 8.8 47.84 0.052 9.07 37.77 11.14
5/6/2021 2:15:00 AM 8.74 47.732 0.052 8.91 54.58 11.15
5/6/2021 2:30:00 AM 8.71 47.678 0.052 9.07 40.09 11.16
5/6/2021 2:45:00 AM 8.67 47.606 0.052 9.06 32.24 11.17
5/6/2021 3:00:00 AM 8.63 47.534 0.052 9.06 41.48 11.19
5/6/2021 3:15:00 AM 8.59 47.462 0.052 9.02 32.85 11.19
5/6/2021 3:30:00 AM 8.55 47.39 0.052 9.06 36.23 11.21
5/6/2021 3:45:00 AM 8.51 47.318 0.052 8.91 30.24 11.22
5/6/2021 4:00:00 AM 8.48 47.264 0.052 9.07 48.76 11.23
5/6/2021 4:15:00 AM 8.44 47.192 0.052 9.06 33.75 11.24
5/6/2021 4:30:00 AM 8.4 47.12 0.052 8.99 41.53 11.25
5/6/2021 4:45:00 AM 8.38 47.084 0.052 9.06 37.41 11.26
5/6/2021 5:00:00 AM 8.35 47.03 0.052 9.06 33.51 11.27
5/6/2021 5:15:00 AM 8.3 46.94 0.052 9.06 38.47 11.28
5/6/2021 5:30:00 AM 8.27 46.886 0.052 9.05 35.65 11.29
5/6/2021 5:45:00 AM 8.24 46.832 0.052 8.97 40.06 11.3
5/6/2021 6:00:00 AM 8.2 46.76 0.052 8.93 26.51 11.32
5/6/2021 6:15:00 AM 8.16 46.688 0.052 9.07 49.32 11.34
5/6/2021 6:30:00 AM 8.11 46.598 0.052 9.06 105.56 11.36
5/6/2021 6:45:00 AM 8.06 46.508 0.052 9.07 58.78 11.38
5/6/2021 7:00:00 AM 8.03 46.454 0.052 8.95 61.17 11.4
5/6/2021 7:15:00 AM 8.01 46.418 0.052 8.99 38.77 11.42
5/6/2021 7:30:00 AM 8 46.4 0.052 9.01 29.65 11.44
5/6/2021 7:45:00 AM 8.01 46.418 0.052 9.1 35.02 11.45
5/6/2021 8:00:00 AM 8.02 46.436 0.052 9.1 46.67 11.46
5/6/2021 8:15:00 AM 8.04 46.472 0.052 8.98 42.97 11.48
5/6/2021 8:30:00 AM 8.21 46.778 0.052 9.1 35.8 11.48
5/6/2021 8:45:00 AM 8.3 46.94 0.052 9.14 52.08 11.45
5/6/2021 9:00:00 AM 8.4 47.12 0.052 9.02 51.72 11.44
5/6/2021 9:15:00 AM 8.52 47.336 0.052 9.15 45.66 11.42
5/6/2021 9:30:00 AM 8.44 47.192 0.052 9.14 43.29 11.4
5/6/2021 9:45:00 AM 8.3 46.94 0.052 9.1 37.45 11.42
5/6/2021 10:00:00 AM 8.32 46.976 0.052 9.13 37.5 11.44
5/6/2021 10:15:00 AM 8.69 47.642 0.052 9.15 35.13 11.39
5/6/2021 10:30:00 AM 9.04 48.272 0.052 9.08 41.22 11.31
5/6/2021 10:45:00 AM 9.17 48.506 0.052 9.15 27.09 11.24
5/6/2021 11:00:00 AM 9.07 48.326 0.052 9.16 39.34 11.25
5/6/2021 11:15:00 AM 8.88 47.984 0.052 9.15 34.61 11.3
5/6/2021 11:30:00 AM 9.2 48.56 0.052 9.16 43.46 11.25
5/6/2021 11:45:00 AM 9.19 48.542 0.052 9.08 37.08 11.23
5/6/2021 12:00:00 PM 9.39 48.902 0.052 9.18 41.07 11.21
5/6/2021 12:15:00 PM 9.61 49.298 0.052 9.18 41 11.15
5/6/2021 12:30:00 PM 9.55 49.19 0.052 9.17 31.28 11.13
5/6/2021 12:45:00 PM 9.44 48.992 0.052 9.18 41.84 11.14
5/6/2021 1:00:00 PM 9.54 49.172 0.052 9.19 43.25 11.15
5/6/2021 1:15:00 PM 9.85 49.73 0.052 9.19 37.19 11.07
5/6/2021 1:30:00 PM 9.95 49.91 0.052 9.19 45.93 11.05
5/6/2021 1:45:00 PM 10.04 50.072 0.052 9.19 39.26 11
5/6/2021 2:00:00 PM 9.95 49.91 0.052 9.19 52.15 11.01
5/6/2021 2:15:00 PM 10.01 50.018 0.052 9.2 33.46 11.01
5/6/2021 2:30:00 PM 10.07 50.126 0.052 9.1 61.12 10.99
5/6/2021 2:45:00 PM 10.1 50.18 0.052 9.19 39.72 10.96
5/6/2021 3:00:00 PM 10.04 50.072 0.052 9.2 45.24 10.97
5/6/2021 3:15:00 PM 10.05 50.09 0.052 9.2 36.2 10.97
5/6/2021 3:30:00 PM 10.05 50.09 0.052 9.2 40.91 10.96
5/6/2021 3:45:00 PM 10.03 50.054 0.052 9.12 50.87 10.96
5/6/2021 4:00:00 PM 10.02 50.036 0.052 9.21 33.35 10.96
5/6/2021 4:15:00 PM 10.01 50.018 0.052 9.2 36.56 10.96
5/6/2021 4:30:00 PM 10.02 50.036 0.052 9.21 40.91 10.96
5/6/2021 4:45:00 PM 10 50 0.052 9.19 29.88 10.95
5/6/2021 5:00:00 PM 10.04 50.072 0.052 9.09 28.2 10.94
5/6/2021 5:15:00 PM 10.04 50.072 0.052 9.18 39.05 10.94
5/6/2021 5:30:00 PM 10.02 50.036 0.052 9.19 38.21 10.95
5/6/2021 5:45:00 PM 9.99 49.982 0.052 9.2 30.91 10.94
5/6/2021 6:00:00 PM 9.92 49.856 0.052 9.19 40.83 10.94
5/6/2021 6:15:00 PM 9.87 49.766 0.052 9.18 46.23 10.94
5/6/2021 6:30:00 PM 9.85 49.73 0.052 9.18 41.53 10.94
5/6/2021 6:45:00 PM 9.81 49.658 0.052 9.17 44.71 10.95
5/6/2021 7:00:00 PM 9.77 49.586 0.052 9.11 34.85 10.94
5/6/2021 7:15:00 PM 9.73 49.514 0.052 9.14 37.15 10.94
5/6/2021 7:30:00 PM 9.72 49.496 0.052 9.16 31.86 10.93
5/6/2021 7:45:00 PM 9.68 49.424 0.052 9.02 47.23 10.92
5/6/2021 8:00:00 PM 9.61 49.298 0.053 9.14 37 10.93
5/6/2021 8:15:00 PM 9.54 49.172 0.053 9.12 37.65 10.94
5/6/2021 8:30:00 PM 9.47 49.046 0.053 9.12 35.57 10.94
5/6/2021 8:45:00 PM 9.4 48.92 0.053 9.1 37.99 10.96
5/6/2021 9:00:00 PM 9.33 48.794 0.053 9.1 38.48 10.98
5/6/2021 9:15:00 PM 9.26 48.668 0.053 9.11 38.01 11
5/6/2021 9:30:00 PM 9.17 48.506 0.051 9.05 38.78 11.02
5/6/2021 9:45:00 PM 9.09 48.362 0.053 8.99 36.6 11.04
5/6/2021 10:00:00 PM 9.01 48.218 0.053 9.1 29.77 11.07
5/6/2021 10:15:00 PM 8.93 48.074 0.053 9.08 35.13 11.09
5/6/2021 10:30:00 PM 8.85 47.93 0.053 9.1 36.23 11.12
5/6/2021 10:45:00 PM 8.76 47.768 0.053 8.98 39.01 11.14
5/6/2021 11:00:00 PM 8.68 47.624 0.053 8.99 33.08 11.16
5/6/2021 11:15:00 PM 8.59 47.462 0.053 9.05 39.77 11.18
5/6/2021 11:30:00 PM 8.51 47.318 0.053 9.09 53.39 11.21
5/6/2021 11:45:00 PM 8.42 47.156 0.053 9.09 33.45 11.23
5/7/2021 12:00:00 AM 8.35 47.03 0.053 9.09 30.06 11.25
5/7/2021 12:15:00 AM 8.27 46.886 0.053 9.08 26.4 11.27
5/7/2021 12:30:00 AM 8.19 46.742 0.053 9.08 37.84 11.29
5/7/2021 12:45:00 AM 8.1 46.58 0.053 9.07 35.4 11.31
5/7/2021 1:00:00 AM 8.02 46.436 0.053 9.07 28.04 11.34
5/7/2021 1:15:00 AM 7.94 46.292 0.053 8.92 33.01 11.36
5/7/2021 1:30:00 AM 7.86 46.148 0.053 9.08 29.59 11.38
5/7/2021 1:45:00 AM 7.78 46.004 0.053 9.04 27.8 11.4
5/7/2021 2:00:00 AM 7.7 45.86 0.053 9.07 25.6 11.43
5/7/2021 2:15:00 AM 7.63 45.734 0.053 8.91 23.99 11.45
5/7/2021 2:30:00 AM 7.56 45.608 0.053 9.08 34.12 11.47
5/7/2021 2:45:00 AM 7.49 45.482 0.053 9.07 27.71 11.48
5/7/2021 3:00:00 AM 7.43 45.374 0.053 9.06 30.42 11.5
5/7/2021 3:15:00 AM 7.38 45.284 0.053 9.06 28.25 11.52
5/7/2021 3:30:00 AM 7.32 45.176 0.053 9.03 29.99 11.53
5/7/2021 3:45:00 AM 7.27 45.086 0.053 9.06 33.04 11.55
5/7/2021 4:00:00 AM 7.22 44.996 0.053 9.06 29.38 11.55
5/7/2021 4:15:00 AM 7.17 44.906 0.053 9.06 38.05 11.57
5/7/2021 4:30:00 AM 7.11 44.798 0.053 9.06 22.46 11.59
5/7/2021 4:45:00 AM 7.05 44.69 0.053 8.95 43.63 11.6
5/7/2021 5:00:00 AM 7 44.6 0.053 8.95 30.82 11.61
5/7/2021 5:15:00 AM 6.94 44.492 0.053 9.07 29.29 11.63
5/7/2021 5:30:00 AM 6.9 44.42 0.053 9.06 30.07 11.65
5/7/2021 5:45:00 AM 6.85 44.33 0.053 9.04 68.09 11.66
5/7/2021 6:00:00 AM 6.8 44.24 0.053 8.94 49.62 11.67
5/7/2021 6:15:00 AM 6.76 44.168 0.053 9.06 38.18 11.7
5/7/2021 6:30:00 AM 6.73 44.114 0.053 9.06 41.16 11.72
5/7/2021 6:45:00 AM 6.72 44.096 0.053 9.05 40.47 11.74
5/7/2021 7:00:00 AM 6.72 44.096 0.053 9.08 31.53 11.77
5/7/2021 7:15:00 AM 6.73 44.114 0.053 9.08 31.01 11.79
5/7/2021 7:30:00 AM 6.74 44.132 0.053 9.07 28.77 11.79
5/7/2021 7:45:00 AM 6.77 44.186 0.053 9.08 38.14 11.8
5/7/2021 8:00:00 AM 6.81 44.258 0.053 9.09 34.5 11.79
5/7/2021 8:15:00 AM 6.86 44.348 0.053 9.1 29.19 11.79
5/7/2021 8:30:00 AM 6.98 44.564 0.053 9.1 29.71 11.78
5/7/2021 8:45:00 AM 7.02 44.636 0.053 9.11 24.87 11.75
5/7/2021 9:00:00 AM 7.04 44.672 0.053 9.12 23.34 11.74
5/7/2021 9:15:00 AM 7.1 44.78 0.053 9.12 33.36 11.74
5/7/2021 9:30:00 AM 7.22 44.996 0.053 8.99 35.72 11.71
5/7/2021 9:45:00 AM 7.32 45.176 0.053 9.15 30.42 11.69
5/7/2021 10:00:00 AM 7.47 45.446 0.053 9.15 53.19 11.66
5/7/2021 10:15:00 AM 7.65 45.77 0.053 9.16 33.78 11.62
5/7/2021 10:30:00 AM 7.95 46.31 0.053 9.17 32.01 11.55
5/7/2021 10:45:00 AM 7.96 46.328 0.053 9.17 28.45 11.52
5/7/2021 11:00:00 AM 8 46.4 0.053 9.18 45.06 11.51
5/7/2021 11:15:00 AM 8.28 46.904 0.052 9.18 27.21 11.47
5/7/2021 11:30:00 AM 8.39 47.102 0.052 9.18 32.49 11.4
5/7/2021 11:45:00 AM 8.49 47.282 0.052 9.19 32 11.39
5/7/2021 12:00:00 PM 8.58 47.444 0.052 9.19 37.81 11.34
5/7/2021 12:15:00 PM 8.54 47.372 0.052 9.18 31.45 11.34
5/7/2021 12:30:00 PM 8.5 47.3 0.052 9.1 26.36 11.34
5/7/2021 12:45:00 PM 8.48 47.264 0.052 9.19 26.15 11.32
5/7/2021 1:00:00 PM 8.49 47.282 0.052 9.19 26.89 11.32
5/7/2021 1:15:00 PM 8.52 47.336 0.052 9.03 29.48 11.31
5/7/2021 1:30:00 PM 8.55 47.39 0.052 9.2 30.21 11.3
5/7/2021 1:45:00 PM 8.6 47.48 0.052 9.2 30.56 11.29
5/7/2021 2:00:00 PM 8.69 47.642 0.052 9.15 26.24 11.28
5/7/2021 2:15:00 PM 8.76 47.768 0.052 9.21 34.55 11.25
5/7/2021 2:30:00 PM 8.71 47.678 0.052 9.18 37.07 11.22
5/7/2021 2:45:00 PM 8.66 47.588 0.052 9.18 31.05 11.22
5/7/2021 3:00:00 PM 8.64 47.552 0.053 9.17 38.81 11.21
5/7/2021 3:15:00 PM 8.64 47.552 0.053 9.17 31.95 11.22
5/7/2021 3:30:00 PM 8.63 47.534 0.053 9.16 26.09 11.21
5/7/2021 3:45:00 PM 8.64 47.552 0.053 9.16 23.31 11.22
5/7/2021 4:00:00 PM 8.65 47.57 0.053 9.18 34.72 11.23
5/7/2021 4:15:00 PM 8.67 47.606 0.053 9.18 26.96 11.23
5/7/2021 4:30:00 PM 8.67 47.606 0.053 9.18 33.34 11.21
5/7/2021 4:45:00 PM 8.68 47.624 0.053 9.18 27 11.22
5/7/2021 5:00:00 PM 8.68 47.624 0.053 9.18 23.67 11.2
5/7/2021 5:15:00 PM 8.66 47.588 0.053 9.16 22.92 11.19
5/7/2021 5:30:00 PM 8.65 47.57 0.053 9.17 28.03 11.19
5/7/2021 5:45:00 PM 8.65 47.57 0.053 9.17 31.05 11.2
5/7/2021 6:00:00 PM 8.64 47.552 0.053 9.17 32.49 11.18
5/7/2021 6:15:00 PM 8.63 47.534 0.053 9.16 33.08 11.17
5/7/2021 6:30:00 PM 8.61 47.498 0.055 9.18 57.44 11.16
5/7/2021 6:45:00 PM 8.59 47.462 0.056 9.18 51.64 11.16
5/7/2021 7:00:00 PM 8.56 47.408 0.055 9.17 55.01 11.17
5/7/2021 7:15:00 PM 8.53 47.354 0.055 9.17 69.65 11.16
5/7/2021 7:30:00 PM 8.51 47.318 0.056 9.18 77.82 11.17
5/7/2021 7:45:00 PM 8.48 47.264 0.058 9.2 79.28 11.18
5/7/2021 8:00:00 PM 8.44 47.192 0.058 9.19 61.82 11.19
5/7/2021 8:15:00 PM 8.4 47.12 0.057 9.19 66.6 11.2
5/7/2021 8:30:00 PM 8.37 47.066 0.056 9.18 57.36 11.21
5/7/2021 8:45:00 PM 8.32 46.976 0.056 9.12 88.21 11.22
5/7/2021 9:00:00 PM 8.27 46.886 0.055 9.17 47.85 11.23
5/7/2021 9:15:00 PM 8.23 46.814 0.055 9.16 47.89 11.25
5/7/2021 9:30:00 PM 8.18 46.724 0.054 9.16 50.74 11.26
5/7/2021 9:45:00 PM 8.14 46.652 0.054 9.04 65.97 11.28
5/7/2021 10:00:00 PM 8.1 46.58 0.054 9.15 55.77 11.29
5/7/2021 10:15:00 PM 8.06 46.508 0.054 9.15 51.51 11.3
5/7/2021 10:30:00 PM 8.02 46.436 0.054 9.15 52.11 11.31
5/7/2021 10:45:00 PM 7.99 46.382 0.055 9.15 59.19 11.32
5/7/2021 11:00:00 PM 7.96 46.328 0.055 9.16 71.49 11.33
5/7/2021 11:15:00 PM 7.94 46.292 0.055 9.16 46.05 11.33
5/7/2021 11:30:00 PM 7.91 46.238 0.055 9.04 35.68 11.34
5/7/2021 11:45:00 PM 7.88 46.184 0.055 9.16 41.88 11.35
5/8/2021 12:00:00 AM 7.84 46.112 0.055 9.15 39.16 11.36
5/8/2021 12:15:00 AM 7.81 46.058 0.055 9.14 37.63 11.37
5/8/2021 12:30:00 AM 7.78 46.004 0.055 9.15 35.95 11.38
5/8/2021 12:45:00 AM 7.75 45.95 0.055 9.15 74.68 11.38
5/8/2021 1:00:00 AM 7.72 45.896 0.054 9.15 35.87 11.4
5/8/2021 1:15:00 AM 7.69 45.842 0.054 9.14 39.62 11.4
5/8/2021 1:30:00 AM 7.66 45.788 0.054 9.14 38.7 11.41
5/8/2021 1:45:00 AM 7.63 45.734 0.054 9.14 31.73 11.41
5/8/2021 2:00:00 AM 7.6 45.68 0.054 9.08 29.84 11.42
5/8/2021 2:15:00 AM 7.56 45.608 0.054 9.06 40.29 11.43
5/8/2021 2:30:00 AM 7.53 45.554 0.054 9.13 38.21 11.44
5/8/2021 2:45:00 AM 7.5 45.5 0.054 9.13 51.85 11.44
5/8/2021 3:00:00 AM 7.48 45.464 0.054 9.02 46.12 11.45
5/8/2021 3:15:00 AM 7.45 45.41 0.054 9.13 45.09 11.47
5/8/2021 3:30:00 AM 7.43 45.374 0.054 9.13 40.6 11.47
5/8/2021 3:45:00 AM 7.41 45.338 0.054 9.13 32.47 11.47
5/8/2021 4:00:00 AM 7.38 45.284 0.054 9.12 120.65 11.48
5/8/2021 4:15:00 AM 7.36 45.248 0.054 9.12 57.34 11.49
5/8/2021 4:30:00 AM 7.35 45.23 0.054 9.12 92.66 11.5
5/8/2021 4:45:00 AM 7.33 45.194 0.054 9.11 79.31 11.5
5/8/2021 5:00:00 AM 7.31 45.158 0.054 9.11 51.12 11.5
5/8/2021 5:15:00 AM 7.29 45.122 0.054 9.11 38.45 11.5
5/8/2021 5:30:00 AM 7.28 45.104 0.054 9.07 64.2 11.51
5/8/2021 5:45:00 AM 7.26 45.068 0.054 9.12 51.43 11.51
5/8/2021 6:00:00 AM 7.24 45.032 0.054 9.13 53.43 11.52
5/8/2021 6:15:00 AM 7.23 45.014 0.054 9.12 36.21 11.53
5/8/2021 6:30:00 AM 7.22 44.996 0.054 9.11 42.58 11.54
5/8/2021 6:45:00 AM 7.21 44.978 0.054 9.13 48.36 11.55
5/8/2021 7:00:00 AM 7.21 44.978 0.054 8.98 30.64 11.57
5/8/2021 7:15:00 AM 7.21 44.978 0.054 9.17 34.46 11.59
5/8/2021 7:30:00 AM 7.23 45.014 0.054 9.15 67.27 11.62
5/8/2021 7:45:00 AM 7.26 45.068 0.054 9.17 38.38 11.62
5/8/2021 8:00:00 AM 7.27 45.086 0.054 9.17 55.76 11.61
5/8/2021 8:15:00 AM 7.27 45.086 0.054 9.06 62.6 11.6
5/8/2021 8:30:00 AM 7.29 45.122 0.054 9.15 51.83 11.61
5/8/2021 8:45:00 AM 7.33 45.194 0.054 9.17 51.35 11.62
5/8/2021 9:00:00 AM 7.36 45.248 0.053 9.17 40.7 11.61
5/8/2021 9:15:00 AM 7.41 45.338 0.053 9.18 30.91 11.61
5/8/2021 9:30:00 AM 7.42 45.356 0.053 9.19 52.54 11.59
5/8/2021 9:45:00 AM 7.42 45.356 0.053 9.05 56.37 11.59
5/8/2021 10:00:00 AM 7.41 45.338 0.053 9.16 38.25 11.58
5/8/2021 10:15:00 AM 7.44 45.392 0.053 9.19 35.06 11.59
5/8/2021 10:30:00 AM 7.53 45.554 0.053 9.21 36.63 11.59
5/8/2021 10:45:00 AM 7.57 45.626 0.053 9.06 34.49 11.58
5/8/2021 11:00:00 AM 7.6 45.68 0.053 9.21 29.05 11.57
5/8/2021 11:15:00 AM 7.6 45.68 0.053 9.21 74.32 11.55
5/8/2021 11:30:00 AM 7.55 45.59 0.053 9.19 59.83 11.53
5/8/2021 11:45:00 AM 7.56 45.608 0.053 9.19 61.43 11.56
5/8/2021 12:00:00 PM 7.69 45.842 0.053 9.2 64.23 11.58
5/8/2021 12:15:00 PM 7.78 46.004 0.053 9.21 47.43 11.54
5/8/2021 12:30:00 PM 7.73 45.914 0.053 9.2 64.7 11.51
5/8/2021 12:45:00 PM 7.76 45.968 0.053 9.21 47.89 11.54
5/8/2021 1:00:00 PM 7.82 46.076 0.053 9.21 39.14 11.53
5/8/2021 1:15:00 PM 7.86 46.148 0.053 9.21 43.73 11.51
5/8/2021 1:30:00 PM 7.93 46.274 0.053 9.22 40.62 11.5
5/8/2021 1:45:00 PM 8.04 46.472 0.053 9.23 73.72 11.47
5/8/2021 2:00:00 PM 8.05 46.49 0.053 9.09 48.48 11.45
5/8/2021 2:15:00 PM 8.16 46.688 0.053 9.22 39.2 11.43
5/8/2021 2:30:00 PM 8.21 46.778 0.053 9.24 45.49 11.43
5/8/2021 2:45:00 PM 8.3 46.94 0.053 9.24 39.34 11.41
5/8/2021 3:00:00 PM 8.28 46.904 0.053 9.24 39.35 11.4
5/8/2021 3:15:00 PM 8.43 47.174 0.053 9.24 32.35 11.38
5/8/2021 3:30:00 PM 8.41 47.138 0.053 9.23 43.27 11.35
5/8/2021 3:45:00 PM 8.54 47.372 0.053 9.23 38.19 11.36
5/8/2021 4:00:00 PM 8.47 47.246 0.053 9.22 32.1 11.31
5/8/2021 4:15:00 PM 8.34 47.012 0.053 9.2 37.45 11.32
5/8/2021 4:30:00 PM 8.32 46.976 0.053 9.22 45.39 11.37
5/8/2021 4:45:00 PM 8.41 47.138 0.053 9.22 35.86 11.36
5/8/2021 5:00:00 PM 8.44 47.192 0.053 9.22 42.36 11.35
5/8/2021 5:15:00 PM 8.4 47.12 0.053 9.22 37.09 11.34
5/8/2021 5:30:00 PM 8.38 47.084 0.053 9.23 45.33 11.37
5/8/2021 5:45:00 PM 8.39 47.102 0.053 9.15 39.76 11.37
5/8/2021 6:00:00 PM 8.34 47.012 0.053 9.22 33.95 11.36
5/8/2021 6:15:00 PM 8.29 46.922 0.053 9.2 31.19 11.37
5/8/2021 6:30:00 PM 8.26 46.868 0.053 9.22 41.32 11.37
5/8/2021 6:45:00 PM 8.21 46.778 0.053 9.18 49.04 11.36
5/8/2021 7:00:00 PM 8.17 46.706 0.053 9.18 43.91 11.37
5/8/2021 7:15:00 PM 8.16 46.688 0.053 9.2 38.91 11.37
5/8/2021 7:30:00 PM 8.16 46.688 0.053 9.15 33.2 11.36
5/8/2021 7:45:00 PM 8.14 46.652 0.053 9.17 48.22 11.36
5/8/2021 8:00:00 PM 8.1 46.58 0.053 9.11 38.42 11.36
5/8/2021 8:15:00 PM 8.07 46.526 0.053 9.14 37.49 11.35
5/8/2021 8:30:00 PM 8.02 46.436 0.053 9.08 38.92 11.35
5/8/2021 8:45:00 PM 7.96 46.328 0.053 9.02 31.69 11.37
5/8/2021 9:00:00 PM 7.9 46.22 0.054 9.12 38.84 11.38
5/8/2021 9:15:00 PM 7.85 46.13 0.054 9.15 33.54 11.4
5/8/2021 9:30:00 PM 7.8 46.04 0.054 9.14 30.44 11.42
5/8/2021 9:45:00 PM 7.77 45.986 0.054 9.05 35.86 11.43
5/8/2021 10:00:00 PM 7.72 45.896 0.054 9.14 39.63 11.45
5/8/2021 10:15:00 PM 7.66 45.788 0.054 9.14 28.25 11.47
5/8/2021 10:30:00 PM 7.59 45.662 0.054 9.14 31.41 11.49
5/8/2021 10:45:00 PM 7.53 45.554 0.054 9.13 46.57 11.5
5/8/2021 11:00:00 PM 7.47 45.446 0.054 9.14 29.36 11.52
5/8/2021 11:15:00 PM 7.4 45.32 0.054 9 38.3 11.54
5/8/2021 11:30:00 PM 7.33 45.194 0.054 9.12 37.26 11.56
5/8/2021 11:45:00 PM 7.26 45.068 0.054 9.13 44.52 11.58
5/9/2021 12:00:00 AM 7.19 44.942 0.054 9.12 30.97 11.6
5/9/2021 12:15:00 AM 7.12 44.816 0.054 9.06 40.68 11.62
5/9/2021 12:30:00 AM 7.05 44.69 0.054 9.11 37.45 11.64
5/9/2021 12:45:00 AM 6.98 44.564 0.054 9.12 35.2 11.67
5/9/2021 1:00:00 AM 6.94 44.492 0.054 9.12 49.76 11.68
5/9/2021 1:15:00 AM 6.9 44.42 0.054 9.12 42.66 11.7
5/9/2021 1:30:00 AM 6.86 44.348 0.054 9.12 49.22 11.71
5/9/2021 1:45:00 AM 6.82 44.276 0.054 9.12 49.59 11.72
5/9/2021 2:00:00 AM 6.79 44.222 0.054 9.12 45.96 11.73
5/9/2021 2:15:00 AM 6.74 44.132 0.054 9.11 58.65 11.74
5/9/2021 2:30:00 AM 6.7 44.06 0.054 9.12 43.63 11.75
5/9/2021 2:45:00 AM 6.65 43.97 0.054 9.12 37.13 11.77
5/9/2021 3:00:00 AM 6.61 43.898 0.054 9.11 32.99 11.78
5/9/2021 3:15:00 AM 6.57 43.826 0.054 9.11 45.52 11.79
5/9/2021 3:30:00 AM 6.53 43.754 0.054 9.11 41.78 11.8
5/9/2021 3:45:00 AM 6.48 43.664 0.054 9.11 37.29 11.82
5/9/2021 4:00:00 AM 6.44 43.592 0.054 9.12 39.06 11.83
5/9/2021 4:15:00 AM 6.39 43.502 0.054 9.11 32.63 11.85
5/9/2021 4:30:00 AM 6.35 43.43 0.054 9.11 31.38 11.86
5/9/2021 4:45:00 AM 6.31 43.358 0.054 9.1 39.5 11.88
5/9/2021 5:00:00 AM 6.27 43.286 0.054 9.07 48.02 11.9
5/9/2021 5:15:00 AM 6.23 43.214 0.054 9.12 24.66 11.91
5/9/2021 5:30:00 AM 6.18 43.124 0.054 9.09 24.22 11.92
5/9/2021 5:45:00 AM 6.13 43.034 0.054 9.12 32.76 11.93
5/9/2021 6:00:00 AM 6.1 42.98 0.054 9.12 30.64 11.95
5/9/2021 6:15:00 AM 6.07 42.926 0.054 9.11 30.53 11.97
5/9/2021 6:30:00 AM 6.03 42.854 0.054 9.11 30.9 11.99
5/9/2021 6:45:00 AM 6.02 42.836 0.054 9.12 34.54 12.02
5/9/2021 7:00:00 AM 6 42.8 0.054 9.13 34.75 12.03
5/9/2021 7:15:00 AM 5.99 42.782 0.054 9.13 36.74 12.04
5/9/2021 7:30:00 AM 5.98 42.764 0.054 9.12 29.24 12.06
5/9/2021 7:45:00 AM 5.99 42.782 0.054 9.15 26.8 12.08
5/9/2021 8:00:00 AM 6.03 42.854 0.054 9.16 29.52 12.09
5/9/2021 8:15:00 AM 6.07 42.926 0.053 9.16 34.11 12.08
5/9/2021 8:30:00 AM 6.1 42.98 0.053 9.17 27.36 12.08
5/9/2021 8:45:00 AM 6.23 43.214 0.053 9.17 27.55 12.06
5/9/2021 9:00:00 AM 6.31 43.358 0.053 9.18 30.45 12.04
5/9/2021 9:15:00 AM 6.37 43.466 0.053 9.2 25.43 12.02
5/9/2021 9:30:00 AM 6.51 43.718 0.053 9.19 33 12
5/9/2021 9:45:00 AM 6.64 43.952 0.053 9.2 31.08 11.96
5/9/2021 10:00:00 AM 6.8 44.24 0.053 9.2 38.58 11.92
5/9/2021 10:15:00 AM 7.05 44.69 0.053 9.21 20.26 11.86
5/9/2021 10:30:00 AM 7.19 44.942 0.053 9.22 26.1 11.8
5/9/2021 10:45:00 AM 7.14 44.852 0.053 9.22 35.08 11.8
5/9/2021 11:00:00 AM 7.12 44.816 0.053 9.22 24.43 11.8
5/9/2021 11:15:00 AM 7.09 44.762 0.053 9.22 35.65 11.78
5/9/2021 11:30:00 AM 7.12 44.816 0.053 9.22 28.04 11.78
5/9/2021 11:45:00 AM 7.18 44.924 0.053 9.23 35.59 11.76
5/9/2021 12:00:00 PM 7.23 45.014 0.053 9.22 36.72 11.74
5/9/2021 12:15:00 PM 7.25 45.05 0.053 9.22 34.82 11.73
5/9/2021 12:30:00 PM 7.27 45.086 0.053 9.22 28.85 11.72
5/9/2021 12:45:00 PM 7.29 45.122 0.053 9.23 29.25 11.71
5/9/2021 1:00:00 PM 7.29 45.122 0.053 9.13 24.47 11.69
5/9/2021 1:15:00 PM 7.28 45.104 0.053 9.2 26.73 11.68
5/9/2021 1:30:00 PM 7.29 45.122 0.053 9.23 31.18 11.68
5/9/2021 1:45:00 PM 7.27 45.086 0.053 9.22 38.42 11.67
5/9/2021 2:00:00 PM 7.24 45.032 0.053 9.22 38.12 11.67
5/9/2021 2:15:00 PM 7.21 44.978 0.052 9.09 32.71 11.68
5/9/2021 2:30:00 PM 7.19 44.942 0.052 9.17 45.82 11.68
5/9/2021 2:45:00 PM 7.17 44.906 0.053 9.23 44.41 11.68
5/9/2021 3:00:00 PM 7.15 44.87 0.053 9.21 45.3 11.68
5/9/2021 3:15:00 PM 7.12 44.816 0.054 9.23 81.49 11.66
5/9/2021 3:30:00 PM 7.1 44.78 0.055 9.11 40.3 11.68
5/9/2021 3:45:00 PM 7.07 44.726 0.055 9.25 64.23 11.66
5/9/2021 4:00:00 PM 7.04 44.672 0.056 9.25 96.47 11.67
5/9/2021 4:15:00 PM 7.01 44.618 0.057 9.25 118.3 11.67
5/9/2021 4:30:00 PM 6.96 44.528 0.057 9.26 90.26 11.68
5/9/2021 4:45:00 PM 6.91 44.438 0.057 9.25 93.27 11.68
5/9/2021 5:00:00 PM 6.81 44.258 0.056 9.24 118.6 11.69
5/9/2021 5:15:00 PM 6.73 44.114 0.055 9.22 93.74 11.72
5/9/2021 5:30:00 PM 6.61 43.898 0.054 9.2 104.64 11.75
5/9/2021 5:45:00 PM 6.45 43.61 0.054 9.19 133.06 11.78
5/9/2021 6:00:00 PM 6.32 43.376 0.053 9.2 87 11.83
5/9/2021 6:15:00 PM 6.25 43.25 0.053 9.18 85.54 11.86
5/9/2021 6:30:00 PM 6.19 43.142 0.053 9.18 122.16 11.87
5/9/2021 6:45:00 PM 6.13 43.034 0.053 9.05 119.44 11.9
5/9/2021 7:00:00 PM 6.11 42.998 0.053 9.2 99.92 11.9
5/9/2021 7:15:00 PM 6.08 42.944 0.053 9.19 119.14 11.9
5/9/2021 7:30:00 PM 6.04 42.872 0.053 9.19 104.03 11.91
5/9/2021 7:45:00 PM 6.02 42.836 0.053 9.09 108.57 11.92
5/9/2021 8:00:00 PM 6.01 42.818 0.053 9.17 110.8 11.92
5/9/2021 8:15:00 PM 6 42.8 0.053 9.2 130.7 11.92
5/9/2021 8:30:00 PM 5.99 42.782 0.053 9.18 161.38 11.93
5/9/2021 8:45:00 PM 5.98 42.764 0.052 9.18 163.09 11.93
5/9/2021 9:00:00 PM 5.98 42.764 0.052 8.99 179.03 11.93
5/9/2021 9:15:00 PM 5.98 42.764 0.051 9.16 189.75 11.93
5/9/2021 9:30:00 PM 5.97 42.746 0.05 9.12 168.09 11.94
5/9/2021 9:45:00 PM 5.97 42.746 0.05 8.94 144.5 11.94
5/9/2021 10:00:00 PM 5.98 42.764 0.049 9.13 196.52 11.94
5/9/2021 10:15:00 PM 6 42.8 0.049 9.11 189.17 11.93
5/9/2021 10:30:00 PM 6.01 42.818 0.048 8.95 195.07 11.93
5/9/2021 10:45:00 PM 6.02 42.836 0.048 9.09 191.58 11.93
5/9/2021 11:00:00 PM 6.03 42.854 0.047 9.08 175.29 11.92
5/9/2021 11:15:00 PM 6.03 42.854 0.047 8.92 160.6 11.92
5/9/2021 11:30:00 PM 6.04 42.872 0.046 9.06 167.79 11.91
5/9/2021 11:45:00 PM 6.06 42.908 0.046 9.05 143.33 11.91
5/10/2021 12:00:00 AM 6.07 42.926 0.045 9.03 169.59 11.91
5/10/2021 12:15:00 AM 6.09 42.962 0.045 9.03 200.81 11.91
5/10/2021 12:30:00 AM 6.1 42.98 0.044 9.02 211.56 11.91
5/10/2021 12:45:00 AM 6.12 43.016 0.044 9 203.93 11.91
5/10/2021 1:00:00 AM 6.13 43.034 0.044 8.84 188.24 11.9
5/10/2021 1:15:00 AM 6.14 43.052 0.043 8.99 163.38 11.9
5/10/2021 1:30:00 AM 6.16 43.088 0.043 8.96 130.93 11.9
5/10/2021 1:45:00 AM 6.17 43.106 0.043 8.97 120.34 11.89
5/10/2021 2:00:00 AM 6.17 43.106 0.043 8.94 129.76 11.9
5/10/2021 2:15:00 AM 6.19 43.142 0.042 8.83 109.69 11.89
5/10/2021 2:30:00 AM 6.2 43.16 0.042 8.85 107.71 11.89
5/10/2021 2:45:00 AM 6.21 43.178 0.042 8.97 96.38 11.88
5/10/2021 3:00:00 AM 6.23 43.214 0.042 8.94 99.07 11.88
5/10/2021 3:15:00 AM 6.24 43.232 0.042 8.81 89.17 11.87
5/10/2021 3:30:00 AM 6.26 43.268 0.042 8.95 90.63 11.87
5/10/2021 3:45:00 AM 6.28 43.304 0.042 8.81 66.7 11.86
5/10/2021 4:00:00 AM 6.29 43.322 0.042 8.94 64.71 11.86
5/10/2021 4:15:00 AM 6.3 43.34 0.042 8.93 84.82 11.86
5/10/2021 4:30:00 AM 6.31 43.358 0.042 8.88 76.91 11.86
5/10/2021 4:45:00 AM 6.32 43.376 0.042 8.93 86.2 11.86
5/10/2021 5:00:00 AM 6.33 43.394 0.042 8.94 64.5 11.86
5/10/2021 5:15:00 AM 6.34 43.412 0.042 8.94 56.38 11.86
5/10/2021 5:30:00 AM 6.35 43.43 0.042 8.95 62.61 11.86
5/10/2021 5:45:00 AM 6.36 43.448 0.042 8.95 69.84 11.86
5/10/2021 6:00:00 AM 6.37 43.466 0.042 8.95 69.12 11.86
5/10/2021 6:15:00 AM 6.37 43.466 0.042 8.96 56.64 11.86
5/10/2021 6:30:00 AM 6.38 43.484 0.042 8.95 66.15 11.86
5/10/2021 6:45:00 AM 6.39 43.502 0.042 8.94 57.41 11.86
5/10/2021 7:00:00 AM 6.41 43.538 0.042 8.82 63.06 11.86
5/10/2021 7:15:00 AM 6.42 43.556 0.042 8.96 57.5 11.86
5/10/2021 7:30:00 AM 6.44 43.592 0.042 8.95 88.5 11.86
5/10/2021 7:45:00 AM 6.47 43.646 0.042 8.84 46.2 11.86
5/10/2021 8:00:00 AM 6.5 43.7 0.042 8.97 48.89 11.86
5/10/2021 8:15:00 AM 6.54 43.772 0.042 8.92 66.05 11.85
5/10/2021 8:30:00 AM 6.59 43.862 0.041 8.98 55.6 11.84
5/10/2021 8:45:00 AM 6.65 43.97 0.041 8.98 42.66 11.83
5/10/2021 9:00:00 AM 6.72 44.096 0.041 8.99 56.01 11.82
5/10/2021 9:15:00 AM 6.84 44.312 0.041 8.98 43.06 11.8
5/10/2021 9:30:00 AM 6.89 44.402 0.041 8.98 54.84 11.78
5/10/2021 9:45:00 AM 7.01 44.618 0.041 8.99 53.73 11.76
5/10/2021 10:00:00 AM 7.13 44.834 0.041 8.99 55.38 11.74
5/10/2021 10:15:00 AM 7.31 45.158 0.041 8.99 38.36 11.69
5/10/2021 10:30:00 AM 7.46 45.428 0.041 9 57.46 11.65
5/10/2021 10:45:00 AM 7.64 45.752 0.041 9 51.42 11.61
5/10/2021 11:00:00 AM 7.75 45.95 0.041 9.01 56.9 11.57
5/10/2021 11:15:00 AM 7.91 46.238 0.041 9.01 60.17 11.53
5/10/2021 11:30:00 AM 8.08 46.544 0.041 9.02 43.71 11.49
5/10/2021 11:45:00 AM 8.17 46.706 0.041 9.02 55.18 11.44
5/10/2021 12:00:00 PM 8.3 46.94 0.041 8.99 52.27 11.4
5/10/2021 12:15:00 PM 8.52 47.336 0.041 9.04 54.08 11.35
5/10/2021 12:30:00 PM 8.5 47.3 0.041 9.03 55.41 11.34
5/10/2021 12:45:00 PM 8.52 47.336 0.041 9.03 54.87 11.32
5/10/2021 1:00:00 PM 8.63 47.534 0.042 9.04 50.53 11.29
5/10/2021 1:15:00 PM 8.7 47.66 0.042 9.04 65.33 11.29
5/10/2021 1:30:00 PM 8.73 47.714 0.042 9.04 54.62 11.27
5/10/2021 1:45:00 PM 8.79 47.822 0.042 8.91 48.17 11.25
5/10/2021 2:00:00 PM 9.05 48.29 0.042 9.06 51.88 11.21
5/10/2021 2:15:00 PM 9.01 48.218 0.042 9.06 44.83 11.2
5/10/2021 2:30:00 PM 8.97 48.146 0.042 9.06 51.39 11.19
5/10/2021 2:45:00 PM 9.01 48.218 0.042 9.06 44.31 11.19
5/10/2021 3:00:00 PM 8.99 48.182 0.042 9.06 49.12 11.2
5/10/2021 3:15:00 PM 8.97 48.146 0.042 9.06 53.6 11.21
5/10/2021 3:30:00 PM 8.95 48.11 0.042 9.05 40.76 11.21
5/10/2021 3:45:00 PM 8.99 48.182 0.042 9.05 58.85 11.2
5/10/2021 4:00:00 PM 8.95 48.11 0.042 9.05 53.34 11.2
5/10/2021 4:15:00 PM 8.91 48.038 0.042 9.05 45.11 11.19
5/10/2021 4:30:00 PM 8.91 48.038 0.042 9.02 44.97 11.22
5/10/2021 4:45:00 PM 8.79 47.822 0.042 9.03 50.04 11.24
5/10/2021 5:00:00 PM 8.75 47.75 0.042 9.05 68.34 11.23
5/10/2021 5:15:00 PM 8.7 47.66 0.042 9.03 56.47 11.24
5/10/2021 5:30:00 PM 8.73 47.714 0.042 9.04 47.64 11.25
5/10/2021 5:45:00 PM 8.69 47.642 0.042 9.04 51.22 11.25
5/10/2021 6:00:00 PM 8.65 47.57 0.042 8.93 44.67 11.27
5/10/2021 6:15:00 PM 8.61 47.498 0.042 9.04 50.22 11.27
5/10/2021 6:30:00 PM 8.55 47.39 0.042 9.02 49.1 11.29
5/10/2021 6:45:00 PM 8.49 47.282 0.042 8.83 42.58 11.29
5/10/2021 7:00:00 PM 8.44 47.192 0.042 9.03 44.84 11.3
5/10/2021 7:15:00 PM 8.39 47.102 0.042 9.03 44.27 11.32
5/10/2021 7:30:00 PM 8.33 46.994 0.042 8.89 50.85 11.33
5/10/2021 7:45:00 PM 8.25 46.85 0.042 9.02 40.67 11.35
5/10/2021 8:00:00 PM 8.17 46.706 0.042 8.98 41.5 11.37
5/10/2021 8:15:00 PM 8.1 46.58 0.042 9.01 44.88 11.38
5/10/2021 8:30:00 PM 8.02 46.436 0.042 9.01 47.29 11.41
5/10/2021 8:45:00 PM 7.95 46.31 0.042 8.99 45.26 11.43
5/10/2021 9:00:00 PM 7.87 46.166 0.042 8.99 44.15 11.45
5/10/2021 9:15:00 PM 7.8 46.04 0.042 9 41.51 11.47
5/10/2021 9:30:00 PM 7.74 45.932 0.042 8.99 42.16 11.5
5/10/2021 9:45:00 PM 7.67 45.806 0.042 8.98 55.31 11.51
5/10/2021 10:00:00 PM 7.61 45.698 0.042 8.98 41.29 11.53
5/10/2021 10:15:00 PM 7.55 45.59 0.042 8.97 39.91 11.56
5/10/2021 10:30:00 PM 7.5 45.5 0.042 8.98 44.19 11.57
5/10/2021 10:45:00 PM 7.44 45.392 0.042 8.98 45.68 11.59
5/10/2021 11:00:00 PM 7.39 45.302 0.042 8.97 48.84 11.6
5/10/2021 11:15:00 PM 7.33 45.194 0.042 8.96 42.38 11.61
5/10/2021 11:30:00 PM 7.28 45.104 0.042 8.93 45.78 11.63
5/10/2021 11:45:00 PM 7.23 45.014 0.042 8.96 53.1 11.65
5/11/2021 12:00:00 AM 7.17 44.906 0.042 8.98 45.29 11.66
5/11/2021 12:15:00 AM 7.13 44.834 0.042 8.81 40.94 11.68
5/11/2021 12:30:00 AM 7.08 44.744 0.042 8.96 40.22 11.69
5/11/2021 12:45:00 AM 7.04 44.672 0.042 8.98 36.28 11.7
5/11/2021 1:00:00 AM 7 44.6 0.042 8.97 34.24 11.72
5/11/2021 1:15:00 AM 6.96 44.528 0.042 8.83 35.6 11.73
5/11/2021 1:30:00 AM 6.91 44.438 0.042 8.96 35.36 11.74
5/11/2021 1:45:00 AM 6.87 44.366 0.042 8.98 47.44 11.76
5/11/2021 2:00:00 AM 6.83 44.294 0.042 8.95 43.11 11.77
5/11/2021 2:15:00 AM 6.79 44.222 0.042 8.96 41.19 11.78
5/11/2021 2:30:00 AM 6.75 44.15 0.042 8.97 42.73 11.79
5/11/2021 2:45:00 AM 6.71 44.078 0.042 8.97 43.04 11.8
5/11/2021 3:00:00 AM 6.68 44.024 0.042 8.95 42.6 11.81
5/11/2021 3:15:00 AM 6.65 43.97 0.042 8.96 55.63 11.82
5/11/2021 3:30:00 AM 6.62 43.916 0.042 8.97 38.2 11.83
5/11/2021 3:45:00 AM 6.59 43.862 0.042 8.95 38.64 11.84
5/11/2021 4:00:00 AM 6.57 43.826 0.042 8.96 38.48 11.85
5/11/2021 4:15:00 AM 6.54 43.772 0.042 8.96 35.54 11.86
5/11/2021 4:30:00 AM 6.51 43.718 0.042 8.92 32.61 11.87
5/11/2021 4:45:00 AM 6.46 43.628 0.042 8.97 36.53 11.88
5/11/2021 5:00:00 AM 6.42 43.556 0.042 8.96 45.14 11.89
5/11/2021 5:15:00 AM 6.38 43.484 0.042 8.95 34.02 11.9
5/11/2021 5:30:00 AM 6.33 43.394 0.042 8.95 34.66 11.92
5/11/2021 5:45:00 AM 6.29 43.322 0.042 8.95 41.71 11.93
5/11/2021 6:00:00 AM 6.25 43.25 0.042 8.95 36.16 11.94
5/11/2021 6:15:00 AM 6.21 43.178 0.042 8.96 31.21 11.96
5/11/2021 6:30:00 AM 6.18 43.124 0.042 8.96 38.41 11.97
5/11/2021 6:45:00 AM 6.15 43.07 0.042 8.96 40.82 11.99
5/11/2021 7:00:00 AM 6.14 43.052 0.042 8.97 36.8 12
5/11/2021 7:15:00 AM 6.14 43.052 0.042 8.97 45.59 12.01
5/11/2021 7:30:00 AM 6.15 43.07 0.042 8.97 36.93 12.02
5/11/2021 7:45:00 AM 6.17 43.106 0.042 8.98 36.61 12.02
5/11/2021 8:00:00 AM 6.21 43.178 0.042 8.97 31.98 12.01
5/11/2021 8:15:00 AM 6.27 43.286 0.042 8.98 34.37 12
5/11/2021 8:30:00 AM 6.34 43.412 0.042 8.99 36.8 11.98
5/11/2021 8:45:00 AM 6.42 43.556 0.042 8.87 46.27 11.97
5/11/2021 9:00:00 AM 6.52 43.736 0.042 9 33.34 11.94
5/11/2021 9:15:00 AM 6.64 43.952 0.042 8.98 38.12 11.92
5/11/2021 9:30:00 AM 6.75 44.15 0.042 9.02 35.19 11.88
5/11/2021 9:45:00 AM 6.9 44.42 0.042 9.01 40.72 11.85
5/11/2021 10:00:00 AM 6.91 44.438 0.042 9.01 44.81 11.83
5/11/2021 10:15:00 AM 6.99 44.582 0.042 9.02 42.47 11.8
5/11/2021 10:30:00 AM 7.08 44.744 0.041 8.95 38.51 11.77
5/11/2021 10:45:00 AM 7.25 45.05 0.042 9.05 35.79 11.73
5/11/2021 11:00:00 AM 7.34 45.212 0.041 9.04 39.8 11.71
5/11/2021 11:15:00 AM 7.37 45.266 0.041 9.03 41.19 11.68
5/11/2021 11:30:00 AM 7.39 45.302 0.041 9.03 39.3 11.67
5/11/2021 11:45:00 AM 7.51 45.518 0.041 9.04 43.23 11.66
5/11/2021 12:00:00 PM 7.82 46.076 0.041 9.05 39.49 11.6
5/11/2021 12:15:00 PM 7.86 46.148 0.042 8.94 45.53 11.56
5/11/2021 12:30:00 PM 7.86 46.148 0.041 9.02 42.05 11.55
5/11/2021 12:45:00 PM 8 46.4 0.042 9.07 44.79 11.52
5/11/2021 1:00:00 PM 8.23 46.814 0.041 9.04 41.57 11.47
5/11/2021 1:15:00 PM 8.39 47.102 0.041 9.08 49.4 11.44
5/11/2021 1:30:00 PM 8.54 47.372 0.042 9.08 40.99 11.38
5/11/2021 1:45:00 PM 8.57 47.426 0.042 9 41.35 11.35
5/11/2021 2:00:00 PM 8.53 47.354 0.042 9.09 38.78 11.34
5/11/2021 2:15:00 PM 8.73 47.714 0.042 9.09 42.35 11.33
5/11/2021 2:30:00 PM 8.87 47.966 0.042 9.09 44.75 11.28
5/11/2021 2:45:00 PM 8.81 47.858 0.042 8.98 41.93 11.27
5/11/2021 3:00:00 PM 8.82 47.876 0.042 9.1 46.55 11.29
5/11/2021 3:15:00 PM 8.82 47.876 0.042 9.1 39.07 11.25
5/11/2021 3:30:00 PM 8.93 48.074 0.042 9.06 42.66 11.25
5/11/2021 3:45:00 PM 8.88 47.984 0.042 9.1 38.3 11.26
5/11/2021 4:00:00 PM 8.87 47.966 0.042 8.98 39.22 11.25
5/11/2021 4:15:00 PM 8.77 47.786 0.042 8.98 35.5 11.26
5/11/2021 4:30:00 PM 8.81 47.858 0.042 9.06 45.04 11.28
5/11/2021 4:45:00 PM 8.7 47.66 0.042 9.11 37.07 11.28
5/11/2021 5:00:00 PM 8.72 47.696 0.042 9.11 38.59 11.3
5/11/2021 5:15:00 PM 8.62 47.516 0.042 9.08 32.98 11.31
5/11/2021 5:30:00 PM 8.59 47.462 0.042 9.09 36.31 11.32
5/11/2021 5:45:00 PM 8.52 47.336 0.042 9.09 43.17 11.34
5/11/2021 6:00:00 PM 8.47 47.246 0.042 9.09 38.89 11.35
5/11/2021 6:15:00 PM 8.38 47.084 0.042 9.09 38.12 11.37
5/11/2021 6:30:00 PM 8.34 47.012 0.042 9.09 40.97 11.39
5/11/2021 6:45:00 PM 8.25 46.85 0.042 9.09 38.04 11.4
5/11/2021 7:00:00 PM 8.2 46.76 0.042 9.08 48.55 11.41
5/11/2021 7:15:00 PM 8.13 46.634 0.042 9.07 35.29 11.42
5/11/2021 7:30:00 PM 8.06 46.508 0.042 9.07 36.15 11.44
5/11/2021 7:45:00 PM 8.01 46.418 0.042 9.07 33.8 11.46
5/11/2021 8:00:00 PM 7.94 46.292 0.042 9.07 32.82 11.48
5/11/2021 8:15:00 PM 7.86 46.148 0.042 9.06 37.82 11.5
5/11/2021 8:30:00 PM 7.78 46.004 0.042 9.06 31.25 11.52
5/11/2021 8:45:00 PM 7.7 45.86 0.042 9.06 36.9 11.54
5/11/2021 9:00:00 PM 7.63 45.734 0.042 9.04 35.34 11.57
5/11/2021 9:15:00 PM 7.55 45.59 0.042 9.05 44.29 11.59
5/11/2021 9:30:00 PM 7.47 45.446 0.042 9.06 35.87 11.62
5/11/2021 9:45:00 PM 7.39 45.302 0.042 9.05 36.77 11.64
5/11/2021 10:00:00 PM 7.3 45.14 0.042 9.05 35.97 11.67
5/11/2021 10:15:00 PM 7.22 44.996 0.042 9.05 33.17 11.69
5/11/2021 10:30:00 PM 7.14 44.852 0.042 9.05 26.7 11.71
5/11/2021 10:45:00 PM 7.06 44.708 0.042 8.92 30.89 11.73
5/11/2021 11:00:00 PM 6.99 44.582 0.042 9.06 37.42 11.76
5/11/2021 11:15:00 PM 6.92 44.456 0.042 9.06 32.35 11.78
5/11/2021 11:30:00 PM 6.85 44.33 0.042 9.05 36.79 11.8
5/11/2021 11:45:00 PM 6.78 44.204 0.042 9.05 44.54 11.82
5/12/2021 12:00:00 AM 6.72 44.096 0.042 9.05 29.39 11.84
5/12/2021 12:15:00 AM 6.66 43.988 0.042 9.05 39 11.86
5/12/2021 12:30:00 AM 6.6 43.88 0.042 9.05 29.48 11.88
5/12/2021 12:45:00 AM 6.55 43.79 0.042 9.05 34.89 11.89
5/12/2021 1:00:00 AM 6.5 43.7 0.042 8.89 37.94 11.91
5/12/2021 1:15:00 AM 6.45 43.61 0.042 9.02 38.38 11.93
5/12/2021 1:30:00 AM 6.4 43.52 0.042 9.06 33.2 11.94
5/12/2021 1:45:00 AM 6.35 43.43 0.042 9.05 38.44 11.95
5/12/2021 2:00:00 AM 6.31 43.358 0.042 9.05 37.76 11.96
5/12/2021 2:15:00 AM 6.27 43.286 0.042 9.06 36.45 11.97
5/12/2021 2:30:00 AM 6.23 43.214 0.042 9.05 37.88 11.98
5/12/2021 2:45:00 AM 6.19 43.142 0.042 9.04 32.29 12
5/12/2021 3:00:00 AM 6.15 43.07 0.042 9.04 31.05 12.01
5/12/2021 3:15:00 AM 6.12 43.016 0.042 9.04 28.49 12.02
5/12/2021 3:30:00 AM 6.09 42.962 0.042 9.04 50.06 12.03
5/12/2021 3:45:00 AM 6.06 42.908 0.042 8.84 34.27 12.03
5/12/2021 4:00:00 AM 6.03 42.854 0.042 8.92 39.01 12.04
5/12/2021 4:15:00 AM 6.01 42.818 0.042 9.06 33.16 12.05
5/12/2021 4:30:00 AM 5.99 42.782 0.042 9.04 37.43 12.05
5/12/2021 4:45:00 AM 5.97 42.746 0.042 9.04 32.76 12.06
5/12/2021 5:00:00 AM 5.95 42.71 0.042 9.04 29.02 12.07
5/12/2021 5:15:00 AM 5.94 42.692 0.042 8.93 32.15 12.07
5/12/2021 5:30:00 AM 5.93 42.674 0.042 9.04 26.82 12.08
5/12/2021 5:45:00 AM 5.92 42.656 0.043 9.04 25.38 12.08
5/12/2021 6:00:00 AM 5.92 42.656 0.042 9.04 34.18 12.09
5/12/2021 6:15:00 AM 5.92 42.656 0.042 9.04 34.99 12.09
5/12/2021 6:30:00 AM 5.94 42.692 0.042 9.04 21.16 12.1
5/12/2021 6:45:00 AM 5.95 42.71 0.043 9.05 26.78 12.1
5/12/2021 7:00:00 AM 5.96 42.728 0.042 8.93 30.13 12.11
5/12/2021 7:15:00 AM 5.99 42.782 0.042 9.07 26 12.11
5/12/2021 7:30:00 AM 6.03 42.854 0.042 9.07 35.26 12.1
5/12/2021 7:45:00 AM 6.09 42.962 0.042 9.06 24.79 12.1
5/12/2021 8:00:00 AM 6.16 43.088 0.042 9.08 31.62 12.09
5/12/2021 8:15:00 AM 6.25 43.25 0.042 9.08 31.34 12.08
5/12/2021 8:30:00 AM 6.34 43.412 0.042 9.02 32.1 12.06
5/12/2021 8:45:00 AM 6.44 43.592 0.042 9.06 28.78 12.04
5/12/2021 9:00:00 AM 6.55 43.79 0.042 8.98 23.56 12.01
5/12/2021 9:15:00 AM 6.68 44.024 0.042 9.12 29.11 11.98
5/12/2021 9:30:00 AM 6.82 44.276 0.042 9.12 26.98 11.94
5/12/2021 9:45:00 AM 6.96 44.528 0.042 9.12 34.29 11.9
5/12/2021 10:00:00 AM 7.12 44.816 0.042 9.11 31.59 11.87
5/12/2021 10:15:00 AM 7.27 45.086 0.042 9.13 25.6 11.82
5/12/2021 10:30:00 AM 7.51 45.518 0.042 9.13 41.87 11.76
5/12/2021 10:45:00 AM 7.52 45.536 0.042 8.99 34.06 11.73
5/12/2021 11:00:00 AM 7.74 45.932 0.042 9.15 42.72 11.67
5/12/2021 11:15:00 AM 7.88 46.184 0.042 9.15 37.41 11.63
5/12/2021 11:30:00 AM 8.01 46.418 0.042 9.15 36.33 11.61
5/12/2021 11:45:00 AM 8.14 46.652 0.042 9.15 23.37 11.54
5/12/2021 12:00:00 PM 8.29 46.922 0.042 9.15 30.58 11.53
5/12/2021 12:15:00 PM 8.26 46.868 0.042 9.15 35.55 11.49
5/12/2021 12:30:00 PM 8.37 47.066 0.042 9.16 34.9 11.47
5/12/2021 12:45:00 PM 8.44 47.192 0.042 9.17 33.51 11.46
5/12/2021 1:00:00 PM 8.62 47.516 0.042 9.17 42.59 11.42
5/12/2021 1:15:00 PM 8.62 47.516 0.042 9.18 32.08 11.4
5/12/2021 1:30:00 PM 8.73 47.714 0.042 9.18 34.91 11.39
5/12/2021 1:45:00 PM 8.95 48.11 0.042 9 36.9 11.32
5/12/2021 2:00:00 PM 8.84 47.912 0.042 9.21 31.85 11.33
5/12/2021 2:15:00 PM 9.03 48.254 0.042 9.2 43.46 11.3
5/12/2021 2:30:00 PM 8.95 48.11 0.042 9.19 32.91 11.31
5/12/2021 2:45:00 PM 9.23 48.614 0.042 9.2 39.15 11.27
5/12/2021 3:00:00 PM 9.27 48.686 0.042 9.21 37.63 11.25
5/12/2021 3:15:00 PM 9.26 48.668 0.043 9.21 24.79 11.25
5/12/2021 3:30:00 PM 9.23 48.614 0.043 9.2 32.45 11.23
5/12/2021 3:45:00 PM 9.22 48.596 0.043 9.21 49.07 11.24
5/12/2021 4:00:00 PM 9.32 48.776 0.043 9.21 36.72 11.23
5/12/2021 4:15:00 PM 9.37 48.866 0.043 9.21 31.78 11.19
5/12/2021 4:30:00 PM 9.33 48.794 0.043 9.21 39.83 11.22
5/12/2021 4:45:00 PM 9.4 48.92 0.043 9.19 35.77 11.2
5/12/2021 5:00:00 PM 9.3 48.74 0.043 9.21 29.1 11.19
5/12/2021 5:15:00 PM 9.25 48.65 0.043 9.21 34.34 11.19
5/12/2021 5:30:00 PM 9.23 48.614 0.043 9.21 34.19 11.2
5/12/2021 5:45:00 PM 9.17 48.506 0.043 9.2 32.12 11.21
5/12/2021 6:00:00 PM 9.13 48.434 0.043 9.21 31.37 11.22
5/12/2021 6:15:00 PM 9.09 48.362 0.043 9.2 31.65 11.23
5/12/2021 6:30:00 PM 9.05 48.29 0.043 9.19 30.69 11.24
5/12/2021 6:45:00 PM 8.99 48.182 0.043 9.19 31.44 11.24
5/12/2021 7:00:00 PM 8.94 48.092 0.043 9.19 31.41 11.25
5/12/2021 7:15:00 PM 8.88 47.984 0.043 9.18 33.6 11.25
5/12/2021 7:30:00 PM 8.83 47.894 0.044 8.99 31.92 11.27
5/12/2021 7:45:00 PM 8.78 47.804 0.043 9.19 31.73 11.28
5/12/2021 8:00:00 PM 8.72 47.696 0.043 9.17 32.15 11.29
5/12/2021 8:15:00 PM 8.64 47.552 0.05 9.15 30.1 11.31
5/12/2021 8:30:00 PM 8.56 47.408 0.045 9.17 30.17 11.33
5/12/2021 8:45:00 PM 8.48 47.264 0.044 9.17 30.78 11.35
5/12/2021 9:00:00 PM 8.39 47.102 0.044 9.16 31.6 11.38
5/12/2021 9:15:00 PM 8.31 46.958 0.044 9.04 47.02 11.4
5/12/2021 9:30:00 PM 8.22 46.796 0.044 9.17 39.98 11.43
5/12/2021 9:45:00 PM 8.14 46.652 0.044 9.05 36.83 11.46
5/12/2021 10:00:00 PM 8.06 46.508 0.044 9.15 30.57 11.48
5/12/2021 10:15:00 PM 7.98 46.364 0.044 9.06 44.79 11.5
5/12/2021 10:30:00 PM 7.9 46.22 0.044 9.17 33.67 11.52
5/12/2021 10:45:00 PM 7.82 46.076 0.044 9.17 33.13 11.55
5/12/2021 11:00:00 PM 7.74 45.932 0.044 9.15 35.96 11.57
5/12/2021 11:15:00 PM 7.65 45.77 0.044 9.16 34.92 11.59
5/12/2021 11:30:00 PM 7.56 45.608 0.044 9.06 30.55 11.62
5/12/2021 11:45:00 PM 7.47 45.446 0.044 9.16 32.35 11.65
5/13/2021 12:00:00 AM 7.39 45.302 0.044 9.16 31.29 11.68
5/13/2021 12:15:00 AM 7.3 45.14 0.044 9.16 31.38 11.7
5/13/2021 12:30:00 AM 7.22 44.996 0.044 9.16 34.59 11.72
5/13/2021 12:45:00 AM 7.15 44.87 0.044 9.13 34.61 11.75
5/13/2021 1:00:00 AM 7.07 44.726 0.044 9.16 32.15 11.77
5/13/2021 1:15:00 AM 7 44.6 0.044 9.16 26.5 11.78
5/13/2021 1:30:00 AM 6.94 44.492 0.044 9.16 28.19 11.81
5/13/2021 1:45:00 AM 6.87 44.366 0.044 9.15 29.36 11.83
5/13/2021 2:00:00 AM 6.81 44.258 0.044 9.15 31.49 11.84
5/13/2021 2:15:00 AM 6.75 44.15 0.044 9.11 21.31 11.86
5/13/2021 2:30:00 AM 6.68 44.024 0.044 9.1 37.49 11.88
5/13/2021 2:45:00 AM 6.62 43.916 0.044 9.16 26.43 11.9
5/13/2021 3:00:00 AM 6.57 43.826 0.044 9.16 31.26 11.91
5/13/2021 3:15:00 AM 6.51 43.718 0.044 9.15 30.39 11.93
5/13/2021 3:30:00 AM 6.46 43.628 0.044 9.12 28.17 11.95
5/13/2021 3:45:00 AM 6.41 43.538 0.044 9.15 27.67 11.96
5/13/2021 4:00:00 AM 6.36 43.448 0.044 9.16 27.13 11.97
5/13/2021 4:15:00 AM 6.31 43.358 0.044 9.15 27.07 11.99
5/13/2021 4:30:00 AM 6.26 43.268 0.044 9.14 21.53 12
5/13/2021 4:45:00 AM 6.22 43.196 0.044 8.99 26.36 12.02
5/13/2021 5:00:00 AM 6.17 43.106 0.044 9.16 26.74 12.04
5/13/2021 5:15:00 AM 6.13 43.034 0.044 9.16 26.2 12.04
5/13/2021 5:30:00 AM 6.09 42.962 0.044 9.15 25.6 12.06
5/13/2021 5:45:00 AM 6.05 42.89 0.044 9.01 24.14 12.07
5/13/2021 6:00:00 AM 6.01 42.818 0.044 9.15 24.68 12.09
5/13/2021 6:15:00 AM 5.98 42.764 0.044 9.05 25.73 12.1
5/13/2021 6:30:00 AM 5.96 42.728 0.044 9.16 25.22 12.12
5/13/2021 6:45:00 AM 5.94 42.692 0.044 9.16 20.02 12.14
5/13/2021 7:00:00 AM 5.93 42.674 0.044 9.15 24.89 12.15
5/13/2021 7:15:00 AM 5.93 42.674 0.044 9.17 24.83 12.16
5/13/2021 7:30:00 AM 5.95 42.71 0.044 9.04 24.36 12.16
5/13/2021 7:45:00 AM 5.99 42.782 0.044 9.18 25.13 12.16
5/13/2021 8:00:00 AM 6.04 42.872 0.044 9.18 26.44 12.16
5/13/2021 8:15:00 AM 6.11 42.998 0.044 9.16 26.23 12.14
5/13/2021 8:30:00 AM 6.21 43.178 0.044 9.19 22.72 12.13
5/13/2021 8:45:00 AM 6.33 43.394 0.044 9.2 25.5 12.11
5/13/2021 9:00:00 AM 6.45 43.61 0.044 9.07 19.45 12.07
5/13/2021 9:15:00 AM 6.57 43.826 0.044 9.21 25.42 12.03
5/13/2021 9:30:00 AM 6.65 43.97 0.044 9.21 19.75 12
5/13/2021 9:45:00 AM 6.79 44.222 0.044 9.23 29.97 11.97
5/13/2021 10:00:00 AM 6.97 44.546 0.044 9.24 24.75 11.93
5/13/2021 10:15:00 AM 7.24 45.032 0.044 9.25 21.97 11.86
5/13/2021 10:30:00 AM 7.5 45.5 0.044 9.26 26.19 11.79
5/13/2021 10:45:00 AM 7.75 45.95 0.044 9.25 21.53 11.73
5/13/2021 11:00:00 AM 7.98 46.364 0.044 9.28 19.98 11.67
5/13/2021 11:15:00 AM 8.27 46.886 0.044 9.29 25.62 11.59
5/13/2021 11:30:00 AM 8.46 47.228 0.044 9.24 26.28 11.52
5/13/2021 11:45:00 AM 8.47 47.246 0.044 9.16 25.92 11.48
5/13/2021 12:00:00 PM 8.48 47.264 0.044 9.3 26.13 11.49
5/13/2021 12:15:00 PM 8.58 47.444 0.044 9.3 26.38 11.43
5/13/2021 12:30:00 PM 8.7 47.66 0.044 9.26 23.65 11.38
5/13/2021 12:45:00 PM 8.86 47.948 0.044 9.21 27.2 11.39
5/13/2021 1:00:00 PM 8.83 47.894 0.044 9.31 25.62 11.33
5/13/2021 1:15:00 PM 8.84 47.912 0.044 9.31 26.87 11.36
5/13/2021 1:30:00 PM 9.05 48.29 0.044 9.23 26.82 11.33
5/13/2021 1:45:00 PM 9.39 48.902 0.044 9.2 27.38 11.25
5/13/2021 2:00:00 PM 9.29 48.722 0.044 9.35 26.82 11.24
5/13/2021 2:15:00 PM 9.31 48.758 0.044 9.34 28.28 11.24
5/13/2021 2:30:00 PM 9.32 48.776 0.044 9.34 25.7 11.23
5/13/2021 2:45:00 PM 9.45 49.01 0.044 9.18 25.72 11.19
5/13/2021 3:00:00 PM 9.51 49.118 0.044 9.34 26.65 11.18
5/13/2021 3:15:00 PM 9.48 49.064 0.044 9.34 26.17 11.16
5/13/2021 3:30:00 PM 9.36 48.848 0.044 9.33 25.67 11.18
5/13/2021 3:45:00 PM 9.4 48.92 0.044 9.31 27.83 11.2
5/13/2021 4:00:00 PM 9.52 49.136 0.044 9.35 26.65 11.17
5/13/2021 4:15:00 PM 9.53 49.154 0.044 9.25 25.71 11.17
5/13/2021 4:30:00 PM 9.57 49.226 0.042 9.34 32.88 11.15
5/13/2021 4:45:00 PM 9.55 49.19 0.044 9.34 26.76 11.15
5/13/2021 5:00:00 PM 9.49 49.082 0.044 9.35 28.51 11.15
5/13/2021 5:15:00 PM 9.49 49.082 0.044 9.35 26.09 11.15
5/13/2021 5:30:00 PM 9.44 48.992 0.044 9.34 22.99 11.15
5/13/2021 5:45:00 PM 9.39 48.902 0.044 9.34 25.78 11.15
5/13/2021 6:00:00 PM 9.33 48.794 0.045 9.19 25.46 11.15
5/13/2021 6:15:00 PM 9.3 48.74 0.045 9.34 28.33 11.16
5/13/2021 6:30:00 PM 9.27 48.686 0.045 9.32 21.64 11.16
5/13/2021 6:45:00 PM 9.25 48.65 0.045 9.32 22.16 11.16
5/13/2021 7:00:00 PM 9.22 48.596 0.045 9.32 25.43 11.18
5/13/2021 7:15:00 PM 9.19 48.542 0.045 9.31 25.28 11.18
5/13/2021 7:30:00 PM 9.15 48.47 0.045 9.31 23.23 11.18
5/13/2021 7:45:00 PM 9.1 48.38 0.045 9.3 22.26 11.18
5/13/2021 8:00:00 PM 9.05 48.29 0.045 9.29 24.93 11.2
5/13/2021 8:15:00 PM 9 48.2 0.045 9.29 24.15 11.2
5/13/2021 8:30:00 PM 8.94 48.092 0.045 9.28 24.54 11.21
5/13/2021 8:45:00 PM 8.88 47.984 0.045 9.23 24.47 11.22
5/13/2021 9:00:00 PM 8.82 47.876 0.045 9.28 24.52 11.24
5/13/2021 9:15:00 PM 8.76 47.768 0.045 9.28 21.4 11.26
5/13/2021 9:30:00 PM 8.69 47.642 0.045 9.28 24.45 11.27
5/13/2021 9:45:00 PM 8.62 47.516 0.045 9.28 22.21 11.3
5/13/2021 10:00:00 PM 8.55 47.39 0.045 9.28 22.27 11.32
5/13/2021 10:15:00 PM 8.48 47.264 0.045 9.27 23.59 11.34
5/13/2021 10:30:00 PM 8.41 47.138 0.047 9.21 4880.41 11.37
5/13/2021 10:45:00 PM 8.33 46.994 0.045 9.18 4947.49 11.39
5/13/2021 11:00:00 PM 8.25 46.85 0.045 9.2 10248.57 11.41
5/13/2021 11:15:00 PM 8.17 46.706 0.045 9.28 210.8 11.43
5/13/2021 11:30:00 PM 8.09 46.562 0.046 9.28 24.19 11.45
5/13/2021 11:45:00 PM 8.01 46.418 0.046 9.28 23.24 11.48
5/14/2021 12:00:00 AM 7.93 46.274 0.046 9.26 22.09 11.5
5/14/2021 12:15:00 AM 7.85 46.13 0.046 9.28 24.09 11.53
5/14/2021 12:30:00 AM 7.77 45.986 0.046 9.28 22.28 11.55
5/14/2021 12:45:00 AM 7.7 45.86 0.046 9.28 23.93 11.58
5/14/2021 1:00:00 AM 7.62 45.716 0.046 9.28 26.91 11.59
5/14/2021 1:15:00 AM 7.55 45.59 0.046 9.28 22.84 11.61
5/14/2021 1:30:00 AM 7.47 45.446 0.046 9.28 22.33 11.64
5/14/2021 1:45:00 AM 7.4 45.32 0.046 9.28 23.21 11.66
5/14/2021 2:00:00 AM 7.33 45.194 0.046 9.28 21.65 11.68
5/14/2021 2:15:00 AM 7.27 45.086 0.046 9.28 19.77 11.69
5/14/2021 2:30:00 AM 7.21 44.978 0.046 9.28 19.53 11.72
5/14/2021 2:45:00 AM 7.14 44.852 0.046 9.28 18.96 11.73
5/14/2021 3:00:00 AM 7.08 44.744 0.046 9.28 20.95 11.75
5/14/2021 3:15:00 AM 7.03 44.654 0.046 9.28 20.62 11.77
5/14/2021 3:30:00 AM 6.97 44.546 0.046 9.1 21.62 11.79
5/14/2021 3:45:00 AM 6.91 44.438 0.046 9.29 20.93 11.8
5/14/2021 4:00:00 AM 6.86 44.348 0.046 9.23 20.56 11.82
5/14/2021 4:15:00 AM 6.81 44.258 0.046 9.18 20.34 11.84
5/14/2021 4:30:00 AM 6.75 44.15 0.046 9.3 20.69 11.85
5/14/2021 4:45:00 AM 6.7 44.06 0.046 9.29 18.64 11.87
5/14/2021 5:00:00 AM 6.65 43.97 0.046 9.24 19.48 11.88
5/14/2021 5:15:00 AM 6.6 43.88 0.046 9.14 20.49 11.9
5/14/2021 5:30:00 AM 6.55 43.79 0.046 9.3 19.58 11.92
5/14/2021 5:45:00 AM 6.51 43.718 0.046 9.29 20.98 11.93
5/14/2021 6:00:00 AM 6.46 43.628 0.046 9.28 19.78 11.95
5/14/2021 6:15:00 AM 6.43 43.574 0.046 9.29 19.89 11.97
5/14/2021 6:30:00 AM 6.39 43.502 0.046 9.29 15.06 11.99
5/14/2021 6:45:00 AM 6.37 43.466 0.046 9.29 20.52 12.01
5/14/2021 7:00:00 AM 6.35 43.43 0.046 9.29 20.17 12.02
5/14/2021 7:15:00 AM 6.34 43.412 0.046 9.1 19.9 12.03
5/14/2021 7:30:00 AM 6.36 43.448 0.046 9.32 19.81 12.04
5/14/2021 7:45:00 AM 6.39 43.502 0.046 9.31 20.3 12.04
5/14/2021 8:00:00 AM 6.44 43.592 0.046 9.32 20.06 12.04
5/14/2021 8:15:00 AM 6.5 43.7 0.046 9.33 19.68 12.03
5/14/2021 8:30:00 AM 6.58 43.844 0.046 9.33 19.18 12.02
5/14/2021 8:45:00 AM 6.69 44.042 0.046 9.16 19.37 12
5/14/2021 9:00:00 AM 6.8 44.24 0.046 9.36 20.76 11.98
5/14/2021 9:15:00 AM 6.93 44.474 0.046 9.36 19.82 11.94
5/14/2021 9:30:00 AM 7.08 44.744 0.046 9.27 27.67 11.9
5/14/2021 9:45:00 AM 7.25 45.05 0.046 9.39 20.44 11.86
5/14/2021 10:00:00 AM 7.43 45.374 0.045 9.2 19.95 11.82
5/14/2021 10:15:00 AM 7.63 45.734 0.045 9.41 19.63 11.76
5/14/2021 10:30:00 AM 7.86 46.148 0.045 9.41 21.97 11.7
5/14/2021 10:45:00 AM 8.12 46.616 0.045 9.41 20.19 11.64
5/14/2021 11:00:00 AM 8.37 47.066 0.045 9.42 20.39 11.57
5/14/2021 11:15:00 AM 8.64 47.552 0.045 9.43 18.39 11.51
5/14/2021 11:30:00 AM 8.91 48.038 0.045 9.44 20.29 11.42
5/14/2021 11:45:00 AM 9.12 48.416 0.045 9.45 20.92 11.37
5/14/2021 12:00:00 PM 9.28 48.704 0.045 9.45 16.88 11.33
5/14/2021 12:15:00 PM 9.27 48.686 0.045 9.45 19.3 11.27
5/14/2021 12:30:00 PM 9.33 48.794 0.045 9.45 24.02 11.25
5/14/2021 12:45:00 PM 9.5 49.1 0.045 9.46 22.57 11.24
5/14/2021 1:00:00 PM 9.76 49.568 0.045 9.47 20.95 11.18
5/14/2021 1:15:00 PM 9.99 49.982 0.045 9.48 21.88 11.12
5/14/2021 1:30:00 PM 9.69 49.442 0.045 9.46 22.93 11.11
5/14/2021 1:45:00 PM 9.66 49.388 0.045 9.46 21.64 11.13
5/14/2021 2:00:00 PM 9.74 49.532 0.045 9.47 26.06 11.12
5/14/2021 2:15:00 PM 9.8 49.64 0.045 9.48 23.26 11.11
5/14/2021 2:30:00 PM 9.89 49.802 0.045 9.49 28.95 11.1
5/14/2021 2:45:00 PM 9.97 49.946 0.045 9.5 22.22 11.08
5/14/2021 3:00:00 PM 10.07 50.126 0.045 9.39 20.09 11.07
5/14/2021 3:15:00 PM 10.27 50.486 0.045 9.52 22.67 11.02
5/14/2021 3:30:00 PM 10.21 50.378 0.045 9.51 22.66 11
5/14/2021 3:45:00 PM 10.29 50.522 0.046 9.51 21.81 11
5/14/2021 4:00:00 PM 10.38 50.684 0.046 9.51 17.58 10.97
5/14/2021 4:15:00 PM 10.42 50.756 0.046 9.51 23.48 10.96
5/14/2021 4:30:00 PM 10.35 50.63 0.046 9.39 22.39 10.95
5/14/2021 4:45:00 PM 10.29 50.522 0.046 9.52 22.59 10.95
5/14/2021 5:00:00 PM 10.23 50.414 0.046 9.5 22.06 10.95
5/14/2021 5:15:00 PM 10.21 50.378 0.046 9.49 17.2 10.95
5/14/2021 5:30:00 PM 10.14 50.252 0.046 9.35 22.47 10.94
5/14/2021 5:45:00 PM 10.07 50.126 0.046 9.47 22.19 10.95
5/14/2021 6:00:00 PM 10.04 50.072 0.046 9.46 22.39 10.97
5/14/2021 6:15:00 PM 10.04 50.072 0.046 9.46 17.02 10.97
5/14/2021 6:30:00 PM 10.02 50.036 0.046 9.46 20.49 10.97
5/14/2021 6:45:00 PM 10 50 0.046 9.46 21.6 10.98
5/14/2021 7:00:00 PM 9.96 49.928 0.046 9.45 23.82 10.97
5/14/2021 7:15:00 PM 9.93 49.874 0.046 9.3 14.71 10.97
5/14/2021 7:30:00 PM 9.9 49.82 0.046 9.45 22.47 10.97
5/14/2021 7:45:00 PM 9.87 49.766 0.047 9.43 26.35 10.98
5/14/2021 8:00:00 PM 9.83 49.694 0.047 9.43 30.61 10.97
5/14/2021 8:15:00 PM 9.79 49.622 0.047 9.42 21.12 10.98
5/14/2021 8:30:00 PM 9.74 49.532 0.047 9.42 23.5 10.99
5/14/2021 8:45:00 PM 9.69 49.442 0.047 9.41 19.37 10.99
5/14/2021 9:00:00 PM 9.64 49.352 0.047 9.41 21 11.01
5/14/2021 9:15:00 PM 9.59 49.262 0.047 9.41 21.67 11.02
5/14/2021 9:30:00 PM 9.54 49.172 0.047 9.41 23.86 11.03
5/14/2021 9:45:00 PM 9.48 49.064 0.047 9.41 22.14 11.06
5/14/2021 10:00:00 PM 9.43 48.974 0.047 9.4 22.38 11.07
5/14/2021 10:15:00 PM 9.38 48.884 0.047 9.41 19.54 11.08
5/14/2021 10:30:00 PM 9.33 48.794 0.047 9.4 21.21 11.1
5/14/2021 10:45:00 PM 9.27 48.686 0.047 9.41 19.61 11.11
5/14/2021 11:00:00 PM 9.21 48.578 0.047 9.41 23.99 11.13
5/14/2021 11:15:00 PM 9.15 48.47 0.047 9.41 22.55 11.15
5/14/2021 11:30:00 PM 9.09 48.362 0.047 9.4 32.67 11.16
5/14/2021 11:45:00 PM 9.03 48.254 0.047 9.4 23.32 11.18
5/15/2021 12:00:00 AM 8.97 48.146 0.047 9.4 251.29 11.2
5/15/2021 12:15:00 AM 8.91 48.038 0.047 9.4 23.61 11.22
5/15/2021 12:30:00 AM 8.85 47.93 0.047 9.4 31.28 11.22
5/15/2021 12:45:00 AM 8.81 47.858 0.047 9.4 31.86 11.25
5/15/2021 1:00:00 AM 8.77 47.786 0.047 9.4 29 11.26
5/15/2021 1:15:00 AM 8.72 47.696 0.047 9.4 23.16 11.27
5/15/2021 1:30:00 AM 8.66 47.588 0.047 9.4 25.75 11.29
5/15/2021 1:45:00 AM 8.6 47.48 0.047 9.4 22.45 11.3
5/15/2021 2:00:00 AM 8.53 47.354 0.047 9.4 23.67 11.32
5/15/2021 2:15:00 AM 8.47 47.246 0.047 9.4 26.76 11.34
5/15/2021 2:30:00 AM 8.4 47.12 0.047 9.4 22.77 11.36
5/15/2021 2:45:00 AM 8.34 47.012 0.047 9.4 21.16 11.37
5/15/2021 3:00:00 AM 8.27 46.886 0.047 9.37 22.32 11.39
5/15/2021 3:15:00 AM 8.2 46.76 0.047 9.41 25.4 11.41
5/15/2021 3:30:00 AM 8.14 46.652 0.047 9.4 22.86 11.43
5/15/2021 3:45:00 AM 8.07 46.526 0.047 9.23 17.11 11.45
5/15/2021 4:00:00 AM 8 46.4 0.047 9.41 20.61 11.47
5/15/2021 4:15:00 AM 7.94 46.292 0.047 9.22 20.57 11.49
5/15/2021 4:30:00 AM 7.89 46.202 0.047 9.42 26.13 11.51
5/15/2021 4:45:00 AM 7.85 46.13 0.047 9.37 18.58 11.52
5/15/2021 5:00:00 AM 7.8 46.04 0.047 9.37 23.22 11.53
5/15/2021 5:15:00 AM 7.75 45.95 0.047 9.39 26.82 11.54
5/15/2021 5:30:00 AM 7.7 45.86 0.047 9.4 20.64 11.56
5/15/2021 5:45:00 AM 7.64 45.752 0.047 9.4 20.04 11.58
5/15/2021 6:00:00 AM 7.59 45.662 0.047 9.4 22.36 11.6
5/15/2021 6:15:00 AM 7.54 45.572 0.047 9.4 26.96 11.63
5/15/2021 6:30:00 AM 7.5 45.5 0.047 9.4 21.69 11.65
5/15/2021 6:45:00 AM 7.46 45.428 0.047 9.4 18.31 11.67
5/15/2021 7:00:00 AM 7.43 45.374 0.047 9.41 20.45 11.7
5/15/2021 7:15:00 AM 7.42 45.356 0.047 9.41 19.66 11.71
5/15/2021 7:30:00 AM 7.42 45.356 0.047 9.41 14.13 11.72
5/15/2021 7:45:00 AM 7.44 45.392 0.047 9.42 20.62 11.73
5/15/2021 8:00:00 AM 7.48 45.464 0.047 9.43 18.38 11.73
5/15/2021 8:15:00 AM 7.53 45.554 0.047 9.44 15.24 11.73
5/15/2021 8:30:00 AM 7.6 45.68 0.047 9.44 31.84 11.72
5/15/2021 8:45:00 AM 7.69 45.842 0.047 9.44 18.31 11.7
5/15/2021 9:00:00 AM 7.8 46.04 0.047 9.46 17.83 11.69
5/15/2021 9:15:00 AM 7.9 46.22 0.047 9.46 16.78 11.66
5/15/2021 9:30:00 AM 8.05 46.49 0.047 9.47 19.26 11.63
5/15/2021 9:45:00 AM 8.2 46.76 0.047 9.48 19.55 11.59
5/15/2021 10:00:00 AM 8.36 47.048 0.047 9.36 15.89 11.55
5/15/2021 10:15:00 AM 8.53 47.354 0.047 9.52 19.99 11.52
5/15/2021 10:30:00 AM 8.74 47.732 0.047 9.32 21.47 11.46
5/15/2021 10:45:00 AM 8.96 48.128 0.047 9.54 19.71 11.41
5/15/2021 11:00:00 AM 9.17 48.506 0.047 9.53 20.36 11.36
5/15/2021 11:15:00 AM 9.36 48.848 0.047 9.54 20.79 11.31
5/15/2021 11:30:00 AM 9.55 49.19 0.047 9.54 19.64 11.26
5/15/2021 11:45:00 AM 9.53 49.154 0.047 9.54 27.9 11.22
5/15/2021 12:00:00 PM 9.4 48.92 0.047 9.54 16.83 11.23
5/15/2021 12:15:00 PM 9.4 48.92 0.047 9.53 19.83 11.23
5/15/2021 12:30:00 PM 9.53 49.154 0.047 9.35 18.28 11.21
5/15/2021 12:45:00 PM 9.66 49.388 0.047 9.57 17.74 11.19
5/15/2021 1:00:00 PM 9.84 49.712 0.047 9.56 20.22 11.14
5/15/2021 1:15:00 PM 9.97 49.946 0.047 9.56 21.06 11.12
5/15/2021 1:30:00 PM 10.01 50.018 0.047 9.53 20.11 11.08
5/15/2021 1:45:00 PM 9.98 49.964 0.047 9.41 19.1 11.05
5/15/2021 2:00:00 PM 10.02 50.036 0.047 9.57 22.54 11.06
5/15/2021 2:15:00 PM 10.12 50.216 0.047 9.57 20.3 11.03
5/15/2021 2:30:00 PM 10.12 50.216 0.047 9.45 27.32 11
5/15/2021 2:45:00 PM 10.15 50.27 0.047 9.56 36.22 11.02
5/15/2021 3:00:00 PM 10.2 50.36 0.047 9.39 33.76 11
5/15/2021 3:15:00 PM 10.19 50.342 0.047 9.56 25.36 10.97
5/15/2021 3:30:00 PM 10.29 50.522 0.047 9.55 26.7 10.99
5/15/2021 3:45:00 PM 10.3 50.54 0.047 9.56 22.87 10.97
5/15/2021 4:00:00 PM 10.32 50.576 0.047 9.56 28.79 10.96
5/15/2021 4:15:00 PM 10.31 50.558 0.047 9.56 24.34 10.95
5/15/2021 4:30:00 PM 10.33 50.594 0.047 9.55 26.25 10.95
5/15/2021 4:45:00 PM 10.33 50.594 0.047 9.37 21.97 10.94
5/15/2021 5:00:00 PM 10.31 50.558 0.047 9.55 21.08 10.93
5/15/2021 5:15:00 PM 10.3 50.54 0.048 9.53 23.2 10.91
5/15/2021 5:30:00 PM 10.29 50.522 0.048 9.53 21.32 10.92
5/15/2021 5:45:00 PM 10.3 50.54 0.048 9.49 23.92 10.94
5/15/2021 6:00:00 PM 10.29 50.522 0.048 9.54 25.14 10.92
5/15/2021 6:15:00 PM 10.27 50.486 0.048 9.51 25.19 10.92
5/15/2021 6:30:00 PM 10.23 50.414 0.048 9.4 22.58 10.9
5/15/2021 6:45:00 PM 10.21 50.378 0.048 9.5 16.16 10.9
5/15/2021 7:00:00 PM 10.19 50.342 0.048 9.49 21.85 10.91
5/15/2021 7:15:00 PM 10.17 50.306 0.048 9.49 21.5 10.91
5/15/2021 7:30:00 PM 10.14 50.252 0.048 9.47 18.26 10.91
5/15/2021 7:45:00 PM 10.1 50.18 0.048 9.48 16.84 10.9
5/15/2021 8:00:00 PM 10.05 50.09 0.048 9.47 25.31 10.91
5/15/2021 8:15:00 PM 10.01 50.018 0.048 9.46 22.75 10.91
5/15/2021 8:30:00 PM 9.95 49.91 0.048 9.45 24.59 10.92
5/15/2021 8:45:00 PM 9.9 49.82 0.049 9.46 22 10.93
5/15/2021 9:00:00 PM 9.85 49.73 0.049 9.44 20.44 10.94
5/15/2021 9:15:00 PM 9.82 49.676 0.049 9.45 29.38 10.95
5/15/2021 9:30:00 PM 9.78 49.604 0.049 9.44 33.53 10.96
5/15/2021 9:45:00 PM 9.73 49.514 0.049 9.45 19.82 10.97
5/15/2021 10:00:00 PM 9.68 49.424 0.049 9.44 19.59 10.99
5/15/2021 10:15:00 PM 9.63 49.334 0.049 9.44 25.01 11
5/15/2021 10:30:00 PM 9.58 49.244 0.049 9.44 23.72 11.01
5/15/2021 10:45:00 PM 9.52 49.136 0.049 9.45 22.51 11.03
5/15/2021 11:00:00 PM 9.47 49.046 0.049 9.44 21.49 11.05
5/15/2021 11:15:00 PM 9.41 48.938 0.049 9.45 19.21 11.06
5/15/2021 11:30:00 PM 9.35 48.83 0.049 9.45 28.69 11.07
5/15/2021 11:45:00 PM 9.31 48.758 0.049 9.45 17.09 11.09
5/16/2021 12:00:00 AM 9.27 48.686 0.049 9.44 26.96 11.1
5/16/2021 12:15:00 AM 9.22 48.596 0.049 9.44 21.35 11.12
5/16/2021 12:30:00 AM 9.16 48.488 0.049 9.44 17.91 11.13
5/16/2021 12:45:00 AM 9.11 48.398 0.049 9.44 21.99 11.15
5/16/2021 1:00:00 AM 9.06 48.308 0.049 9.44 19.19 11.16
5/16/2021 1:15:00 AM 9.02 48.236 0.049 9.44 20.48 11.18
5/16/2021 1:30:00 AM 8.98 48.164 0.049 9.31 22.72 11.18
5/16/2021 1:45:00 AM 8.92 48.056 0.049 9.45 18.57 11.2
5/16/2021 2:00:00 AM 8.87 47.966 0.049 9.44 20.97 11.21
5/16/2021 2:15:00 AM 8.81 47.858 0.049 9.44 21.47 11.23
5/16/2021 2:30:00 AM 8.75 47.75 0.049 9.32 26.54 11.24
5/16/2021 2:45:00 AM 8.7 47.66 0.049 9.45 18.57 11.26
5/16/2021 3:00:00 AM 8.64 47.552 0.049 9.31 17.47 11.27
5/16/2021 3:15:00 AM 8.59 47.462 0.049 9.32 20.72 11.29
5/16/2021 3:30:00 AM 8.53 47.354 0.049 9.47 17.58 11.3
5/16/2021 3:45:00 AM 8.47 47.246 0.049 9.44 14.58 11.32
5/16/2021 4:00:00 AM 8.42 47.156 0.049 9.44 17.55 11.34
5/16/2021 4:15:00 AM 8.36 47.048 0.049 9.44 16.54 11.35
5/16/2021 4:30:00 AM 8.3 46.94 0.049 9.44 18.55 11.37
5/16/2021 4:45:00 AM 8.24 46.832 0.049 9.44 20.87 11.38
5/16/2021 5:00:00 AM 8.19 46.742 0.049 9.44 17.46 11.4
5/16/2021 5:15:00 AM 8.13 46.634 0.049 9.44 18.53 11.42
5/16/2021 5:30:00 AM 8.09 46.562 0.049 9.44 18.08 11.43
5/16/2021 5:45:00 AM 8.06 46.508 0.049 9.42 20.56 11.44
5/16/2021 6:00:00 AM 8.03 46.454 0.049 9.42 16.43 11.46
5/16/2021 6:15:00 AM 8 46.4 0.049 9.43 18.95 11.48
5/16/2021 6:30:00 AM 7.99 46.382 0.049 9.43 18.64 11.5
5/16/2021 6:45:00 AM 7.98 46.364 0.049 9.44 17.95 11.52
5/16/2021 7:00:00 AM 7.97 46.346 0.049 9.4 17.54 11.52
5/16/2021 7:15:00 AM 7.97 46.346 0.049 9.46 15.17 11.54
5/16/2021 7:30:00 AM 7.98 46.364 0.049 9.46 12.6 11.56
5/16/2021 7:45:00 AM 8 46.4 0.049 9.47 17.79 11.55
5/16/2021 8:00:00 AM 8.02 46.436 0.049 9.45 16.72 11.54
5/16/2021 8:15:00 AM 8.04 46.472 0.049 9.46 17.1 11.55
5/16/2021 8:30:00 AM 8.06 46.508 0.049 9.47 17.33 11.55
5/16/2021 8:45:00 AM 8.1 46.58 0.049 9.48 17.83 11.55
5/16/2021 9:00:00 AM 8.16 46.688 0.049 9.49 16.34 11.56
5/16/2021 9:15:00 AM 8.22 46.796 0.049 9.49 17.86 11.54
5/16/2021 9:30:00 AM 8.3 46.94 0.049 9.51 18.1 11.54
5/16/2021 9:45:00 AM 8.35 47.03 0.049 9.51 16.5 11.51
5/16/2021 10:00:00 AM 8.39 47.102 0.049 9.46 18.72 11.5
5/16/2021 10:15:00 AM 8.48 47.264 0.049 9.51 17.65 11.49
5/16/2021 10:30:00 AM 8.55 47.39 0.049 9.53 18.84 11.47
5/16/2021 10:45:00 AM 8.62 47.516 0.049 9.53 16.5 11.46
5/16/2021 11:00:00 AM 8.7 47.66 0.049 9.53 18.5 11.43
5/16/2021 11:15:00 AM 8.77 47.786 0.049 9.54 12.49 11.42
5/16/2021 11:30:00 AM 8.86 47.948 0.049 9.56 16.6 11.4
5/16/2021 11:45:00 AM 8.93 48.074 0.049 9.44 19.65 11.38
5/16/2021 12:00:00 PM 9.03 48.254 0.049 9.45 19.54 11.36
5/16/2021 12:15:00 PM 9.13 48.434 0.049 9.46 16.71 11.33
5/16/2021 12:30:00 PM 9.18 48.524 0.049 9.59 20 11.3
5/16/2021 12:45:00 PM 9.23 48.614 0.049 9.56 18.89 11.29
5/16/2021 1:00:00 PM 9.3 48.74 0.048 9.59 15.67 11.27
5/16/2021 1:15:00 PM 9.38 48.884 0.048 9.59 22.77 11.25
5/16/2021 1:30:00 PM 9.49 49.082 0.048 9.45 19.52 11.24
5/16/2021 1:45:00 PM 9.61 49.298 0.048 9.61 20.29 11.21
5/16/2021 2:00:00 PM 9.73 49.514 0.048 9.61 20.01 11.18
5/16/2021 2:15:00 PM 9.84 49.712 0.048 9.57 21.69 11.15
5/16/2021 2:30:00 PM 9.86 49.748 0.048 9.61 21.1 11.13
5/16/2021 2:45:00 PM 9.92 49.856 0.048 9.61 21.29 11.11
5/16/2021 3:00:00 PM 9.93 49.874 0.048 9.61 20.31 11.1
5/16/2021 3:15:00 PM 9.96 49.928 0.048 9.61 19.94 11.09
5/16/2021 3:30:00 PM 9.99 49.982 0.048 9.61 19.52 11.07
5/16/2021 3:45:00 PM 10.02 50.036 0.048 9.55 18.44 11.06
5/16/2021 4:00:00 PM 10.06 50.108 0.049 9.61 21.39 11.05
5/16/2021 4:15:00 PM 10.09 50.162 0.049 9.61 21.15 11.03
5/16/2021 4:30:00 PM 10.1 50.18 0.049 9.53 20.51 11.02
5/16/2021 4:45:00 PM 10.11 50.198 0.049 9.58 18.94 11.02
5/16/2021 5:00:00 PM 10.11 50.198 0.049 9.61 20.84 11.01
5/16/2021 5:15:00 PM 10.09 50.162 0.049 9.51 19.86 10.99
5/16/2021 5:30:00 PM 10.07 50.126 0.049 9.59 20.04 10.99
5/16/2021 5:45:00 PM 10.08 50.144 0.049 9.6 19.91 11.01
5/16/2021 6:00:00 PM 10.1 50.18 0.049 9.59 19.36 11
5/16/2021 6:15:00 PM 10.11 50.198 0.049 9.59 32.24 10.99
5/16/2021 6:30:00 PM 10.09 50.162 0.049 9.58 19.78 10.98
5/16/2021 6:45:00 PM 10.07 50.126 0.049 9.57 21.02 10.97
5/16/2021 7:00:00 PM 10.06 50.108 0.049 9.56 19.66 10.97
5/16/2021 7:15:00 PM 10.04 50.072 0.049 9.53 19.09 10.96
5/16/2021 7:30:00 PM 10 50 0.049 9.53 19.12 10.95
5/16/2021 7:45:00 PM 9.96 49.928 0.05 9.54 19.71 10.95
5/16/2021 8:00:00 PM 9.93 49.874 0.05 9.49 20.78 10.95
5/16/2021 8:15:00 PM 9.88 49.784 0.05 9.42 20.73 10.95
5/16/2021 8:30:00 PM 9.84 49.712 0.05 9.54 23.78 10.95
5/16/2021 8:45:00 PM 9.8 49.64 0.05 9.52 20.7 10.96
5/16/2021 9:00:00 PM 9.77 49.586 0.05 9.52 18.67 10.97
5/16/2021 9:15:00 PM 9.74 49.532 0.05 9.52 22.12 10.98
5/16/2021 9:30:00 PM 9.7 49.46 0.05 9.51 21.9 10.99
5/16/2021 9:45:00 PM 9.66 49.388 0.05 9.51 20.17 11
5/16/2021 10:00:00 PM 9.63 49.334 0.05 9.51 20.34 11.01
5/16/2021 10:15:00 PM 9.59 49.262 0.05 9.51 20.06 11.02
5/16/2021 10:30:00 PM 9.54 49.172 0.05 9.51 14.67 11.03
5/16/2021 10:45:00 PM 9.48 49.064 0.05 9.51 19.77 11.05
5/16/2021 11:00:00 PM 9.42 48.956 0.05 9.52 20.37 11.07
5/16/2021 11:15:00 PM 9.36 48.848 0.05 9.5 23.64 11.08
5/16/2021 11:30:00 PM 9.3 48.74 0.05 9.51 20.09 11.1
5/16/2021 11:45:00 PM 9.24 48.632 0.05 9.49 17.47 11.12
5/17/2021 12:00:00 AM 9.17 48.506 0.05 9.51 23.72 11.14
5/17/2021 12:15:00 AM 9.11 48.398 0.05 9.5 21 11.15
5/17/2021 12:30:00 AM 9.05 48.29 0.05 9.51 16.36 11.17
5/17/2021 12:45:00 AM 8.99 48.182 0.05 9.5 13.97 11.19
5/17/2021 1:00:00 AM 8.93 48.074 0.05 9.51 22.61 11.2
5/17/2021 1:15:00 AM 8.87 47.966 0.05 9.34 19.83 11.22
5/17/2021 1:30:00 AM 8.81 47.858 0.051 9.52 22.62 11.24
5/17/2021 1:45:00 AM 8.74 47.732 0.051 9.51 22.06 11.26
5/17/2021 2:00:00 AM 8.68 47.624 0.051 9.51 20.36 11.27
5/17/2021 2:15:00 AM 8.61 47.498 0.051 9.5 21.18 11.29
5/17/2021 2:30:00 AM 8.55 47.39 0.051 9.5 29.44 11.31
5/17/2021 2:45:00 AM 8.49 47.282 0.051 9.51 26.06 11.33
5/17/2021 3:00:00 AM 8.43 47.174 0.051 9.51 19.75 11.34
5/17/2021 3:15:00 AM 8.37 47.066 0.051 9.5 20.54 11.36
5/17/2021 3:30:00 AM 8.31 46.958 0.051 9.5 20.26 11.37
5/17/2021 3:45:00 AM 8.25 46.85 0.051 9.49 30.46 11.39
5/17/2021 4:00:00 AM 8.19 46.742 0.051 9.5 18.18 11.41
5/17/2021 4:15:00 AM 8.13 46.634 0.051 9.49 18.62 11.43
5/17/2021 4:30:00 AM 8.07 46.526 0.051 9.32 21.18 11.44
5/17/2021 4:45:00 AM 8.01 46.418 0.051 9.46 19.42 11.46
5/17/2021 5:00:00 AM 7.96 46.328 0.051 9.51 18.94 11.47
5/17/2021 5:15:00 AM 7.9 46.22 0.051 9.5 15.54 11.49
5/17/2021 5:30:00 AM 7.85 46.13 0.051 9.49 17.52 11.5
5/17/2021 5:45:00 AM 7.79 46.022 0.051 9.48 19.46 11.53
5/17/2021 6:00:00 AM 7.74 45.932 0.051 9.42 20.34 11.54
5/17/2021 6:15:00 AM 7.69 45.842 0.051 9.42 19.14 11.58
5/17/2021 6:30:00 AM 7.65 45.77 0.051 9.52 18.4 11.6
5/17/2021 6:45:00 AM 7.62 45.716 0.051 9.43 18.91 11.62
5/17/2021 7:00:00 AM 7.6 45.68 0.051 9.51 18.64 11.64
5/17/2021 7:15:00 AM 7.58 45.644 0.05 9.52 18.6 11.66
5/17/2021 7:30:00 AM 7.59 45.662 0.05 9.53 17.64 11.66
5/17/2021 7:45:00 AM 7.62 45.716 0.05 9.54 18.43 11.68
5/17/2021 8:00:00 AM 7.67 45.806 0.05 9.54 25.58 11.68
5/17/2021 8:15:00 AM 7.73 45.914 0.05 9.55 19.7 11.68
5/17/2021 8:30:00 AM 7.81 46.058 0.05 9.55 23.69 11.67
5/17/2021 8:45:00 AM 7.91 46.238 0.05 9.57 20.23 11.66
5/17/2021 9:00:00 AM 8.02 46.436 0.05 9.58 29.59 11.64
5/17/2021 9:15:00 AM 8.15 46.67 0.05 9.58 22.52 11.61
5/17/2021 9:30:00 AM 8.3 46.94 0.05 9.6 16.71 11.58
5/17/2021 9:45:00 AM 8.47 47.246 0.05 9.48 19.23 11.54
5/17/2021 10:00:00 AM 8.64 47.552 0.05 9.61 21.72 11.5
5/17/2021 10:15:00 AM 8.84 47.912 0.05 9.63 16.09 11.46
5/17/2021 10:30:00 AM 9.07 48.326 0.05 9.63 20 11.41
5/17/2021 10:45:00 AM 9.29 48.722 0.05 9.64 19.98 11.36
5/17/2021 11:00:00 AM 9.52 49.136 0.05 9.65 18.53 11.3
5/17/2021 11:15:00 AM 9.73 49.514 0.05 9.66 20.73 11.25
5/17/2021 11:30:00 AM 9.92 49.856 0.05 9.66 20.56 11.2
5/17/2021 11:45:00 AM 10.11 50.198 0.05 9.67 32.69 11.15
5/17/2021 12:00:00 PM 10.3 50.54 0.05 9.67 20.59 11.1
5/17/2021 12:15:00 PM 10.49 50.882 0.05 9.68 22.33 11.04
5/17/2021 12:30:00 PM 10.64 51.152 0.05 9.68 21.72 11
5/17/2021 12:45:00 PM 10.69 51.242 0.05 9.68 21.15 10.95
5/17/2021 1:00:00 PM 10.8 51.44 0.05 9.69 22.04 10.95
5/17/2021 1:15:00 PM 10.98 51.764 0.05 9.69 20.28 10.89
5/17/2021 1:30:00 PM 11.15 52.07 0.05 9.69 21.12 10.83
5/17/2021 1:45:00 PM 11.41 52.538 0.05 9.71 20.31 10.79
5/17/2021 2:00:00 PM 11.53 52.754 0.05 9.71 22 10.75
5/17/2021 2:15:00 PM 11.49 52.682 0.05 9.52 21.8 10.69
5/17/2021 2:30:00 PM 11.46 52.628 0.05 9.62 21.13 10.71
5/17/2021 2:45:00 PM 11.69 53.042 0.05 9.72 19.67 10.69
5/17/2021 3:00:00 PM 11.86 53.348 0.05 9.7 19.87 10.64
5/17/2021 3:15:00 PM 11.88 53.384 0.05 9.72 18.87 10.61
5/17/2021 3:30:00 PM 11.89 53.402 0.05 9.71 21.4 10.62
5/17/2021 3:45:00 PM 11.99 53.582 0.05 9.72 20.79 10.59
5/17/2021 4:00:00 PM 11.9 53.42 0.05 9.71 21.25 10.58
5/17/2021 4:15:00 PM 11.95 53.51 0.05 9.72 20.3 10.59
5/17/2021 4:30:00 PM 11.87 53.366 0.05 9.71 24.54 10.56
5/17/2021 4:45:00 PM 11.91 53.438 0.05 9.55 23.39 10.59
5/17/2021 5:00:00 PM 11.89 53.402 0.05 9.73 22.84 10.58
5/17/2021 5:15:00 PM 11.8 53.24 0.05 9.71 21.03 10.56
5/17/2021 5:30:00 PM 11.78 53.204 0.05 9.7 19.65 10.6
5/17/2021 5:45:00 PM 11.78 53.204 0.05 9.7 17.43 10.58
5/17/2021 6:00:00 PM 11.75 53.15 0.05 9.69 20.18 10.58
5/17/2021 6:15:00 PM 11.7 53.06 0.051 9.7 19.42 10.57
5/17/2021 6:30:00 PM 11.65 52.97 0.051 9.53 20.11 10.55
5/17/2021 6:45:00 PM 11.61 52.898 0.051 9.67 17.94 10.56
5/17/2021 7:00:00 PM 11.57 52.826 0.051 9.65 20.6 10.56
5/17/2021 7:15:00 PM 11.53 52.754 0.051 9.64 18.59 10.57
5/17/2021 7:30:00 PM 11.48 52.664 0.051 9.63 18.81 10.56
5/17/2021 7:45:00 PM 11.43 52.574 0.051 9.46 17.91 10.57
5/17/2021 8:00:00 PM 11.38 52.484 0.051 9.63 17.04 10.57
5/17/2021 8:15:00 PM 11.32 52.376 0.051 9.62 18.8 10.57
5/17/2021 8:30:00 PM 11.26 52.268 0.051 9.6 19.32 10.58
5/17/2021 8:45:00 PM 11.21 52.178 0.051 9.61 16.57 10.6
5/17/2021 9:00:00 PM 11.15 52.07 0.052 9.61 15.92 10.61
5/17/2021 9:15:00 PM 11.09 51.962 0.052 9.6 20.7 10.63
5/17/2021 9:30:00 PM 11.03 51.854 0.052 9.61 23.84 10.64
5/17/2021 9:45:00 PM 10.97 51.746 0.052 9.6 18.76 10.66
5/17/2021 10:00:00 PM 10.91 51.638 0.052 9.6 19.4 10.67
5/17/2021 10:15:00 PM 10.85 51.53 0.052 9.6 20.69 10.69
5/17/2021 10:30:00 PM 10.79 51.422 0.052 9.6 24.3 10.7
5/17/2021 10:45:00 PM 10.73 51.314 0.052 9.49 19.61 10.72
5/17/2021 11:00:00 PM 10.67 51.206 0.052 9.61 19.4 10.74
5/17/2021 11:15:00 PM 10.61 51.098 0.05 9.56 18.91 10.76
5/17/2021 11:30:00 PM 10.55 50.99 0.05 9.55 18.79 10.77
5/17/2021 11:45:00 PM 10.5 50.9 0.052 9.59 18.81 10.78
5/18/2021 12:00:00 AM 10.46 50.828 0.052 9.59 18.29 10.8
5/18/2021 12:15:00 AM 10.4 50.72 0.052 9.46 18.14 10.81
5/18/2021 12:30:00 AM 10.33 50.594 0.052 9.61 18.25 10.83
5/18/2021 12:45:00 AM 10.26 50.468 0.052 9.6 18.22 10.85
5/18/2021 1:00:00 AM 10.2 50.36 0.052 9.59 17.39 10.86
5/18/2021 1:15:00 AM 10.14 50.252 0.052 9.42 18.08 10.88
5/18/2021 1:30:00 AM 10.07 50.126 0.052 9.62 18.13 10.89
5/18/2021 1:45:00 AM 10.01 50.018 0.052 9.59 18.78 10.91
5/18/2021 2:00:00 AM 9.94 49.892 0.052 9.57 18.74 10.93
5/18/2021 2:15:00 AM 9.88 49.784 0.052 9.6 17.96 10.95
5/18/2021 2:30:00 AM 9.82 49.676 0.052 9.61 17.46 10.97
5/18/2021 2:45:00 AM 9.75 49.55 0.052 9.59 16.35 10.98
5/18/2021 3:00:00 AM 9.69 49.442 0.052 9.59 19.7 11
5/18/2021 3:15:00 AM 9.63 49.334 0.052 9.59 17.55 11.01
5/18/2021 3:30:00 AM 9.56 49.208 0.052 9.59 15.23 11.03
5/18/2021 3:45:00 AM 9.5 49.1 0.052 9.59 17.6 11.05
5/18/2021 4:00:00 AM 9.44 48.992 0.052 9.49 18.06 11.06
5/18/2021 4:15:00 AM 9.39 48.902 0.052 9.59 17.9 11.08
5/18/2021 4:30:00 AM 9.33 48.794 0.052 9.59 19.32 11.1
5/18/2021 4:45:00 AM 9.27 48.686 0.052 9.59 12.82 11.11
5/18/2021 5:00:00 AM 9.22 48.596 0.052 9.58 17.17 11.13
5/18/2021 5:15:00 AM 9.16 48.488 0.052 9.59 16.5 11.15
5/18/2021 5:30:00 AM 9.1 48.38 0.052 9.58 16.96 11.16
5/18/2021 5:45:00 AM 9.05 48.29 0.052 9.59 17.53 11.18
5/18/2021 6:00:00 AM 9 48.2 0.052 9.59 16.8 11.2
5/18/2021 6:15:00 AM 8.96 48.128 0.052 9.59 16.44 11.23
5/18/2021 6:30:00 AM 8.92 48.056 0.052 9.58 16.66 11.26
5/18/2021 6:45:00 AM 8.89 48.002 0.052 9.5 16.33 11.27
5/18/2021 7:00:00 AM 8.87 47.966 0.052 9.6 16.35 11.29
5/18/2021 7:15:00 AM 8.86 47.948 0.052 9.61 15.3 11.3
5/18/2021 7:30:00 AM 8.87 47.966 0.052 9.63 16.67 11.33
5/18/2021 7:45:00 AM 8.91 48.038 0.052 9.63 18.31 11.33
5/18/2021 8:00:00 AM 8.95 48.11 0.052 9.64 16.51 11.34
5/18/2021 8:15:00 AM 9.01 48.218 0.052 9.65 17.12 11.34
5/18/2021 8:30:00 AM 9.09 48.362 0.052 9.65 16.46 11.34
5/18/2021 8:45:00 AM 9.18 48.524 0.052 9.66 16.59 11.33
5/18/2021 9:00:00 AM 9.27 48.686 0.052 9.68 16.91 11.32
5/18/2021 9:15:00 AM 9.38 48.884 0.052 9.67 17.26 11.3
5/18/2021 9:30:00 AM 9.53 49.154 0.052 9.68 16.43 11.27
5/18/2021 9:45:00 AM 9.69 49.442 0.052 9.7 16.81 11.24
5/18/2021 10:00:00 AM 9.87 49.766 0.052 9.53 16.79 11.2
5/18/2021 10:15:00 AM 10.05 50.09 0.052 9.66 16.81 11.17
5/18/2021 10:30:00 AM 10.26 50.468 0.052 9.75 16.02 11.12
5/18/2021 10:45:00 AM 10.49 50.882 0.052 9.75 16.62 11.07
5/18/2021 11:00:00 AM 10.71 51.278 0.052 9.76 16.89 11.02
5/18/2021 11:15:00 AM 10.9 51.62 0.052 9.76 16.33 10.98
5/18/2021 11:30:00 AM 11.05 51.89 0.052 9.59 16.47 10.92
5/18/2021 11:45:00 AM 11.02 51.836 0.052 9.78 16.88 10.89
5/18/2021 12:00:00 PM 11.14 52.052 0.052 9.77 17.6 10.88
5/18/2021 12:15:00 PM 11.31 52.358 0.052 9.78 16.3 10.86
5/18/2021 12:30:00 PM 11.58 52.844 0.051 9.6 16.32 10.79
5/18/2021 12:45:00 PM 11.78 53.204 0.051 9.81 16.25 10.74
5/18/2021 1:00:00 PM 11.94 53.492 0.051 9.8 17.52 10.7
5/18/2021 1:15:00 PM 12.09 53.762 0.051 9.8 16.79 10.66
5/18/2021 1:30:00 PM 12.22 53.996 0.051 9.8 17.44 10.62
5/18/2021 1:45:00 PM 12.35 54.23 0.051 9.8 16.95 10.58
5/18/2021 2:00:00 PM 12.48 54.464 0.051 9.78 17.18 10.54
5/18/2021 2:15:00 PM 12.6 54.68 0.051 9.68 15.16 10.51
5/18/2021 2:30:00 PM 12.71 54.878 0.051 9.82 16.45 10.47
5/18/2021 2:45:00 PM 12.79 55.022 0.051 9.82 16.03 10.44
5/18/2021 3:00:00 PM 12.88 55.184 0.051 9.76 16.03 10.42
5/18/2021 3:15:00 PM 12.9 55.22 0.052 9.82 13.66 10.41
5/18/2021 3:30:00 PM 12.97 55.346 0.052 9.81 16.57 10.38
5/18/2021 3:45:00 PM 13 55.4 0.052 9.81 16.07 10.37
5/18/2021 4:00:00 PM 12.99 55.382 0.052 9.81 15.47 10.36
5/18/2021 4:15:00 PM 12.98 55.364 0.052 9.8 15.78 10.35
5/18/2021 4:30:00 PM 12.96 55.328 0.052 9.8 16.05 10.34
5/18/2021 4:45:00 PM 12.94 55.292 0.052 9.79 15.04 10.34
5/18/2021 5:00:00 PM 12.92 55.256 0.052 9.79 15.48 10.33
5/18/2021 5:15:00 PM 12.88 55.184 0.052 9.76 15.81 10.33
5/18/2021 5:30:00 PM 12.83 55.094 0.052 9.78 15.71 10.33
5/18/2021 5:45:00 PM 12.77 54.986 0.052 9.77 15.2 10.33
5/18/2021 6:00:00 PM 12.72 54.896 0.052 9.76 15.47 10.33
5/18/2021 6:15:00 PM 12.67 54.806 0.052 9.75 15.49 10.33
5/18/2021 6:30:00 PM 12.63 54.734 0.052 9.72 13.21 10.32
5/18/2021 6:45:00 PM 12.59 54.662 0.053 9.74 15.84 10.32
5/18/2021 7:00:00 PM 12.54 54.572 0.053 9.72 15.25 10.32
5/18/2021 7:15:00 PM 12.5 54.5 0.053 9.7 15.22 10.32
5/18/2021 7:30:00 PM 12.45 54.41 0.053 9.7 15.11 10.33
5/18/2021 7:45:00 PM 12.4 54.32 0.053 9.57 15.38 10.33
5/18/2021 8:00:00 PM 12.35 54.23 0.053 9.69 15.48 10.33
5/18/2021 8:15:00 PM 12.3 54.14 0.053 9.66 15.57 10.34
5/18/2021 8:30:00 PM 12.24 54.032 0.053 9.68 15.68 10.34
5/18/2021 8:45:00 PM 12.19 53.942 0.053 9.67 15.78 10.35
5/18/2021 9:00:00 PM 12.14 53.852 0.053 9.66 16.27 10.36
5/18/2021 9:15:00 PM 12.09 53.762 0.053 9.65 16.03 10.37
5/18/2021 9:30:00 PM 12.04 53.672 0.053 9.65 16.38 10.38
5/18/2021 9:45:00 PM 11.99 53.582 0.053 9.52 16.84 10.4
5/18/2021 10:00:00 PM 11.94 53.492 0.051 9.64 15.02 10.41
5/18/2021 10:15:00 PM 11.89 53.402 0.054 9.65 15.03 10.43
5/18/2021 10:30:00 PM 11.84 53.312 0.054 9.64 17.46 10.44
5/18/2021 10:45:00 PM 11.79 53.222 0.054 9.65 17.09 10.45
5/18/2021 11:00:00 PM 11.74 53.132 0.054 9.64 16.42 10.47
5/18/2021 11:15:00 PM 11.68 53.024 0.054 9.65 17.29 10.48
5/18/2021 11:30:00 PM 11.62 52.916 0.054 9.65 16.62 10.49
5/18/2021 11:45:00 PM 11.56 52.808 0.054 9.5 16.61 10.51
5/19/2021 12:00:00 AM 11.5 52.7 0.054 9.66 16.9 10.52
5/19/2021 12:15:00 AM 11.44 52.592 0.054 9.66 3088.99 10.54
5/19/2021 12:30:00 AM 11.37 52.466 0.054 9.49 3859.76 10.55
5/19/2021 12:45:00 AM 11.31 52.358 0.054 9.66 15.78 10.57
5/19/2021 1:00:00 AM 11.24 52.232 0.054 9.65 15.89 10.59
5/19/2021 1:15:00 AM 11.18 52.124 0.054 9.49 15.99 10.6
5/19/2021 1:30:00 AM 11.11 51.998 0.054 9.66 15.91 10.62
5/19/2021 1:45:00 AM 11.05 51.89 0.054 9.65 15.82 10.65
5/19/2021 2:00:00 AM 10.98 51.764 0.054 9.65 17.35 10.66
5/19/2021 2:15:00 AM 10.91 51.638 0.054 9.65 15.83 10.68
5/19/2021 2:30:00 AM 10.85 51.53 0.054 9.64 15.53 10.69
5/19/2021 2:45:00 AM 10.78 51.404 0.054 9.65 15.23 10.71
5/19/2021 3:00:00 AM 10.72 51.296 0.054 9.64 15.06 10.73
5/19/2021 3:15:00 AM 10.66 51.188 0.054 9.62 15.18 10.74
5/19/2021 3:30:00 AM 10.59 51.062 0.054 9.65 14.78 10.76
5/19/2021 3:45:00 AM 10.53 50.954 0.054 9.64 14.57 10.77
5/19/2021 4:00:00 AM 10.47 50.846 0.054 9.64 14.56 10.79
5/19/2021 4:15:00 AM 10.4 50.72 0.054 9.64 14.3 10.81
5/19/2021 4:30:00 AM 10.34 50.612 0.054 9.48 13.83 10.83
5/19/2021 4:45:00 AM 10.28 50.504 0.054 9.65 13.82 10.85
5/19/2021 5:00:00 AM 10.22 50.396 0.054 9.64 14.69 10.87
5/19/2021 5:15:00 AM 10.16 50.288 0.054 9.64 13.86 10.88
5/19/2021 5:30:00 AM 10.1 50.18 0.054 9.63 13.82 10.89
5/19/2021 5:45:00 AM 10.04 50.072 0.054 9.63 14.16 10.91
5/19/2021 6:00:00 AM 9.98 49.964 0.054 9.63 14.14 10.94
5/19/2021 6:15:00 AM 9.93 49.874 0.054 9.64 14.62 10.97
5/19/2021 6:30:00 AM 9.89 49.802 0.054 9.63 14.24 10.99
5/19/2021 6:45:00 AM 9.86 49.748 0.054 9.65 13.87 11.02
5/19/2021 7:00:00 AM 9.84 49.712 0.054 9.65 13.62 11.04
5/19/2021 7:15:00 AM 9.83 49.694 0.054 9.65 13.45 11.05
5/19/2021 7:30:00 AM 9.83 49.694 0.054 9.66 13.34 11.07
5/19/2021 7:45:00 AM 9.86 49.748 0.054 9.67 13.84 11.09
5/19/2021 8:00:00 AM 9.91 49.838 0.054 9.68 13.88 11.09
5/19/2021 8:15:00 AM 9.96 49.928 0.054 9.69 13.95 11.09
5/19/2021 8:30:00 AM 10.03 50.054 0.054 9.7 13.19 11.09
5/19/2021 8:45:00 AM 10.13 50.234 0.054 9.71 13.03 11.09
5/19/2021 9:00:00 AM 10.23 50.414 0.054 9.71 13.5 11.08
5/19/2021 9:15:00 AM 10.33 50.594 0.054 9.72 14.15 11.06
5/19/2021 9:30:00 AM 10.46 50.828 0.054 9.73 13.55 11.04
5/19/2021 9:45:00 AM 10.61 51.098 0.054 9.74 13.75 11.02
5/19/2021 10:00:00 AM 10.79 51.422 0.054 9.75 13.88 10.98
5/19/2021 10:15:00 AM 10.98 51.764 0.054 9.77 13.75 10.94
5/19/2021 10:30:00 AM 11.18 52.124 0.054 9.78 13.5 10.9
5/19/2021 10:45:00 AM 11.39 52.502 0.054 9.7 14.02 10.86
5/19/2021 11:00:00 AM 11.6 52.88 0.054 9.81 13.76 10.82
5/19/2021 11:15:00 AM 11.81 53.258 0.054 9.81 13.84 10.77
5/19/2021 11:30:00 AM 11.99 53.582 0.054 9.65 13.89 10.73
5/19/2021 11:45:00 AM 12.16 53.888 0.053 9.84 13.88 10.69
5/19/2021 12:00:00 PM 12.32 54.176 0.053 9.83 13.47 10.65
5/19/2021 12:15:00 PM 12.48 54.464 0.053 9.83 13.84 10.6
5/19/2021 12:30:00 PM 12.63 54.734 0.053 9.84 13.69 10.56
5/19/2021 12:45:00 PM 12.77 54.986 0.053 9.67 13.58 10.52
5/19/2021 1:00:00 PM 12.9 55.22 0.053 9.86 13.99 10.49
5/19/2021 1:15:00 PM 13.02 55.436 0.053 9.85 13.81 10.45
5/19/2021 1:30:00 PM 13.16 55.688 0.053 9.85 14.31 10.41
5/19/2021 1:45:00 PM 13.27 55.886 0.053 9.79 13.56 10.38
5/19/2021 2:00:00 PM 13.38 56.084 0.053 9.86 14.47 10.35
5/19/2021 2:15:00 PM 13.47 56.246 0.053 9.85 14.37 10.32
5/19/2021 2:30:00 PM 13.56 56.408 0.053 9.85 14.31 10.3
5/19/2021 2:45:00 PM 13.62 56.516 0.053 9.86 14.59 10.28
5/19/2021 3:00:00 PM 13.68 56.624 0.053 9.86 14.71 10.26
5/19/2021 3:15:00 PM 13.77 56.786 0.053 9.86 14.73 10.25
5/19/2021 3:30:00 PM 13.84 56.912 0.053 9.87 14.76 10.22
5/19/2021 3:45:00 PM 13.82 56.876 0.053 9.86 14.85 10.2
5/19/2021 4:00:00 PM 13.79 56.822 0.053 9.86 14.94 10.2
5/19/2021 4:15:00 PM 13.75 56.75 0.053 9.69 14.72 10.21
5/19/2021 4:30:00 PM 13.79 56.822 0.053 9.81 14.84 10.2
5/19/2021 4:45:00 PM 13.82 56.876 0.053 9.86 15.06 10.18
5/19/2021 5:00:00 PM 13.79 56.822 0.054 9.84 14.59 10.17
5/19/2021 5:15:00 PM 13.75 56.75 0.054 9.83 14.89 10.16
5/19/2021 5:30:00 PM 13.69 56.642 0.054 9.81 14.75 10.15
5/19/2021 5:45:00 PM 13.63 56.534 0.054 9.79 14.6 10.15
5/19/2021 6:00:00 PM 13.61 56.498 0.054 9.63 14.71 10.16
5/19/2021 6:15:00 PM 13.6 56.48 0.054 9.68 14.59 10.17
5/19/2021 6:30:00 PM 13.57 56.426 0.054 9.78 14.61 10.16
5/19/2021 6:45:00 PM 13.52 56.336 0.054 9.76 14.37 10.14
5/19/2021 7:00:00 PM 13.48 56.264 0.054 9.75 14.81 10.14
5/19/2021 7:15:00 PM 13.44 56.192 0.12 9.71 14.47 10.14
5/19/2021 7:30:00 PM 13.4 56.12 0.059 9.74 14.34 10.14
5/19/2021 7:45:00 PM 13.35 56.03 0.056 9.73 14.07 10.13
5/19/2021 8:00:00 PM 13.31 55.958 0.055 9.72 14.06 10.13
5/19/2021 8:15:00 PM 13.26 55.868 0.055 9.71 14.41 10.12
5/19/2021 8:30:00 PM 13.21 55.778 0.151 9.63 14.61 10.12
5/19/2021 8:45:00 PM 13.16 55.688 0.061 9.69 13.88 10.12
5/19/2021 9:00:00 PM 13.12 55.616 0.058 9.69 14.48 10.13
5/19/2021 9:15:00 PM 13.08 55.544 0.057 9.69 15.82 10.14
5/19/2021 9:30:00 PM 13.04 55.472 0.056 9.68 15.49 10.15
5/19/2021 9:45:00 PM 12.99 55.382 0.056 9.68 15.31 10.16
5/19/2021 10:00:00 PM 12.95 55.31 0.056 9.68 15.28 10.17
5/19/2021 10:15:00 PM 12.9 55.22 0.056 9.66 15.56 10.19
5/19/2021 10:30:00 PM 12.86 55.148 0.056 9.68 14.93 10.2
5/19/2021 10:45:00 PM 12.81 55.058 0.056 9.53 15.38 10.21
5/19/2021 11:00:00 PM 12.76 54.968 0.056 9.69 15.42 10.22
5/19/2021 11:15:00 PM 12.71 54.878 0.056 9.66 15.45 10.24
5/19/2021 11:30:00 PM 12.65 54.77 0.056 9.69 15.3 10.25
5/19/2021 11:45:00 PM 12.6 54.68 0.056 9.67 15.38 10.26
5/20/2021 12:00:00 AM 12.54 54.572 0.056 9.69 15.52 10.28
5/20/2021 12:15:00 AM 12.49 54.482 0.056 9.69 16.06 10.29
5/20/2021 12:30:00 AM 12.43 54.374 0.056 9.69 15.88 10.31
5/20/2021 12:45:00 AM 12.38 54.284 0.056 9.69 16.38 10.32
5/20/2021 1:00:00 AM 12.33 54.194 0.056 9.69 18.07 10.33
5/20/2021 1:15:00 AM 12.26 54.068 0.056 9.69 16.41 10.35
5/20/2021 1:30:00 AM 12.2 53.96 0.056 9.69 16.52 10.36
5/20/2021 1:45:00 AM 12.14 53.852 0.056 9.55 15.9 10.38
5/20/2021 2:00:00 AM 12.08 53.744 0.056 9.7 15.4 10.39
5/20/2021 2:15:00 AM 12.02 53.636 0.056 9.69 16.5 10.41
5/20/2021 2:30:00 AM 11.96 53.528 0.056 9.69 16.24 10.43
5/20/2021 2:45:00 AM 11.9 53.42 0.056 9.69 15.61 10.44
5/20/2021 3:00:00 AM 11.84 53.312 0.056 9.69 17.23 10.45
5/20/2021 3:15:00 AM 11.78 53.204 0.056 9.69 16.01 10.47
5/20/2021 3:30:00 AM 11.72 53.096 0.056 9.69 16.28 10.49
5/20/2021 3:45:00 AM 11.66 52.988 0.056 9.61 16.73 10.5
5/20/2021 4:00:00 AM 11.6 52.88 0.056 9.58 15.57 10.52
5/20/2021 4:15:00 AM 11.54 52.772 0.056 9.71 15.65 10.53
5/20/2021 4:30:00 AM 11.49 52.682 0.056 9.69 14.34 10.55
5/20/2021 4:45:00 AM 11.45 52.61 0.056 9.69 14.89 10.55
5/20/2021 5:00:00 AM 11.4 52.52 0.056 9.58 14.3 10.57
5/20/2021 5:15:00 AM 11.35 52.43 0.056 9.69 14.97 10.59
5/20/2021 5:30:00 AM 11.3 52.34 0.056 9.67 15.2 10.59
5/20/2021 5:45:00 AM 11.25 52.25 0.056 9.67 15.29 10.61
5/20/2021 6:00:00 AM 11.22 52.196 0.056 9.65 14.83 10.63
5/20/2021 6:15:00 AM 11.18 52.124 0.056 9.69 15.04 10.64
5/20/2021 6:30:00 AM 11.16 52.088 0.056 9.69 15.4 10.67
5/20/2021 6:45:00 AM 11.12 52.016 0.056 9.7 14.83 10.69
5/20/2021 7:00:00 AM 11.09 51.962 0.056 9.69 14.84 10.72
5/20/2021 7:15:00 AM 11.09 51.962 0.056 9.71 15.05 10.74
5/20/2021 7:30:00 AM 11.12 52.016 0.056 9.72 14.59 10.76
5/20/2021 7:45:00 AM 11.13 52.034 0.056 9.73 14.5 10.78
5/20/2021 8:00:00 AM 11.13 52.034 0.056 9.72 13.88 10.78
5/20/2021 8:15:00 AM 11.14 52.052 0.056 9.75 14.46 10.79
5/20/2021 8:30:00 AM 11.17 52.106 0.056 9.76 14.34 10.82
5/20/2021 8:45:00 AM 11.24 52.232 0.056 9.77 13.96 10.81
5/20/2021 9:00:00 AM 11.3 52.34 0.056 9.78 14.08 10.82
5/20/2021 9:15:00 AM 11.34 52.412 0.056 9.79 14.38 10.8
5/20/2021 9:30:00 AM 11.44 52.592 0.056 9.79 14.41 10.79
5/20/2021 9:45:00 AM 11.56 52.808 0.056 9.8 14.57 10.78
5/20/2021 10:00:00 AM 11.77 53.186 0.056 9.81 14.1 10.75
5/20/2021 10:15:00 AM 11.94 53.492 0.056 9.82 13.91 10.73
5/20/2021 10:30:00 AM 12.19 53.942 0.056 9.84 14.35 10.67
5/20/2021 10:45:00 AM 12.44 54.392 0.056 9.85 15.15 10.62
5/20/2021 11:00:00 AM 12.67 54.806 0.056 9.86 14.75 10.59
5/20/2021 11:15:00 AM 12.92 55.256 0.055 9.88 14.62 10.55
5/20/2021 11:30:00 AM 13.08 55.544 0.055 9.89 14.38 10.51
5/20/2021 11:45:00 AM 13.2 55.76 0.055 9.9 14.41 10.47
5/20/2021 12:00:00 PM 13.33 55.994 0.055 9.9 14.61 10.43
5/20/2021 12:15:00 PM 13.34 56.012 0.055 9.91 14.51 10.41
5/20/2021 12:30:00 PM 13.55 56.39 0.055 9.92 16.54 10.38
5/20/2021 12:45:00 PM 13.67 56.606 0.055 9.92 16.26 10.35
5/20/2021 1:00:00 PM 13.79 56.822 0.055 9.93 15.6 10.31
5/20/2021 1:15:00 PM 13.95 57.11 0.055 9.93 14.23 10.28
5/20/2021 1:30:00 PM 14.06 57.308 0.055 9.93 14.81 10.24
5/20/2021 1:45:00 PM 14.13 57.434 0.055 9.92 14.99 10.21
5/20/2021 2:00:00 PM 14.21 57.578 0.055 9.92 14.77 10.18
5/20/2021 2:15:00 PM 14.35 57.83 0.055 9.93 14.86 10.16
5/20/2021 2:30:00 PM 14.42 57.956 0.055 9.93 14.9 10.13
5/20/2021 2:45:00 PM 14.47 58.046 0.055 9.93 15.1 10.11
5/20/2021 3:00:00 PM 14.46 58.028 0.055 9.94 15.12 10.12
5/20/2021 3:15:00 PM 14.49 58.082 0.055 9.94 15.07 10.09
5/20/2021 3:30:00 PM 14.42 57.956 0.055 9.75 15.39 10.06
5/20/2021 3:45:00 PM 14.39 57.902 0.055 9.92 15.85 10.08
5/20/2021 4:00:00 PM 14.48 58.064 0.055 9.91 15.6 10.06
5/20/2021 4:15:00 PM 14.47 58.046 0.055 9.9 15.62 10.04
5/20/2021 4:30:00 PM 14.46 58.028 0.055 9.89 15.27 10.03
5/20/2021 4:45:00 PM 14.48 58.064 0.056 9.78 15.04 10.02
5/20/2021 5:00:00 PM 14.47 58.046 0.056 9.9 15.32 10.01
5/20/2021 5:15:00 PM 14.42 57.956 0.056 9.88 15.41 9.99
5/20/2021 5:30:00 PM 14.38 57.884 0.056 9.86 15.48 10
5/20/2021 5:45:00 PM 14.33 57.794 0.056 9.86 15.49 9.99
5/20/2021 6:00:00 PM 14.3 57.74 0.056 9.7 15.09 10
5/20/2021 6:15:00 PM 14.27 57.686 0.056 9.73 15.1 9.99
5/20/2021 6:30:00 PM 14.23 57.614 0.056 9.84 14.72 9.98
5/20/2021 6:45:00 PM 14.2 57.56 0.056 9.83 14.97 9.98
5/20/2021 7:00:00 PM 14.16 57.488 0.056 9.82 15.09 9.98
5/20/2021 7:15:00 PM 14.11 57.398 0.056 9.8 15.02 9.98
5/20/2021 7:30:00 PM 14.07 57.326 0.057 9.79 15.12 9.97
5/20/2021 7:45:00 PM 14.02 57.236 0.057 9.79 14.67 9.98
5/20/2021 8:00:00 PM 13.97 57.146 0.057 9.78 15.11 9.98
5/20/2021 8:15:00 PM 13.93 57.074 0.057 9.77 14.54 9.96
5/20/2021 8:30:00 PM 13.89 57.002 0.057 9.61 14.64 9.97
5/20/2021 8:45:00 PM 13.85 56.93 0.057 9.77 14.6 9.97
5/20/2021 9:00:00 PM 13.82 56.876 0.057 9.76 14.76 9.98
5/20/2021 9:15:00 PM 13.78 56.804 0.057 9.75 15.89 9.98
5/20/2021 9:30:00 PM 13.74 56.732 0.057 9.75 16.03 10
5/20/2021 9:45:00 PM 13.7 56.66 0.057 9.73 17.51 10.01
5/20/2021 10:00:00 PM 13.65 56.57 0.057 9.68 14.59 10.02
5/20/2021 10:15:00 PM 13.62 56.516 0.057 9.75 16.1 10.03
5/20/2021 10:30:00 PM 13.58 56.444 0.057 9.63 15.94 10.03
5/20/2021 10:45:00 PM 13.55 56.39 0.057 9.76 15.69 10.05
5/20/2021 11:00:00 PM 13.51 56.318 0.058 9.6 16.28 10.05
5/20/2021 11:15:00 PM 13.47 56.246 0.058 9.76 16.1 10.06
5/20/2021 11:30:00 PM 13.43 56.174 0.058 9.75 15.96 10.07
5/20/2021 11:45:00 PM 13.39 56.102 0.058 9.74 16.16 10.08
5/21/2021 12:00:00 AM 13.36 56.048 0.058 9.58 15.96 10.09
5/21/2021 12:15:00 AM 13.32 55.976 0.058 9.75 17.38 10.11
5/21/2021 12:30:00 AM 13.28 55.904 0.058 9.59 16.85 10.11
5/21/2021 12:45:00 AM 13.24 55.832 0.058 9.75 16.56 10.13
5/21/2021 1:00:00 AM 13.2 55.76 0.058 9.74 18.31 10.13
5/21/2021 1:15:00 AM 13.16 55.688 0.056 9.7 15.92 10.15
5/21/2021 1:30:00 AM 13.12 55.616 0.058 9.59 15.65 10.15
5/21/2021 1:45:00 AM 13.08 55.544 0.058 9.75 15.59 10.16
5/21/2021 2:00:00 AM 13.05 55.49 0.058 9.74 15.76 10.17
5/21/2021 2:15:00 AM 13.01 55.418 0.058 9.74 15.69 10.18
5/21/2021 2:30:00 AM 12.97 55.346 0.058 9.73 15.91 10.19
5/21/2021 2:45:00 AM 12.93 55.274 0.058 9.62 15.71 10.2
5/21/2021 3:00:00 AM 12.88 55.184 0.058 9.73 15.86 10.21
5/21/2021 3:15:00 AM 12.84 55.112 0.058 9.67 15.82 10.22
5/21/2021 3:30:00 AM 12.81 55.058 0.058 9.74 15.52 10.23
5/21/2021 3:45:00 AM 12.77 54.986 0.058 9.72 15.78 10.24
5/21/2021 4:00:00 AM 12.74 54.932 0.058 9.73 14.9 10.25
5/21/2021 4:15:00 AM 12.7 54.86 0.058 9.73 15.25 10.25
5/21/2021 4:30:00 AM 12.66 54.788 0.058 9.68 14.51 10.26
5/21/2021 4:45:00 AM 12.62 54.716 0.058 9.64 14.79 10.28
5/21/2021 5:00:00 AM 12.58 54.644 0.058 9.75 15.37 10.29
5/21/2021 5:15:00 AM 12.53 54.554 0.058 9.74 15.68 10.29
5/21/2021 5:30:00 AM 12.48 54.464 0.058 9.74 16.08 10.31
5/21/2021 5:45:00 AM 12.43 54.374 0.058 9.73 15.5 10.33
5/21/2021 6:00:00 AM 12.38 54.284 0.058 9.74 16.28 10.35
5/21/2021 6:15:00 AM 12.34 54.212 0.058 9.74 15.41 10.37
5/21/2021 6:30:00 AM 12.31 54.158 0.058 9.74 14.82 10.4
5/21/2021 6:45:00 AM 12.28 54.104 0.058 9.75 15.66 10.42
5/21/2021 7:00:00 AM 12.27 54.086 0.058 9.77 16.29 10.44
5/21/2021 7:15:00 AM 12.26 54.068 0.058 9.73 16.28 10.46
5/21/2021 7:30:00 AM 12.27 54.086 0.058 9.78 16.18 10.47
5/21/2021 7:45:00 AM 12.3 54.14 0.058 9.79 15.54 10.48
5/21/2021 8:00:00 AM 12.34 54.212 0.058 9.71 15.82 10.49
5/21/2021 8:15:00 AM 12.4 54.32 0.058 9.82 15.89 10.5
5/21/2021 8:30:00 AM 12.46 54.428 0.058 9.83 11.43 10.51
5/21/2021 8:45:00 AM 12.54 54.572 0.058 9.84 17.53 10.5
5/21/2021 9:00:00 AM 12.64 54.752 0.058 9.85 16.92 10.5
5/21/2021 9:15:00 AM 12.74 54.932 0.058 9.86 16.09 10.49
5/21/2021 9:30:00 AM 12.86 55.148 0.058 9.88 15.97 10.48
5/21/2021 9:45:00 AM 13.01 55.418 0.058 9.77 15.52 10.46
5/21/2021 10:00:00 AM 13.18 55.724 0.058 9.92 11.88 10.44
5/21/2021 10:15:00 AM 13.35 56.03 0.058 9.92 20.21 10.41
5/21/2021 10:30:00 AM 13.49 56.282 0.058 9.93 18.34 10.39
5/21/2021 10:45:00 AM 13.67 56.606 0.058 9.94 18.03 10.35
5/21/2021 11:00:00 AM 13.88 56.984 0.058 9.8 27.87 10.32
5/21/2021 11:15:00 AM 14.09 57.362 0.057 9.98 16.61 10.28
5/21/2021 11:30:00 AM 14.26 57.668 0.057 9.98 18.78 10.24
5/21/2021 11:45:00 AM 14.43 57.974 0.057 9.98 15.57 10.21
5/21/2021 12:00:00 PM 14.59 58.262 0.057 9.99 15.46 10.17
5/21/2021 12:15:00 PM 14.74 58.532 0.057 9.99 17.95 10.14
5/21/2021 12:30:00 PM 14.85 58.73 0.057 9.99 16.39 10.1
5/21/2021 12:45:00 PM 14.94 58.892 0.057 10 17.1 10.07
5/21/2021 1:00:00 PM 15.02 59.036 0.057 9.99 17.14 10.05
5/21/2021 1:15:00 PM 15.1 59.18 0.057 9.99 16.46 10.03
5/21/2021 1:30:00 PM 15.18 59.324 0.057 10 17.13 10
5/21/2021 1:45:00 PM 15.27 59.486 0.057 9.84 16.77 9.98
5/21/2021 2:00:00 PM 15.34 59.612 0.057 10.01 20.37 9.95
5/21/2021 2:15:00 PM 15.41 59.738 0.057 10 17.83 9.93
5/21/2021 2:30:00 PM 15.45 59.81 0.057 10 17.11 9.91
5/21/2021 2:45:00 PM 15.52 59.936 0.057 9.84 18.81 9.88
5/21/2021 3:00:00 PM 15.55 59.99 0.057 10 17.85 9.86
5/21/2021 3:15:00 PM 15.59 60.062 0.057 9.98 17.04 9.84
5/21/2021 3:30:00 PM 15.6 60.08 0.057 9.98 17.51 9.83
5/21/2021 3:45:00 PM 15.61 60.098 0.057 9.97 17.38 9.82
5/21/2021 4:00:00 PM 15.6 60.08 0.057 9.97 17.59 9.81
5/21/2021 4:15:00 PM 15.53 59.954 0.055 9.92 17.38 9.8
5/21/2021 4:30:00 PM 15.51 59.918 0.058 9.82 17.34 9.81
5/21/2021 4:45:00 PM 15.46 59.828 0.058 9.97 17.38 9.79
5/21/2021 5:00:00 PM 15.39 59.702 0.058 9.94 17.55 9.79
5/21/2021 5:15:00 PM 15.39 59.702 0.058 9.93 17.64 9.81
5/21/2021 5:30:00 PM 15.41 59.738 0.058 9.94 14.14 9.82
5/21/2021 5:45:00 PM 15.37 59.666 0.058 9.93 20.36 9.8
5/21/2021 6:00:00 PM 15.31 59.558 0.058 9.9 18.91 9.76
5/21/2021 6:15:00 PM 15.25 59.45 0.058 9.88 18.94 9.76
5/21/2021 6:30:00 PM 15.2 59.36 0.058 9.87 16.83 9.75
5/21/2021 6:45:00 PM 15.16 59.288 0.056 9.82 17.1 9.76
5/21/2021 7:00:00 PM 15.14 59.252 0.058 9.86 20.24 9.78
5/21/2021 7:15:00 PM 15.09 59.162 0.059 9.86 19.76 9.76
5/21/2021 7:30:00 PM 15.03 59.054 0.059 9.84 18.96 9.75
5/21/2021 7:45:00 PM 14.97 58.946 0.059 9.83 19.18 9.75
5/21/2021 8:00:00 PM 14.91 58.838 0.059 9.82 16.82 9.74
5/21/2021 8:15:00 PM 14.85 58.73 0.059 9.82 19.55 9.74
5/21/2021 8:30:00 PM 14.79 58.622 0.059 9.81 17.88 9.75
5/21/2021 8:45:00 PM 14.74 58.532 0.059 9.8 23.45 9.76
5/21/2021 9:00:00 PM 14.69 58.442 0.059 9.79 18.19 9.77
5/21/2021 9:15:00 PM 14.65 58.37 0.059 9.79 25.13 9.77
5/21/2021 9:30:00 PM 14.61 58.298 0.059 9.79 23.99 9.78
5/21/2021 9:45:00 PM 14.56 58.208 0.059 9.78 32.12 9.8
5/21/2021 10:00:00 PM 14.52 58.136 0.059 9.78 27.3 9.81
5/21/2021 10:15:00 PM 14.47 58.046 0.059 9.78 32.38 9.82
5/21/2021 10:30:00 PM 14.42 57.956 0.06 9.78 25.3 9.83
5/21/2021 10:45:00 PM 14.37 57.866 0.06 9.78 19.94 9.84
5/21/2021 11:00:00 PM 14.32 57.776 0.06 9.78 24.43 9.85
5/21/2021 11:15:00 PM 14.27 57.686 0.06 9.77 21.5 9.86
5/21/2021 11:30:00 PM 14.23 57.614 0.06 9.78 32.32 9.87
5/21/2021 11:45:00 PM 14.18 57.524 0.06 9.78 26.85 9.88
5/22/2021 12:00:00 AM 14.14 57.452 0.06 9.64 26.43 9.89
5/22/2021 12:15:00 AM 14.09 57.362 0.06 9.8 27.79 9.89
5/22/2021 12:30:00 AM 14.05 57.29 0.06 9.79 23.94 9.91
5/22/2021 12:45:00 AM 14.01 57.218 0.06 9.71 24.54 9.92
5/22/2021 1:00:00 AM 13.97 57.146 0.06 9.79 22.13 9.93
5/22/2021 1:15:00 AM 13.92 57.056 0.06 9.79 27.78 9.94
5/22/2021 1:30:00 AM 13.88 56.984 0.06 9.77 24.61 9.94
5/22/2021 1:45:00 AM 13.83 56.894 0.06 9.8 32.37 9.96
5/22/2021 2:00:00 AM 13.79 56.822 0.06 9.8 25.65 9.97
5/22/2021 2:15:00 AM 13.74 56.732 0.06 9.8 22.68 9.98
5/22/2021 2:30:00 AM 13.7 56.66 0.06 9.73 34.64 9.99
5/22/2021 2:45:00 AM 13.66 56.588 0.06 9.8 25.68 9.99
5/22/2021 3:00:00 AM 13.62 56.516 0.06 9.79 23.62 10
5/22/2021 3:15:00 AM 13.57 56.426 0.06 9.8 26.88 10.01
5/22/2021 3:30:00 AM 13.53 56.354 0.06 9.8 24.63 10.02
5/22/2021 3:45:00 AM 13.49 56.282 0.06 9.8 24.02 10.03
5/22/2021 4:00:00 AM 13.45 56.21 0.06 9.8 18.25 10.04
5/22/2021 4:15:00 AM 13.41 56.138 0.06 9.74 23.57 10.05
5/22/2021 4:30:00 AM 13.37 56.066 0.06 9.8 23.04 10.06
5/22/2021 4:45:00 AM 13.33 55.994 0.06 9.8 32.66 10.07
5/22/2021 5:00:00 AM 13.28 55.904 0.06 9.8 22.37 10.08
5/22/2021 5:15:00 AM 13.22 55.796 0.06 9.8 17.53 10.09
5/22/2021 5:30:00 AM 13.17 55.706 0.06 9.8 21.76 10.1
5/22/2021 5:45:00 AM 13.12 55.616 0.06 9.8 22.46 10.11
5/22/2021 6:00:00 AM 13.08 55.544 0.06 9.8 22.34 10.13
5/22/2021 6:15:00 AM 13.05 55.49 0.06 9.81 21.35 10.16
5/22/2021 6:30:00 AM 13.02 55.436 0.06 9.82 19.19 10.18
5/22/2021 6:45:00 AM 13 55.4 0.06 9.83 17.92 10.2
5/22/2021 7:00:00 AM 12.98 55.364 0.06 9.83 21.14 10.22
5/22/2021 7:15:00 AM 12.97 55.346 0.06 9.84 24.53 10.23
5/22/2021 7:30:00 AM 12.97 55.346 0.06 9.83 20.91 10.27
5/22/2021 7:45:00 AM 13 55.4 0.06 9.87 20.4 10.28
5/22/2021 8:00:00 AM 12.99 55.382 0.06 9.87 30.14 10.27
5/22/2021 8:15:00 AM 12.98 55.364 0.06 9.86 20.99 10.27
5/22/2021 8:30:00 AM 13.03 55.454 0.06 9.88 22.23 10.31
5/22/2021 8:45:00 AM 13.13 55.634 0.06 9.9 21.11 10.32
5/22/2021 9:00:00 AM 13.22 55.796 0.06 9.91 30.22 10.32
5/22/2021 9:15:00 AM 13.33 55.994 0.06 9.93 23.42 10.31
5/22/2021 9:30:00 AM 13.44 56.192 0.06 9.95 20.34 10.31
5/22/2021 9:45:00 AM 13.54 56.372 0.06 9.96 24.11 10.3
5/22/2021 10:00:00 AM 13.69 56.642 0.059 9.98 25.03 10.28
5/22/2021 10:15:00 AM 13.86 56.948 0.059 9.89 26.16 10.26
5/22/2021 10:30:00 AM 13.93 57.074 0.059 10.03 25.82 10.23
5/22/2021 10:45:00 AM 13.94 57.092 0.059 10.02 24.85 10.2
5/22/2021 11:00:00 AM 13.95 57.11 0.059 10.02 19.87 10.19
5/22/2021 11:15:00 AM 13.96 57.128 0.059 10.01 24.57 10.18
5/22/2021 11:30:00 AM 14.09 57.362 0.059 9.89 25 10.19
5/22/2021 11:45:00 AM 14.26 57.668 0.059 10.06 27.22 10.17
5/22/2021 12:00:00 PM 14.35 57.83 0.059 10.06 23.87 10.14
5/22/2021 12:15:00 PM 14.41 57.938 0.059 10.05 25.36 10.11
5/22/2021 12:30:00 PM 14.5 58.1 0.059 10.06 23.35 10.09
5/22/2021 12:45:00 PM 14.79 58.622 0.059 10.07 22.66 10.07
5/22/2021 1:00:00 PM 14.8 58.64 0.059 10.07 23.68 10.03
5/22/2021 1:15:00 PM 14.83 58.694 0.059 10 24.13 10.01
5/22/2021 1:30:00 PM 14.85 58.73 0.059 10.07 23.13 9.99
5/22/2021 1:45:00 PM 14.83 58.694 0.059 10.05 24.04 9.96
5/22/2021 2:00:00 PM 14.86 58.748 0.059 10.06 24.27 9.97
5/22/2021 2:15:00 PM 14.94 58.892 0.059 10.06 23.81 9.97
5/22/2021 2:30:00 PM 14.94 58.892 0.059 10.05 27.96 9.94
5/22/2021 2:45:00 PM 14.98 58.964 0.056 10.03 22.9 9.94
5/22/2021 3:00:00 PM 15.02 59.036 0.059 10.06 25 9.92
5/22/2021 3:15:00 PM 15.04 59.072 0.059 10.05 23.9 9.9
5/22/2021 3:30:00 PM 15.03 59.054 0.059 10.04 27.41 9.88
5/22/2021 3:45:00 PM 15.04 59.072 0.059 10.04 27.47 9.86
5/22/2021 4:00:00 PM 15.02 59.036 0.059 10.02 26.18 9.85
5/22/2021 4:15:00 PM 15.06 59.108 0.059 9.88 32.15 9.87
5/22/2021 4:30:00 PM 15.13 59.234 0.059 10.04 30.75 9.85
5/22/2021 4:45:00 PM 15.25 59.45 0.059 10.06 24.76 9.85
5/22/2021 5:00:00 PM 15.25 59.45 0.059 10.04 22.43 9.79
5/22/2021 5:15:00 PM 15.18 59.324 0.059 10.02 25.7 9.76
5/22/2021 5:30:00 PM 15.15 59.27 0.06 10.01 25.45 9.78
5/22/2021 5:45:00 PM 15.14 59.252 0.06 10.01 25.28 9.79
5/22/2021 6:00:00 PM 15.11 59.198 0.06 10 24.31 9.76
5/22/2021 6:15:00 PM 15.07 59.126 0.06 9.98 24.75 9.75
5/22/2021 6:30:00 PM 15.05 59.09 0.06 9.97 24.42 9.75
5/22/2021 6:45:00 PM 15.03 59.054 0.06 9.97 25.06 9.75
5/22/2021 7:00:00 PM 15 59 0.06 9.9 20.99 9.73
5/22/2021 7:15:00 PM 14.97 58.946 0.06 9.84 25.87 9.71
5/22/2021 7:30:00 PM 14.93 58.874 0.06 9.95 23.24 9.68
5/22/2021 7:45:00 PM 14.9 58.82 0.06 9.92 21.18 9.69
5/22/2021 8:00:00 PM 14.88 58.784 0.06 9.93 19.55 9.71
5/22/2021 8:15:00 PM 14.86 58.748 0.06 9.92 25.51 9.69
5/22/2021 8:30:00 PM 14.82 58.676 0.061 9.91 29.04 9.68
5/22/2021 8:45:00 PM 14.78 58.604 0.061 9.89 22.28 9.67
5/22/2021 9:00:00 PM 14.76 58.568 0.061 9.74 36.57 9.68
5/22/2021 9:15:00 PM 14.74 58.532 0.061 9.91 29.09 9.68
5/22/2021 9:30:00 PM 14.72 58.496 0.061 9.89 24.35 9.69
5/22/2021 9:45:00 PM 14.68 58.424 0.061 9.88 42.06 9.69
5/22/2021 10:00:00 PM 14.65 58.37 0.061 9.78 27.32 9.7
5/22/2021 10:15:00 PM 14.62 58.316 0.061 9.87 37.76 9.7
5/22/2021 10:30:00 PM 14.59 58.262 0.061 9.85 38.78 9.71
5/22/2021 10:45:00 PM 14.56 58.208 0.061 9.84 27.3 9.71
5/22/2021 11:00:00 PM 14.53 58.154 0.061 9.83 38.41 9.72
5/22/2021 11:15:00 PM 14.5 58.1 0.061 9.82 31.09 9.72
5/22/2021 11:30:00 PM 14.47 58.046 0.061 9.82 31.73 9.73
5/22/2021 11:45:00 PM 14.44 57.992 0.061 9.81 33.81 9.73
5/23/2021 12:00:00 AM 14.41 57.938 0.061 9.82 33.6 9.74
5/23/2021 12:15:00 AM 14.39 57.902 0.061 9.82 32.01 9.74
5/23/2021 12:30:00 AM 14.36 57.848 0.062 9.81 29.76 9.75
5/23/2021 12:45:00 AM 14.34 57.812 0.062 9.83 32.16 9.75
5/23/2021 1:00:00 AM 14.32 57.776 0.062 9.82 28.7 9.76
5/23/2021 1:15:00 AM 14.29 57.722 0.062 9.65 34.4 9.76
5/23/2021 1:30:00 AM 14.27 57.686 0.062 9.84 39.84 9.76
5/23/2021 1:45:00 AM 14.23 57.614 0.062 9.77 31.78 9.77
5/23/2021 2:00:00 AM 14.2 57.56 0.062 9.83 30.94 9.77
5/23/2021 2:15:00 AM 14.17 57.506 0.062 9.83 29.81 9.78
5/23/2021 2:30:00 AM 14.14 57.452 0.062 9.83 31.86 9.79
5/23/2021 2:45:00 AM 14.11 57.398 0.062 9.84 40.44 9.8
5/23/2021 3:00:00 AM 14.08 57.344 0.062 9.85 30.66 9.8
5/23/2021 3:15:00 AM 14.05 57.29 0.062 9.85 21.54 9.81
5/23/2021 3:30:00 AM 14.02 57.236 0.062 9.85 26.87 9.82
5/23/2021 3:45:00 AM 13.99 57.182 0.062 9.85 28.64 9.82
5/23/2021 4:00:00 AM 13.95 57.11 0.062 9.85 35.19 9.83
5/23/2021 4:15:00 AM 13.92 57.056 0.062 9.85 37.81 9.83
5/23/2021 4:30:00 AM 13.89 57.002 0.062 9.85 32.74 9.84
5/23/2021 4:45:00 AM 13.85 56.93 0.062 9.79 29.2 9.84
5/23/2021 5:00:00 AM 13.82 56.876 0.062 9.86 22.82 9.85
5/23/2021 5:15:00 AM 13.78 56.804 0.062 9.85 25.89 9.86
5/23/2021 5:30:00 AM 13.76 56.768 0.062 9.85 35.53 9.86
5/23/2021 5:45:00 AM 13.73 56.714 0.062 9.85 29.97 9.87
5/23/2021 6:00:00 AM 13.71 56.678 0.062 9.84 40.74 9.88
5/23/2021 6:15:00 AM 13.7 56.66 0.062 9.78 38.78 9.91
5/23/2021 6:30:00 AM 13.68 56.624 0.062 9.85 43.77 9.92
5/23/2021 6:45:00 AM 13.67 56.606 0.062 9.87 30.22 9.93
5/23/2021 7:00:00 AM 13.66 56.588 0.062 9.87 29.99 9.94
5/23/2021 7:15:00 AM 13.66 56.588 0.062 9.88 26.62 9.96
5/23/2021 7:30:00 AM 13.68 56.624 0.062 9.89 30.89 9.97
5/23/2021 7:45:00 AM 13.71 56.678 0.062 9.9 36.88 9.98
5/23/2021 8:00:00 AM 13.76 56.768 0.062 9.91 26.61 9.99
5/23/2021 8:15:00 AM 13.81 56.858 0.062 9.89 30.44 9.99
5/23/2021 8:30:00 AM 13.91 57.038 0.062 9.95 30.55 10
5/23/2021 8:45:00 AM 14.02 57.236 0.062 9.97 40.3 10
5/23/2021 9:00:00 AM 14.14 57.452 0.061 9.98 26.72 10
5/23/2021 9:15:00 AM 14.23 57.614 0.061 10 36.81 9.99
5/23/2021 9:30:00 AM 14.34 57.812 0.061 10.01 26.15 9.99
5/23/2021 9:45:00 AM 14.52 58.136 0.061 10.03 31.25 9.97
5/23/2021 10:00:00 AM 14.63 58.334 0.061 10.04 38.67 9.95
5/23/2021 10:15:00 AM 14.68 58.424 0.061 9.89 26.31 9.93
5/23/2021 10:30:00 AM 14.99 58.982 0.061 10.08 27.95 9.91
5/23/2021 10:45:00 AM 15.12 59.216 0.061 10.07 31.62 9.85
5/23/2021 11:00:00 AM 15.18 59.324 0.059 10.05 36.89 9.85
5/23/2021 11:15:00 AM 15.07 59.126 0.061 10.06 30.84 9.81
5/23/2021 11:30:00 AM 14.98 58.964 0.061 9.97 32.76 9.81
5/23/2021 11:45:00 AM 15.19 59.342 0.061 9.98 23.2 9.86
5/23/2021 12:00:00 PM 15.09 59.162 0.058 10.04 40.54 9.79
5/23/2021 12:15:00 PM 15.05 59.09 0.061 10.05 29.85 9.8
5/23/2021 12:30:00 PM 15.26 59.468 0.061 10.07 37.85 9.81
5/23/2021 12:45:00 PM 15.55 59.99 0.061 10.08 28.46 9.78
5/23/2021 1:00:00 PM 15.5 59.9 0.061 10.08 30.08 9.72
5/23/2021 1:15:00 PM 15.55 59.99 0.061 10.07 28.85 9.71
5/23/2021 1:30:00 PM 15.68 60.224 0.061 9.96 24.82 9.73
5/23/2021 1:45:00 PM 15.71 60.278 0.061 10.11 33.53 9.69
5/23/2021 2:00:00 PM 15.77 60.386 0.061 10.1 25.86 9.7
5/23/2021 2:15:00 PM 15.75 60.35 0.061 10.09 20.75 9.64
5/23/2021 2:30:00 PM 15.79 60.422 0.061 10.08 25.48 9.66
5/23/2021 2:45:00 PM 16.02 60.836 0.061 10.1 27.94 9.66
5/23/2021 3:00:00 PM 16.11 60.998 0.061 10.11 26.13 9.63
5/23/2021 3:15:00 PM 16.16 61.088 0.061 9.97 43.65 9.6
5/23/2021 3:30:00 PM 16.29 61.322 0.061 10.13 43.65 9.59
5/23/2021 3:45:00 PM 16.36 61.448 0.061 10.12 30.48 9.58
5/23/2021 4:00:00 PM 16.32 61.376 0.061 10.1 27.76 9.52
5/23/2021 4:15:00 PM 16.18 61.124 0.058 10.02 18.97 9.46
5/23/2021 4:30:00 PM 16.13 61.034 0.061 10.04 27.76 9.48
5/23/2021 4:45:00 PM 16.11 60.998 0.061 10.06 33.59 9.53
5/23/2021 5:00:00 PM 16.11 60.998 0.061 10.06 24.52 9.54
5/23/2021 5:15:00 PM 16.1 60.98 0.061 9.98 23.48 9.54
5/23/2021 5:30:00 PM 16.06 60.908 0.061 10.06 23.46 9.48
5/23/2021 5:45:00 PM 16.03 60.854 0.061 10.05 21.86 9.53
5/23/2021 6:00:00 PM 15.99 60.782 0.062 10.03 22.88 9.49
5/23/2021 6:15:00 PM 15.97 60.746 0.062 9.89 20.71 9.51
5/23/2021 6:30:00 PM 15.92 60.656 0.062 10.03 33.37 9.48
5/23/2021 6:45:00 PM 15.86 60.548 0.062 10 25.8 9.49
5/23/2021 7:00:00 PM 15.82 60.476 0.062 9.99 25.29 9.46
5/23/2021 7:15:00 PM 15.73 60.314 0.062 9.99 31.96 9.46
5/23/2021 7:30:00 PM 15.63 60.134 0.062 9.98 19.93 9.47
5/23/2021 7:45:00 PM 15.54 59.972 0.062 9.98 24.07 9.5
5/23/2021 8:00:00 PM 15.45 59.81 0.062 9.98 24.27 9.52
5/23/2021 8:15:00 PM 15.36 59.648 0.062 9.97 24.51 9.53
5/23/2021 8:30:00 PM 15.27 59.486 0.062 9.96 40.67 9.53
5/23/2021 8:45:00 PM 15.2 59.36 0.062 9.95 23.45 9.54
5/23/2021 9:00:00 PM 15.12 59.216 0.063 9.95 24.71 9.57
5/23/2021 9:15:00 PM 15.04 59.072 0.063 9.95 28.81 9.58
5/23/2021 9:30:00 PM 14.96 58.928 0.063 9.95 25.9 9.6
5/23/2021 9:45:00 PM 14.89 58.802 0.063 9.95 24.52 9.62
5/23/2021 10:00:00 PM 14.83 58.694 0.063 9.95 28.77 9.63
5/23/2021 10:15:00 PM 14.77 58.586 0.063 9.94 34.83 9.65
5/23/2021 10:30:00 PM 14.71 58.478 0.063 9.95 30.87 9.67
5/23/2021 10:45:00 PM 14.64 58.352 0.063 9.95 30.68 9.68
5/23/2021 11:00:00 PM 14.57 58.226 0.063 9.94 23.43 9.7
5/23/2021 11:15:00 PM 14.5 58.1 0.063 9.94 25.13 9.72
5/23/2021 11:30:00 PM 14.41 57.938 0.063 9.8 34.76 9.73
5/23/2021 11:45:00 PM 14.33 57.794 0.063 9.96 22.85 9.75
5/24/2021 12:00:00 AM 14.24 57.632 0.063 9.95 32.67 9.77
5/24/2021 12:15:00 AM 14.16 57.488 0.063 9.94 26.58 9.79
5/24/2021 12:30:00 AM 14.08 57.344 0.063 9.94 32.94 9.81
5/24/2021 12:45:00 AM 14.01 57.218 0.063 9.94 23.05 9.82
5/24/2021 1:00:00 AM 13.93 57.074 0.063 9.94 26.06 9.85
5/24/2021 1:15:00 AM 13.85 56.93 0.063 9.94 22.63 9.86
5/24/2021 1:30:00 AM 13.77 56.786 0.063 9.94 24.76 9.88
5/24/2021 1:45:00 AM 13.69 56.642 0.063 9.93 30.79 9.9
5/24/2021 2:00:00 AM 13.61 56.498 0.063 9.78 27.46 9.92
5/24/2021 2:15:00 AM 13.53 56.354 0.063 9.95 24.69 9.93
5/24/2021 2:30:00 AM 13.45 56.21 0.063 9.93 28.34 9.96
5/24/2021 2:45:00 AM 13.37 56.066 0.063 9.93 32.81 9.97
5/24/2021 3:00:00 AM 13.3 55.94 0.063 9.93 20.44 9.99
5/24/2021 3:15:00 AM 13.23 55.814 0.063 9.79 21.68 10.01
5/24/2021 3:30:00 AM 13.15 55.67 0.063 9.92 29.31 10.02
5/24/2021 3:45:00 AM 13.07 55.526 0.063 9.94 27.42 10.04
5/24/2021 4:00:00 AM 12.99 55.382 0.063 9.91 25.2 10.06
5/24/2021 4:15:00 AM 12.92 55.256 0.063 9.92 28.07 10.08
5/24/2021 4:30:00 AM 12.85 55.13 0.063 9.92 23.28 10.1
5/24/2021 4:45:00 AM 12.77 54.986 0.063 9.92 24.99 10.11
5/24/2021 5:00:00 AM 12.7 54.86 0.063 9.91 23.74 10.13
5/24/2021 5:15:00 AM 12.63 54.734 0.063 9.91 22.22 10.14
5/24/2021 5:30:00 AM 12.56 54.608 0.063 9.91 24.61 10.16
5/24/2021 5:45:00 AM 12.49 54.482 0.063 9.91 26.3 10.18
5/24/2021 6:00:00 AM 12.42 54.356 0.063 9.91 26.83 10.21
5/24/2021 6:15:00 AM 12.37 54.266 0.063 9.91 29.46 10.24
5/24/2021 6:30:00 AM 12.32 54.176 0.063 9.92 26.66 10.26
5/24/2021 6:45:00 AM 12.29 54.122 0.063 9.92 22.7 10.3
5/24/2021 7:00:00 AM 12.27 54.086 0.063 9.93 28.67 10.33
5/24/2021 7:15:00 AM 12.26 54.068 0.063 9.94 24.58 10.36
5/24/2021 7:30:00 AM 12.25 54.05 0.063 9.93 24.33 10.36
5/24/2021 7:45:00 AM 12.23 54.014 0.063 9.95 23.93 10.39
5/24/2021 8:00:00 AM 12.21 53.978 0.063 9.95 23.24 10.39
5/24/2021 8:15:00 AM 12.22 53.996 0.063 9.96 27.28 10.41
5/24/2021 8:30:00 AM 12.23 54.014 0.063 9.97 18.72 10.43
5/24/2021 8:45:00 AM 12.26 54.068 0.063 9.89 21.35 10.44
5/24/2021 9:00:00 AM 12.36 54.248 0.062 10 20.85 10.45
5/24/2021 9:15:00 AM 12.5 54.5 0.062 10.01 19.44 10.45
5/24/2021 9:30:00 AM 12.58 54.644 0.062 10.03 21.77 10.44
5/24/2021 9:45:00 AM 12.68 54.824 0.062 10.05 24.94 10.45
5/24/2021 10:00:00 AM 12.74 54.932 0.062 10.02 21.54 10.44
5/24/2021 10:15:00 AM 12.81 55.058 0.062 9.95 19.55 10.41
5/24/2021 10:30:00 AM 12.92 55.256 0.062 10.1 21.24 10.41
5/24/2021 10:45:00 AM 13.06 55.508 0.062 10.08 20.2 10.37
5/24/2021 11:00:00 AM 13.33 55.994 0.062 10.1 18.11 10.36
5/24/2021 11:15:00 AM 13.52 56.336 0.062 10.11 17.27 10.31
5/24/2021 11:30:00 AM 13.63 56.534 0.062 10.12 16.43 10.29
5/24/2021 11:45:00 AM 13.68 56.624 0.062 10.08 30.5 10.27
5/24/2021 12:00:00 PM 13.72 56.696 0.062 10.13 19.19 10.25
5/24/2021 12:15:00 PM 13.85 56.93 0.062 10.13 20.33 10.26
5/24/2021 12:30:00 PM 13.72 56.696 0.062 10.12 21.2 10.22
5/24/2021 12:45:00 PM 13.72 56.696 0.062 10.13 16.71 10.24
5/24/2021 1:00:00 PM 13.67 56.606 0.062 10.12 19.41 10.22
5/24/2021 1:15:00 PM 13.64 56.552 0.062 10 18.27 10.21
5/24/2021 1:30:00 PM 13.58 56.444 0.062 10.11 19.4 10.18
5/24/2021 1:45:00 PM 13.5 56.3 0.062 10.07 18.43 10.14
5/24/2021 2:00:00 PM 13.46 56.228 0.062 10.06 13.65 10.16
5/24/2021 2:15:00 PM 13.47 56.246 0.062 10.07 19.38 10.19
5/24/2021 2:30:00 PM 13.55 56.39 0.062 10.09 19.17 10.23
5/24/2021 2:45:00 PM 13.6 56.48 0.062 10.1 23.61 10.21
5/24/2021 3:00:00 PM 13.74 56.732 0.062 9.94 21.89 10.19
5/24/2021 3:15:00 PM 13.85 56.93 0.062 10 26.97 10.13
5/24/2021 3:30:00 PM 13.98 57.164 0.062 10.12 21.28 10.14
5/24/2021 3:45:00 PM 13.98 57.164 0.062 10.02 20.78 10.1
5/24/2021 4:00:00 PM 14 57.2 0.062 10.12 16.67 10.12
5/24/2021 4:15:00 PM 13.98 57.164 0.062 10.11 22.42 10.11
5/24/2021 4:30:00 PM 13.82 56.876 0.062 10.02 20.75 10.06
5/24/2021 4:45:00 PM 13.75 56.75 0.062 10.09 22.12 10.11
5/24/2021 5:00:00 PM 13.73 56.714 0.062 10.08 17.32 10.12
5/24/2021 5:15:00 PM 13.69 56.642 0.062 10.07 20.79 10.1
5/24/2021 5:30:00 PM 13.65 56.57 0.062 10.06 20.7 10.09
5/24/2021 5:45:00 PM 13.62 56.516 0.062 10.06 21.17 10.1
5/24/2021 6:00:00 PM 13.59 56.462 0.062 10.05 20.93 10.08
5/24/2021 6:15:00 PM 13.55 56.39 0.063 10.04 19.58 10.06
5/24/2021 6:30:00 PM 13.51 56.318 0.063 10.03 20.86 10.06
5/24/2021 6:45:00 PM 13.48 56.264 0.063 10.02 20.79 10.05
5/24/2021 7:00:00 PM 13.44 56.192 0.063 10.01 21.63 10.05
5/24/2021 7:15:00 PM 13.4 56.12 0.063 10.01 20.25 10.05
5/24/2021 7:30:00 PM 13.37 56.066 0.063 10 25.48 10.04
5/24/2021 7:45:00 PM 13.33 55.994 0.063 9.99 18.14 10.03
5/24/2021 8:00:00 PM 13.29 55.922 0.063 9.98 20.87 10.02
5/24/2021 8:15:00 PM 13.25 55.85 0.063 9.97 19.5 10.02
5/24/2021 8:30:00 PM 13.22 55.796 0.063 9.96 19.36 10.02
5/24/2021 8:45:00 PM 13.19 55.742 0.063 9.96 23.8 10.03
5/24/2021 9:00:00 PM 13.16 55.688 0.063 9.96 28.63 10.03
5/24/2021 9:15:00 PM 13.13 55.634 0.063 9.96 20.4 10.04
5/24/2021 9:30:00 PM 13.11 55.598 0.063 9.8 19.47 10.04
5/24/2021 9:45:00 PM 13.09 55.562 0.063 9.97 17.35 10.05
5/24/2021 10:00:00 PM 13.07 55.526 0.063 9.96 24.72 10.06
5/24/2021 10:15:00 PM 13.04 55.472 0.063 9.95 20.31 10.07
5/24/2021 10:30:00 PM 13.02 55.436 0.063 9.95 23.68 10.07
5/24/2021 10:45:00 PM 13.01 55.418 0.063 9.95 31.69 10.07
5/24/2021 11:00:00 PM 12.99 55.382 0.063 9.94 23.54 10.08
5/24/2021 11:15:00 PM 12.97 55.346 0.063 9.96 19.62 10.08
5/24/2021 11:30:00 PM 12.95 55.31 0.064 9.93 17.83 10.08
5/24/2021 11:45:00 PM 12.94 55.292 0.064 9.96 22.42 10.09
5/25/2021 12:00:00 AM 12.92 55.256 0.064 9.95 20.76 10.09
5/25/2021 12:15:00 AM 12.9 55.22 0.064 9.92 19.51 10.1
5/25/2021 12:30:00 AM 12.89 55.202 0.064 9.95 19.05 10.1
5/25/2021 12:45:00 AM 12.88 55.184 0.064 9.95 18.91 10.1
5/25/2021 1:00:00 AM 12.86 55.148 0.064 9.95 18.42 10.11
5/25/2021 1:15:00 AM 12.85 55.13 0.064 9.95 20.06 10.11
5/25/2021 1:30:00 AM 12.83 55.094 0.064 9.95 13.78 10.11
5/25/2021 1:45:00 AM 12.82 55.076 0.064 9.95 19.3 10.11
5/25/2021 2:00:00 AM 12.81 55.058 0.064 9.95 17.86 10.12
5/25/2021 2:15:00 AM 12.8 55.04 0.064 9.95 18.57 10.12
5/25/2021 2:30:00 AM 12.79 55.022 0.064 9.95 22.85 10.12
5/25/2021 2:45:00 AM 12.77 54.986 0.064 9.9 17.32 10.12
5/25/2021 3:00:00 AM 12.76 54.968 0.064 9.96 18.79 10.13
5/25/2021 3:15:00 AM 12.75 54.95 0.064 9.95 17.6 10.13
5/25/2021 3:30:00 AM 12.75 54.95 0.064 9.95 19.77 10.13
5/25/2021 3:45:00 AM 12.74 54.932 0.064 9.8 23.27 10.13
5/25/2021 4:00:00 AM 12.73 54.914 0.064 9.96 20.39 10.13
5/25/2021 4:15:00 AM 12.72 54.896 0.064 9.95 19.88 10.13
5/25/2021 4:30:00 AM 12.71 54.878 0.064 9.94 17.36 10.13
5/25/2021 4:45:00 AM 12.7 54.86 0.064 9.95 19.39 10.14
5/25/2021 5:00:00 AM 12.69 54.842 0.064 9.94 19.89 10.14
5/25/2021 5:15:00 AM 12.68 54.824 0.064 9.84 21.62 10.14
5/25/2021 5:30:00 AM 12.67 54.806 0.064 9.95 19.82 10.14
5/25/2021 5:45:00 AM 12.66 54.788 0.064 9.94 19.37 10.15
5/25/2021 6:00:00 AM 12.66 54.788 0.064 9.85 18.62 10.16
5/25/2021 6:15:00 AM 12.65 54.77 0.064 9.96 18.62 10.17
5/25/2021 6:30:00 AM 12.65 54.77 0.064 9.83 24.69 10.18
5/25/2021 6:45:00 AM 12.64 54.752 0.064 9.93 18.49 10.18
5/25/2021 7:00:00 AM 12.65 54.77 0.064 9.97 17.98 10.2
5/25/2021 7:15:00 AM 12.65 54.77 0.064 9.97 18.56 10.22
5/25/2021 7:30:00 AM 12.66 54.788 0.064 9.98 18.66 10.22
5/25/2021 7:45:00 AM 12.66 54.788 0.064 9.98 17.69 10.22
5/25/2021 8:00:00 AM 12.67 54.806 0.064 9.98 17.76 10.24
5/25/2021 8:15:00 AM 12.68 54.824 0.064 9.91 19.9 10.24
5/25/2021 8:30:00 AM 12.7 54.86 0.064 9.9 20.14 10.26
5/25/2021 8:45:00 AM 12.72 54.896 0.064 9.96 20.07 10.27
5/25/2021 9:00:00 AM 12.74 54.932 0.064 9.93 19.09 10.28
5/25/2021 9:15:00 AM 12.77 54.986 0.064 10.04 18.96 10.29
5/25/2021 9:30:00 AM 12.8 55.04 0.064 10.03 19 10.29
5/25/2021 9:45:00 AM 12.83 55.094 0.064 10.03 18.5 10.29
5/25/2021 10:00:00 AM 12.86 55.148 0.064 10.04 18.73 10.28
5/25/2021 10:15:00 AM 12.92 55.256 0.064 9.99 30.36 10.31
5/25/2021 10:30:00 AM 12.97 55.346 0.064 10.01 18.56 10.31
5/25/2021 10:45:00 AM 13.06 55.508 0.063 10.09 19.34 10.32
5/25/2021 11:00:00 AM 13.15 55.67 0.063 10.09 20.18 10.31
5/25/2021 11:15:00 AM 13.22 55.796 0.063 10.1 22.84 10.3
5/25/2021 11:30:00 AM 13.29 55.922 0.063 10.1 19.25 10.28
5/25/2021 11:45:00 AM 13.44 56.192 0.063 10.13 19.21 10.3
5/25/2021 12:00:00 PM 13.61 56.498 0.063 10.13 24.95 10.29
5/25/2021 12:15:00 PM 13.77 56.786 0.063 10.16 19.24 10.25
5/25/2021 12:30:00 PM 14.07 57.326 0.063 10.14 25.37 10.2
5/25/2021 12:45:00 PM 14.35 57.83 0.063 10.17 19.15 10.14
5/25/2021 1:00:00 PM 14.39 57.902 0.063 10.17 12.55 10.11
5/25/2021 1:15:00 PM 14.39 57.902 0.063 10.18 23.75 10.11
5/25/2021 1:30:00 PM 14.45 58.01 0.063 10.19 20.55 10.11
5/25/2021 1:45:00 PM 14.39 57.902 0.063 10.18 16.8 10.06
5/25/2021 2:00:00 PM 14.35 57.83 0.063 10.16 19.1 10.05
5/25/2021 2:15:00 PM 14.34 57.812 0.063 10.17 18.87 10.05
5/25/2021 2:30:00 PM 14.43 57.974 0.063 10.17 17.88 10.05
5/25/2021 2:45:00 PM 14.47 58.046 0.063 10.16 20.34 10.02
5/25/2021 3:00:00 PM 14.48 58.064 0.063 10.16 17.27 10
5/25/2021 3:15:00 PM 14.52 58.136 0.063 10.11 16.52 9.99
5/25/2021 3:30:00 PM 14.53 58.154 0.063 10.15 17.83 9.97
5/25/2021 3:45:00 PM 14.6 58.28 0.063 10.15 19.43 9.96
5/25/2021 4:00:00 PM 14.65 58.37 0.063 10 15.44 9.94
5/25/2021 4:15:00 PM 14.66 58.388 0.063 10.15 17.32 9.92
5/25/2021 4:30:00 PM 14.6 58.28 0.063 10.13 21.02 9.88
5/25/2021 4:45:00 PM 14.48 58.064 0.064 10.09 20.17 9.82
5/25/2021 5:00:00 PM 14.44 57.992 0.064 10.09 12.87 9.89
5/25/2021 5:15:00 PM 14.44 57.992 0.064 10.07 20.32 9.92
5/25/2021 5:30:00 PM 14.47 58.046 0.064 10 17.08 9.91
5/25/2021 5:45:00 PM 14.45 58.01 0.064 10.09 17.01 9.86
5/25/2021 6:00:00 PM 14.43 57.974 0.064 10.09 13.42 9.84
5/25/2021 6:15:00 PM 14.39 57.902 0.064 10.06 20.36 9.82
5/25/2021 6:30:00 PM 14.34 57.812 0.064 10.04 16.8 9.82
5/25/2021 6:45:00 PM 14.3 57.74 0.064 10.02 19.4 9.81
5/25/2021 7:00:00 PM 14.26 57.668 0.064 9.98 12.27 9.8
5/25/2021 7:15:00 PM 14.24 57.632 0.064 10 17.58 9.81
5/25/2021 7:30:00 PM 14.23 57.614 0.064 10 16.33 9.81
5/25/2021 7:45:00 PM 14.24 57.632 0.064 10.01 16.06 9.8
5/25/2021 8:00:00 PM 14.21 57.578 0.064 9.99 18.12 9.78
5/25/2021 8:15:00 PM 14.19 57.542 0.065 9.97 14.98 9.77
5/25/2021 8:30:00 PM 14.16 57.488 0.065 9.9 20.93 9.75
5/25/2021 8:45:00 PM 14.15 57.47 0.065 9.95 17.5 9.76
5/25/2021 9:00:00 PM 14.12 57.416 0.065 9.95 18.61 9.76
5/25/2021 9:15:00 PM 14.11 57.398 0.065 9.93 19.67 9.76
5/25/2021 9:30:00 PM 14.09 57.362 0.065 9.91 16.89 9.76
5/25/2021 9:45:00 PM 14.08 57.344 0.065 9.95 19.75 9.77
5/25/2021 10:00:00 PM 14.06 57.308 0.065 9.94 19.7 9.78
5/25/2021 10:15:00 PM 14.04 57.272 0.065 9.94 19.25 9.78
5/25/2021 10:30:00 PM 14.02 57.236 0.065 9.94 18.32 9.78
5/25/2021 10:45:00 PM 14 57.2 0.065 9.93 21.61 9.79
5/25/2021 11:00:00 PM 13.97 57.146 0.065 9.93 16.93 9.78
5/25/2021 11:15:00 PM 13.96 57.128 0.065 9.89 19.44 9.8
5/25/2021 11:30:00 PM 13.94 57.092 0.065 9.94 16.64 9.8
5/25/2021 11:45:00 PM 13.92 57.056 0.065 9.89 16.98 9.8
5/26/2021 12:00:00 AM 13.9 57.02 0.065 9.93 24.44 9.81
5/26/2021 12:15:00 AM 13.89 57.002 0.065 9.92 18.57 9.81
5/26/2021 12:30:00 AM 13.88 56.984 0.065 9.92 16.64 9.81
5/26/2021 12:45:00 AM 13.87 56.966 0.065 9.91 16.45 9.82
5/26/2021 1:00:00 AM 13.86 56.948 0.065 9.91 19.73 9.82
5/26/2021 1:15:00 AM 13.85 56.93 0.065 9.9 16.33 9.81
5/26/2021 1:30:00 AM 13.84 56.912 0.065 9.9 19.06 9.81
5/26/2021 1:45:00 AM 13.84 56.912 0.065 9.91 18.82 9.81
5/26/2021 2:00:00 AM 13.83 56.894 0.066 9.76 18.76 9.82
5/26/2021 2:15:00 AM 13.83 56.894 0.066 9.91 16.94 9.82
5/26/2021 2:30:00 AM 13.83 56.894 0.066 9.9 32.55 9.82
5/26/2021 2:45:00 AM 13.83 56.894 0.066 9.89 21.01 9.82
5/26/2021 3:00:00 AM 13.83 56.894 0.066 9.9 18.59 9.81
5/26/2021 3:15:00 AM 13.83 56.894 0.066 9.89 15.43 9.81
5/26/2021 3:30:00 AM 13.83 56.894 0.066 9.89 22.21 9.81
5/26/2021 3:45:00 AM 13.83 56.894 0.066 9.74 19.2 9.82
5/26/2021 4:00:00 AM 13.83 56.894 0.066 9.9 19.13 9.8
5/26/2021 4:15:00 AM 13.83 56.894 0.066 9.84 19.08 9.81
5/26/2021 4:30:00 AM 13.82 56.876 0.066 9.88 16.64 9.81
5/26/2021 4:45:00 AM 13.81 56.858 0.066 9.87 19.25 9.81
5/26/2021 5:00:00 AM 13.81 56.858 0.066 9.87 18.38 9.81
5/26/2021 5:15:00 AM 13.8 56.84 0.066 9.88 19.11 9.82
5/26/2021 5:30:00 AM 13.79 56.822 0.066 9.89 20.04 9.82
5/26/2021 5:45:00 AM 13.78 56.804 0.066 9.89 25.13 9.82
5/26/2021 6:00:00 AM 13.78 56.804 0.066 9.9 18.89 9.83
5/26/2021 6:15:00 AM 13.78 56.804 0.066 9.9 19.8 9.84
5/26/2021 6:30:00 AM 13.77 56.786 0.066 9.75 22.8 9.84
5/26/2021 6:45:00 AM 13.77 56.786 0.066 9.93 19.49 9.87
5/26/2021 7:00:00 AM 13.78 56.804 0.066 9.92 19.47 9.89
5/26/2021 7:15:00 AM 13.82 56.876 0.066 9.94 22.55 9.93
5/26/2021 7:30:00 AM 13.83 56.894 0.066 9.95 19.49 9.93
5/26/2021 7:45:00 AM 13.89 57.002 0.066 9.97 16.82 9.97
5/26/2021 8:00:00 AM 13.96 57.128 0.066 10 18.53 9.98
5/26/2021 8:15:00 AM 14.04 57.272 0.066 10.03 19.24 9.99
5/26/2021 8:30:00 AM 14.12 57.416 0.066 10.06 18.95 9.97
5/26/2021 8:45:00 AM 14.13 57.434 0.066 10.05 20.93 9.96
5/26/2021 9:00:00 AM 14.23 57.614 0.066 10.06 19.26 9.98
5/26/2021 9:15:00 AM 14.39 57.902 0.066 10.02 18.32 9.98
5/26/2021 9:30:00 AM 14.55 58.19 0.066 10.14 18.93 9.99
5/26/2021 9:45:00 AM 14.59 58.262 0.066 10.11 18.47 9.97
5/26/2021 10:00:00 AM 14.68 58.424 0.066 10.15 18.55 9.95
5/26/2021 10:15:00 AM 14.94 58.892 0.066 10.16 17.03 9.91
5/26/2021 10:30:00 AM 15.15 59.27 0.066 10.14 18.1 9.88
5/26/2021 10:45:00 AM 15.36 59.648 0.065 10.11 16.98 9.85
5/26/2021 11:00:00 AM 15.59 60.062 0.065 10.2 17.97 9.81
5/26/2021 11:15:00 AM 15.82 60.476 0.065 10.21 16.72 9.77
5/26/2021 11:30:00 AM 15.98 60.764 0.065 10.21 18.42 9.74
5/26/2021 11:45:00 AM 16.19 61.142 0.065 10.2 18.59 9.71
5/26/2021 12:00:00 PM 16.26 61.268 0.065 10.23 17.85 9.65
5/26/2021 12:15:00 PM 16.36 61.448 0.065 10.23 17.99 9.64
5/26/2021 12:30:00 PM 16.48 61.664 0.065 10.15 18.28 9.61
5/26/2021 12:45:00 PM 16.17 61.106 0.066 10.16 23.54 9.46
5/26/2021 1:00:00 PM 16.13 61.034 0.065 10.15 20.11 9.57
5/26/2021 1:15:00 PM 16.34 61.412 0.065 10.18 19.67 9.59
5/26/2021 1:30:00 PM 16.25 61.25 0.065 10.18 21.84 9.48
5/26/2021 1:45:00 PM 16.06 60.908 0.066 10.12 19.65 9.44
5/26/2021 2:00:00 PM 16.11 60.998 0.065 10.15 19.68 9.54
5/26/2021 2:15:00 PM 16.09 60.962 0.066 10.14 19.46 9.45
5/26/2021 2:30:00 PM 16 60.8 0.066 10.12 18.31 9.48
5/26/2021 2:45:00 PM 16.11 60.998 0.062 10.13 19.29 9.59
5/26/2021 3:00:00 PM 16.23 61.214 0.065 10.06 18.62 9.58
5/26/2021 3:15:00 PM 16.29 61.322 0.065 10.2 19.04 9.5
5/26/2021 3:30:00 PM 16.31 61.358 0.065 10.18 18.47 9.49
5/26/2021 3:45:00 PM 16.44 61.592 0.065 10.2 19.08 9.52
5/26/2021 4:00:00 PM 16.52 61.736 0.065 10.2 17.45 9.47
5/26/2021 4:15:00 PM 16.55 61.79 0.066 10.18 18.08 9.43
5/26/2021 4:30:00 PM 16.58 61.844 0.066 10.04 18.22 9.41
5/26/2021 4:45:00 PM 16.51 61.718 0.066 10.09 18.16 9.34
5/26/2021 5:00:00 PM 16.47 61.646 0.066 10.09 29.11 9.24
5/26/2021 5:15:00 PM 16.77 62.186 0.062 9.98 148.47 9.21
5/26/2021 5:30:00 PM 16.82 62.276 0.084 10.16 565.87 9.2
5/26/2021 5:45:00 PM 16.88 62.384 0.093 10.1 557.79 9.2
5/26/2021 6:00:00 PM 17.07 62.726 0.088 10.21 360.93 9.14
5/26/2021 6:15:00 PM 16.88 62.384 0.075 10.11 155.84 9.16
5/26/2021 6:30:00 PM 16.67 62.006 0.072 10.07 93.75 9.19
5/26/2021 6:45:00 PM 16.53 61.754 0.071 10.08 69.25 9.22
5/26/2021 7:00:00 PM 16.36 61.448 0.068 10.06 74.07 9.27
5/26/2021 7:15:00 PM 16.18 61.124 0.066 9.91 63.38 9.29
5/26/2021 7:30:00 PM 16.04 60.872 0.07 10.05 67.45 9.31
5/26/2021 7:45:00 PM 15.93 60.674 0.082 10.1 87.69 9.32
5/26/2021 8:00:00 PM 15.85 60.53 0.079 10.09 64.37 9.33
5/26/2021 8:15:00 PM 15.78 60.404 0.075 10.07 45.79 9.34
5/26/2021 8:30:00 PM 15.72 60.296 0.075 10.07 48.28 9.36
5/26/2021 8:45:00 PM 15.67 60.206 0.076 10.07 51.67 9.37
5/26/2021 9:00:00 PM 15.61 60.098 0.077 10.1 43.59 9.38
5/26/2021 9:15:00 PM 15.57 60.026 0.077 10.09 40.42 9.4
5/26/2021 9:30:00 PM 15.52 59.936 0.077 10.08 37.36 9.4
5/26/2021 9:45:00 PM 15.47 59.846 0.078 10.08 38.4 9.41
5/26/2021 10:00:00 PM 15.41 59.738 0.079 10.08 35.78 9.43
5/26/2021 10:15:00 PM 15.35 59.63 0.08 10.09 32.75 9.44
5/26/2021 10:30:00 PM 15.3 59.54 0.08 10.07 31.14 9.45
5/26/2021 10:45:00 PM 15.24 59.432 0.08 10.07 30.53 9.46
5/26/2021 11:00:00 PM 15.18 59.324 0.077 10.07 27.12 9.48
5/26/2021 11:15:00 PM 15.12 59.216 0.081 10.07 25.92 9.5
5/26/2021 11:30:00 PM 15.05 59.09 0.082 10.12 30.44 9.52
5/26/2021 11:45:00 PM 14.99 58.982 0.082 10.11 24.17 9.53
5/27/2021 12:00:00 AM 14.93 58.874 0.082 10.1 22.32 9.54
5/27/2021 12:15:00 AM 14.87 58.766 0.082 10.11 20.85 9.56
5/27/2021 12:30:00 AM 14.82 58.676 0.082 10.11 20.21 9.57
5/27/2021 12:45:00 AM 14.76 58.568 0.081 10.11 20.09 9.58
5/27/2021 1:00:00 AM 14.71 58.478 0.081 10.12 18.97 9.6
5/27/2021 1:15:00 AM 14.65 58.37 0.081 10.11 19.01 9.61
5/27/2021 1:30:00 AM 14.6 58.28 0.08 10.11 16.93 9.61
5/27/2021 1:45:00 AM 14.55 58.19 0.08 10.1 18.32 9.63
5/27/2021 2:00:00 AM 14.5 58.1 0.08 10.1 17.87 9.64
5/27/2021 2:15:00 AM 14.44 57.992 0.079 9.98 18.31 9.65
5/27/2021 2:30:00 AM 14.39 57.902 0.079 10.03 18.04 9.66
5/27/2021 2:45:00 AM 14.34 57.812 0.079 10.11 17.63 9.68
5/27/2021 3:00:00 AM 14.28 57.704 0.078 10.1 17.52 9.69
5/27/2021 3:15:00 AM 14.23 57.614 0.078 10.09 16.92 9.7
5/27/2021 3:30:00 AM 14.17 57.506 0.078 10.09 16.72 9.71
5/27/2021 3:45:00 AM 14.13 57.434 0.078 10.09 14.86 9.72
5/27/2021 4:00:00 AM 14.08 57.344 0.077 10.09 16.31 9.74
5/27/2021 4:15:00 AM 14.03 57.254 0.077 10.08 15.89 9.75
5/27/2021 4:30:00 AM 13.97 57.146 0.077 10.08 15.3 9.76
5/27/2021 4:45:00 AM 13.92 57.056 0.077 9.99 15.79 9.78
5/27/2021 5:00:00 AM 13.86 56.948 0.077 10.09 15.49 9.79
5/27/2021 5:15:00 AM 13.8 56.84 0.076 10.08 15.98 9.8
5/27/2021 5:30:00 AM 13.74 56.732 0.076 10.07 15.88 9.81
5/27/2021 5:45:00 AM 13.68 56.624 0.076 10.08 16.24 9.83
5/27/2021 6:00:00 AM 13.63 56.534 0.076 9.95 16.23 9.86
5/27/2021 6:15:00 AM 13.57 56.426 0.076 10.01 20.58 9.88
5/27/2021 6:30:00 AM 13.53 56.354 0.076 10.09 21.84 9.89
5/27/2021 6:45:00 AM 13.49 56.282 0.075 9.99 16.28 9.92
5/27/2021 7:00:00 AM 13.45 56.21 0.075 10.11 16.25 9.94
5/27/2021 7:15:00 AM 13.44 56.192 0.075 10.1 16.27 9.95
5/27/2021 7:30:00 AM 13.43 56.174 0.075 10.09 804.79 9.97
5/27/2021 7:45:00 AM 13.44 56.192 0.075 10.11 18.41 9.98
5/27/2021 8:00:00 AM 13.45 56.21 0.075 10.12 16.5 10
5/27/2021 8:15:00 AM 13.45 56.21 0.074 10.13 16.16 10.01
5/27/2021 8:30:00 AM 13.47 56.246 0.074 10.13 15.97 10.03
5/27/2021 8:45:00 AM 13.5 56.3 0.074 10.15 16.75 10.05
5/27/2021 9:00:00 AM 13.55 56.39 0.074 10.15 16.02 10.06
5/27/2021 9:15:00 AM 13.62 56.516 0.074 10.17 15.77 10.07
5/27/2021 9:30:00 AM 13.7 56.66 0.074 10.05 16.16 10.07
5/27/2021 9:45:00 AM 13.8 56.84 0.074 10.2 15.64 10.07
5/27/2021 10:00:00 AM 13.9 57.02 0.073 10.2 15.09 10.07
5/27/2021 10:15:00 AM 14.01 57.218 0.073 10.21 15.68 10.06
5/27/2021 10:30:00 AM 14.15 57.47 0.073 10.21 15.31 10.04
5/27/2021 10:45:00 AM 14.29 57.722 0.073 10.23 15.24 10.02
5/27/2021 11:00:00 AM 14.44 57.992 0.073 10.24 15.19 10
5/27/2021 11:15:00 AM 14.57 58.226 0.073 10.24 15.23 9.98
5/27/2021 11:30:00 AM 14.67 58.406 0.073 10.25 15 9.96
5/27/2021 11:45:00 AM 14.74 58.532 0.073 10.25 15.36 9.94
5/27/2021 12:00:00 PM 14.8 58.64 0.072 10.25 15.09 9.93
5/27/2021 12:15:00 PM 14.85 58.73 0.072 10.13 15.21 9.91
5/27/2021 12:30:00 PM 14.89 58.802 0.072 10.27 15.2 9.89
5/27/2021 12:45:00 PM 14.94 58.892 0.072 10.25 14.94 9.87
5/27/2021 1:00:00 PM 14.96 58.928 0.072 10.25 15.59 9.86
5/27/2021 1:15:00 PM 14.97 58.946 0.072 10.25 14.84 9.85
5/27/2021 1:30:00 PM 14.96 58.928 0.072 10.24 14.86 9.84
5/27/2021 1:45:00 PM 14.96 58.928 0.072 10.25 14.73 9.84
5/27/2021 2:00:00 PM 14.97 58.946 0.072 10.24 14.64 9.82
5/27/2021 2:15:00 PM 14.96 58.928 0.072 10.17 14.68 9.82
5/27/2021 2:30:00 PM 14.94 58.892 0.072 10.17 14.2 9.82
5/27/2021 2:45:00 PM 14.9 58.82 0.072 10.26 14.62 9.85
5/27/2021 3:00:00 PM 14.85 58.73 0.071 10.25 15.3 9.85
5/27/2021 3:15:00 PM 14.86 58.748 0.071 10.24 14.99 9.82
5/27/2021 3:30:00 PM 14.78 58.604 0.071 10.24 15.29 9.83
5/27/2021 3:45:00 PM 14.79 58.622 0.071 10.24 14.28 9.85
5/27/2021 4:00:00 PM 14.8 58.64 0.071 10.22 14.5 9.8
5/27/2021 4:15:00 PM 14.79 58.622 0.071 10.21 14.84 9.78
5/27/2021 4:30:00 PM 14.73 58.514 0.071 10.08 14.87 9.78
5/27/2021 4:45:00 PM 14.7 58.46 0.071 10.21 14.54 9.78
5/27/2021 5:00:00 PM 14.6 58.28 0.071 10.19 14.76 9.76
5/27/2021 5:15:00 PM 14.55 58.19 0.071 10.19 14.92 9.81
5/27/2021 5:30:00 PM 14.51 58.118 0.071 10.15 14.82 9.81
5/27/2021 5:45:00 PM 14.44 57.992 0.071 10.18 14.49 9.79
5/27/2021 6:00:00 PM 14.37 57.866 0.072 10.16 14.43 9.78
5/27/2021 6:15:00 PM 14.31 57.758 0.072 10.15 14.15 9.77
5/27/2021 6:30:00 PM 14.26 57.668 0.072 10.14 14.24 9.78
5/27/2021 6:45:00 PM 14.21 57.578 0.072 10.13 13.8 9.78
5/27/2021 7:00:00 PM 14.14 57.452 0.072 10.08 14.27 9.78
5/27/2021 7:15:00 PM 14.09 57.362 0.072 10.12 14.41 9.8
5/27/2021 7:30:00 PM 14.04 57.272 0.072 10.13 14.52 9.82
5/27/2021 7:45:00 PM 13.98 57.164 0.072 10.12 14.49 9.8
5/27/2021 8:00:00 PM 13.92 57.056 0.072 10.11 14.46 9.81
5/27/2021 8:15:00 PM 13.86 56.948 0.072 9.97 14.54 9.81
5/27/2021 8:30:00 PM 13.8 56.84 0.072 10.1 15.02 9.81
5/27/2021 8:45:00 PM 13.74 56.732 0.072 10.09 16.45 9.82
5/27/2021 9:00:00 PM 13.69 56.642 0.072 10.03 13.47 9.83
5/27/2021 9:15:00 PM 13.63 56.534 0.072 10.09 16.29 9.84
5/27/2021 9:30:00 PM 13.58 56.444 0.072 10.08 17.15 9.85
5/27/2021 9:45:00 PM 13.51 56.318 0.072 10.08 16.08 9.87
5/27/2021 10:00:00 PM 13.45 56.21 0.072 10.08 16.11 9.89
5/27/2021 10:15:00 PM 13.38 56.084 0.072 10.08 15.63 9.91
5/27/2021 10:30:00 PM 13.3 55.94 0.072 10.07 15.39 9.93
5/27/2021 10:45:00 PM 13.23 55.814 0.072 10.08 15.44 9.94
5/27/2021 11:00:00 PM 13.15 55.67 0.072 10.07 15.98 9.96
5/27/2021 11:15:00 PM 13.06 55.508 0.072 10.07 16.92 9.98
5/27/2021 11:30:00 PM 12.98 55.364 0.072 10.07 15.52 10
5/27/2021 11:45:00 PM 12.9 55.22 0.072 10 15.67 10.02
5/28/2021 12:00:00 AM 12.82 55.076 0.072 10.08 15.14 10.03
5/28/2021 12:15:00 AM 12.77 54.986 0.072 10.07 15.19 10.05
5/28/2021 12:30:00 AM 12.71 54.878 0.072 10.06 14.98 10.07
5/28/2021 12:45:00 AM 12.65 54.77 0.072 10.06 14.57 10.08
5/28/2021 1:00:00 AM 12.59 54.662 0.072 10.06 15.14 10.09
5/28/2021 1:15:00 AM 12.52 54.536 0.072 10.06 14.45 10.11
5/28/2021 1:30:00 AM 12.45 54.41 0.072 10.06 14.68 10.12
5/28/2021 1:45:00 AM 12.39 54.302 0.071 10.05 14.83 10.13
5/28/2021 2:00:00 AM 12.32 54.176 0.071 10.05 14.7 10.15
5/28/2021 2:15:00 AM 12.26 54.068 0.071 10.05 14.98 10.17
5/28/2021 2:30:00 AM 12.2 53.96 0.071 10.05 14.46 10.18
5/28/2021 2:45:00 AM 12.12 53.816 0.071 10.05 14.78 10.19
5/28/2021 3:00:00 AM 12.06 53.708 0.071 10.04 14.63 10.21
5/28/2021 3:15:00 AM 11.99 53.582 0.071 10.05 14.55 10.23
5/28/2021 3:30:00 AM 11.92 53.456 0.068 10.01 14.38 10.24
5/28/2021 3:45:00 AM 11.84 53.312 0.071 10.04 14.35 10.25
5/28/2021 4:00:00 AM 11.77 53.186 0.071 10.04 13.99 10.28
5/28/2021 4:15:00 AM 11.69 53.042 0.071 10.03 14.39 10.3
5/28/2021 4:30:00 AM 11.61 52.898 0.071 10.05 14.51 10.32
5/28/2021 4:45:00 AM 11.52 52.736 0.071 10.04 14.19 10.34
5/28/2021 5:00:00 AM 11.45 52.61 0.071 10.04 14.07 10.35
5/28/2021 5:15:00 AM 11.39 52.502 0.071 10.01 14.55 10.37
5/28/2021 5:30:00 AM 11.33 52.394 0.071 10.04 14.22 10.39
5/28/2021 5:45:00 AM 11.28 52.304 0.071 10.03 14.55 10.41
5/28/2021 6:00:00 AM 11.23 52.214 0.071 9.93 14.24 10.43
5/28/2021 6:15:00 AM 11.2 52.16 0.071 10.05 14.13 10.44
5/28/2021 6:30:00 AM 11.16 52.088 0.071 10.04 13.98 10.46
5/28/2021 6:45:00 AM 11.14 52.052 0.071 10.03 14.09 10.48
5/28/2021 7:00:00 AM 11.11 51.998 0.071 10.04 14.13 10.5
5/28/2021 7:15:00 AM 11.1 51.98 0.071 10.04 13.63 10.52
5/28/2021 7:30:00 AM 11.09 51.962 0.071 10.06 13.85 10.55
5/28/2021 7:45:00 AM 11.07 51.926 0.071 10.06 13.83 10.55
5/28/2021 8:00:00 AM 11.06 51.908 0.071 10.05 13.43 10.54
5/28/2021 8:15:00 AM 11.05 51.89 0.071 10.05 13.83 10.54
5/28/2021 8:30:00 AM 11.04 51.872 0.071 10.05 13.85 10.54
5/28/2021 8:45:00 AM 11.03 51.854 0.071